Provisional Data: East Fork First Fork Sinnemahoning Creek near Logue, PA


Please select a monitoring station.
Please select start date.
Please select start date.

Toggle Unit: C/F Toggle Unit: C/F
Sample Time Temperature (C) Temperature (F) Specific Conductivity (mS/cm) pH   Turbidity (NTU+) DO (mg/L)
5/17/2022 12:00:00 AM 11.4 52.52 0.046 7.02 1.93 9.99
5/17/2022 12:15:00 AM 11.34 52.412 0.046 7.02 1.88 10.01
5/17/2022 12:30:00 AM 11.29 52.322 0.046 7.02 1.96 10.02
5/17/2022 12:45:00 AM 11.23 52.214 0.046 7.02 1.83 10.04
5/17/2022 1:00:00 AM 11.18 52.124 0.046 7.02 1.93 10.05
5/17/2022 1:15:00 AM 11.14 52.052 0.046 7.02 1.91 10.06
5/17/2022 1:30:00 AM 11.09 51.962 0.046 7.02 1.75 10.07
5/17/2022 1:45:00 AM 11.04 51.872 0.046 7.02 1.74 10.08
5/17/2022 2:00:00 AM 11 51.8 0.046 7.02 1.74 10.1
5/17/2022 2:15:00 AM 10.95 51.71 0.046 7.03 1.87 10.1
5/17/2022 2:30:00 AM 10.9 51.62 0.046 7.02 1.81 10.12
5/17/2022 2:45:00 AM 10.86 51.548 0.046 7.03 1.76 10.13
5/17/2022 3:00:00 AM 10.81 51.458 0.046 7.02 1.78 10.14
5/17/2022 3:15:00 AM 10.78 51.404 0.046 7.02 1.73 10.15
5/17/2022 3:30:00 AM 10.74 51.332 0.046 7.02 1.7 10.15
5/17/2022 3:45:00 AM 10.7 51.26 0.046 7.02 1.77 10.17
5/17/2022 4:00:00 AM 10.66 51.188 0.046 7.02 1.67 10.17
5/17/2022 4:15:00 AM 10.62 51.116 0.046 7.02 1.84 10.19
5/17/2022 4:30:00 AM 10.57 51.026 0.046 7.03 1.63 10.2
5/17/2022 4:45:00 AM 10.53 50.954 0.046 7.02 1.88 10.21
5/17/2022 5:00:00 AM 10.48 50.864 0.046 7.02 2.02 10.23
5/17/2022 5:15:00 AM 10.44 50.792 0.046 7.02 1.72 10.23
5/17/2022 5:30:00 AM 10.4 50.72 0.046 7.02 1.84 10.24
5/17/2022 5:45:00 AM 10.36 50.648 0.046 7.02 1.93 10.25
5/17/2022 6:00:00 AM 10.31 50.558 0.046 7.02 1.67 10.27
5/17/2022 6:15:00 AM 10.27 50.486 0.046 7.02 1.69 10.28
5/17/2022 6:30:00 AM 10.22 50.396 0.046 7.03 1.65 10.33
5/17/2022 6:45:00 AM 10.19 50.342 0.046 7.03 1.48 10.36
5/17/2022 7:00:00 AM 10.16 50.288 0.047 7.05 1.39 10.41
5/17/2022 7:15:00 AM 10.12 50.216 0.046 7.05 1.5 10.46
5/17/2022 7:30:00 AM 10.09 50.162 0.046 7.06 1.3 10.5
5/17/2022 7:45:00 AM 10.07 50.126 0.046 7.08 2.23 10.55
5/17/2022 8:00:00 AM 10.06 50.108 0.046 7.09 1.37 10.58
5/17/2022 8:15:00 AM 10.07 50.126 0.045 7.1 1.19 10.61
5/17/2022 8:30:00 AM 10.08 50.144 0.046 7.11 1.39 10.64
5/17/2022 8:45:00 AM 10.12 50.216 0.046 7.12 1.26 10.67
5/17/2022 9:00:00 AM 10.21 50.378 0.046 7.13 1.24 10.7
5/17/2022 9:15:00 AM 10.32 50.576 0.046 7.15 1.27 10.71
5/17/2022 9:30:00 AM 10.43 50.774 0.045 7.16 1.33 10.72
5/17/2022 9:45:00 AM 10.52 50.936 0.045 7.16 1.15 10.69
5/17/2022 10:00:00 AM 10.62 51.116 0.045 7.17 1.29 10.66
5/17/2022 10:15:00 AM 10.77 51.386 0.045 7.17 1.24 10.62
5/17/2022 10:30:00 AM 10.97 51.746 0.045 7.18 1.27 10.6
5/17/2022 10:45:00 AM 11.18 52.124 0.045 7.18 1.29 10.56
5/17/2022 11:00:00 AM 11.42 52.556 0.045 7.18 1.22 10.54
5/17/2022 11:15:00 AM 11.62 52.916 0.045 7.19 1.33 10.51
5/17/2022 11:30:00 AM 11.84 53.312 0.045 7.2 1.29 10.46
5/17/2022 11:45:00 AM 12.06 53.708 0.045 7.2 1.25 10.43
5/17/2022 12:00:00 PM 12.3 54.14 0.046 7.21 1.22 10.39
5/17/2022 12:15:00 PM 12.52 54.536 0.046 7.21 1.15 10.36
5/17/2022 12:30:00 PM 12.82 55.076 0.045 7.22 1.16 10.3
5/17/2022 12:45:00 PM 13.09 55.562 0.045 7.22 1.29 10.25
5/17/2022 1:00:00 PM 13.35 56.03 0.045 7.24 1.35 10.22
5/17/2022 1:15:00 PM 13.61 56.498 0.046 7.24 1.18 10.17
5/17/2022 1:30:00 PM 13.86 56.948 0.045 7.26 1.31 10.12
5/17/2022 1:45:00 PM 14.01 57.218 0.046 7.26 1.52 10.09
5/17/2022 2:00:00 PM 14.18 57.524 0.045 7.27 1.31 10.05
5/17/2022 2:15:00 PM 14.38 57.884 0.045 7.26 1.24 10.01
5/17/2022 2:30:00 PM 14.43 57.974 0.045 7.26 6.42 9.94
5/17/2022 2:45:00 PM 14.63 58.334 0.045 7.26 1.16 9.93
5/17/2022 3:00:00 PM 14.76 58.568 0.045 7.27 1.19 9.89
5/17/2022 3:15:00 PM 14.59 58.262 0.045 7.27 1.12 9.87
5/17/2022 3:30:00 PM 14.73 58.514 0.045 7.27 1.26 9.86
5/17/2022 3:45:00 PM 14.65 58.37 0.045 7.26 1.19 9.83
5/17/2022 4:00:00 PM 14.75 58.55 0.046 7.26 1.16 9.82
5/17/2022 4:15:00 PM 14.87 58.766 0.046 7.27 1.15 9.79
5/17/2022 4:30:00 PM 14.9 58.82 0.045 7.26 1.3 9.77
5/17/2022 4:45:00 PM 14.87 58.766 0.045 7.25 1.2 9.76
5/17/2022 5:00:00 PM 14.86 58.748 0.045 7.25 1.24 9.75
5/17/2022 5:15:00 PM 14.68 58.424 0.045 7.24 1.34 9.73
5/17/2022 5:30:00 PM 14.45 58.01 0.046 7.22 1.19 9.71
5/17/2022 5:45:00 PM 14.32 57.776 0.046 7.22 1.5 9.73
5/17/2022 6:00:00 PM 14.13 57.434 0.046 7.21 1.3 9.74
5/17/2022 6:15:00 PM 14.02 57.236 0.046 7.2 1.25 9.74
5/17/2022 6:30:00 PM 13.91 57.038 0.046 7.2 1.03 9.75
5/17/2022 6:45:00 PM 13.79 56.822 0.045 7.18 1.16 9.74
5/17/2022 7:00:00 PM 13.65 56.57 0.045 7.17 1.26 9.74
5/17/2022 7:15:00 PM 13.51 56.318 0.045 7.16 1.19 9.75
5/17/2022 7:30:00 PM 13.4 56.12 0.045 7.15 1.36 9.73
5/17/2022 7:45:00 PM 13.29 55.922 0.045 7.15 1.46 9.75
5/17/2022 8:00:00 PM 13.16 55.688 0.045 7.13 1.19 9.75
5/17/2022 8:15:00 PM 13.03 55.454 0.046 7.12 1.16 9.75
5/17/2022 8:30:00 PM 12.93 55.274 0.046 7.09 1.29 9.75
5/17/2022 8:45:00 PM 12.79 55.022 0.046 7.09 1.4 9.76
5/17/2022 9:00:00 PM 12.67 54.806 0.046 7.08 1.3 9.76
5/17/2022 9:15:00 PM 12.53 54.554 0.046 7.07 1.25 9.78
5/17/2022 9:30:00 PM 12.42 54.356 0.046 7.06 1.27 9.79
5/17/2022 9:45:00 PM 12.3 54.14 0.046 7.05 1.23 9.83
5/17/2022 10:00:00 PM 12.18 53.924 0.047 7.05 1.4 9.83
5/17/2022 10:15:00 PM 12.07 53.726 0.046 7.05 1.34 9.87
5/17/2022 10:30:00 PM 11.94 53.492 0.046 7.04 1.38 9.9
5/17/2022 10:45:00 PM 11.84 53.312 0.047 7.04 1.32 9.92
5/17/2022 11:00:00 PM 11.72 53.096 0.047 7.04 1.35 9.95
5/17/2022 11:15:00 PM 11.61 52.898 0.047 7.04 1.4 9.98
5/17/2022 11:30:00 PM 11.5 52.7 0.047 7.04 1.44 10
5/17/2022 11:45:00 PM 11.39 52.502 0.047 7.02 1.5 10.03
5/18/2022 12:00:00 AM 11.28 52.304 0.047 7.03 1.29 10.05
5/18/2022 12:15:00 AM 11.18 52.124 0.047 7.03 1.41 10.08
5/18/2022 12:30:00 AM 11.08 51.944 0.047 7.02 1.43 10.11
5/18/2022 12:45:00 AM 10.99 51.782 0.047 7.03 1.2 10.13
5/18/2022 1:00:00 AM 10.89 51.602 0.047 7.03 1.27 10.14
5/18/2022 1:15:00 AM 10.79 51.422 0.047 7.02 1.44 10.17
5/18/2022 1:30:00 AM 10.69 51.242 0.047 7.03 1.41 10.2
5/18/2022 1:45:00 AM 10.6 51.08 0.047 7.01 1.42 10.22
5/18/2022 2:00:00 AM 10.5 50.9 0.047 7.02 1.42 10.25
5/18/2022 2:15:00 AM 10.4 50.72 0.047 7.02 1.77 10.28
5/18/2022 2:30:00 AM 10.31 50.558 0.047 7.02 1.22 10.3
5/18/2022 2:45:00 AM 10.21 50.378 0.047 7.02 1.43 10.32
5/18/2022 3:00:00 AM 10.11 50.198 0.047 7.02 1.42 10.35
5/18/2022 3:15:00 AM 10.02 50.036 0.047 7.02 1.69 10.37
5/18/2022 3:30:00 AM 9.93 49.874 0.047 7.01 1.4 10.39
5/18/2022 3:45:00 AM 9.84 49.712 0.047 7.01 1.36 10.41
5/18/2022 4:00:00 AM 9.75 49.55 0.047 7 1.35 10.43
5/18/2022 4:15:00 AM 9.65 49.37 0.047 7.01 1.55 10.46
5/18/2022 4:30:00 AM 9.57 49.226 0.047 7.01 1.27 10.48
5/18/2022 4:45:00 AM 9.49 49.082 0.047 7.01 1.39 10.5
5/18/2022 5:00:00 AM 9.4 48.92 0.047 7 1.39 10.53
5/18/2022 5:15:00 AM 9.3 48.74 0.047 7.01 1.44 10.55
5/18/2022 5:30:00 AM 9.23 48.614 0.047 7 1.23 10.58
5/18/2022 5:45:00 AM 9.16 48.488 0.047 7 1.38 10.59
5/18/2022 6:00:00 AM 9.09 48.362 0.047 7.01 1.51 10.63
5/18/2022 6:15:00 AM 9.02 48.236 0.047 7.01 1.35 10.67
5/18/2022 6:30:00 AM 8.98 48.164 0.047 7.03 1.31 10.71
5/18/2022 6:45:00 AM 8.95 48.11 0.047 7.04 1.28 10.76
5/18/2022 7:00:00 AM 8.91 48.038 0.047 7.04 1.23 10.83
5/18/2022 7:15:00 AM 8.88 47.984 0.047 7.05 1.22 10.87
5/18/2022 7:30:00 AM 8.85 47.93 0.047 7.07 1.34 10.91
5/18/2022 7:45:00 AM 8.85 47.93 0.046 7.06 1.15 10.95
5/18/2022 8:00:00 AM 8.86 47.948 0.046 7.07 1.19 11
5/18/2022 8:15:00 AM 8.86 47.948 0.046 7.09 1.24 11.03
5/18/2022 8:30:00 AM 8.88 47.984 0.046 7.1 1.14 11.04
5/18/2022 8:45:00 AM 8.91 48.038 0.046 7.11 1.11 11.06
5/18/2022 9:00:00 AM 8.97 48.146 0.046 7.12 1.21 11.06
5/18/2022 9:15:00 AM 9.03 48.254 0.046 7.13 1.27 11.07
5/18/2022 9:30:00 AM 9.12 48.416 0.046 7.13 1.22 11.06
5/18/2022 9:45:00 AM 9.26 48.668 0.046 7.14 1.11 11.06
5/18/2022 10:00:00 AM 9.44 48.992 0.046 7.15 1.12 11.04
5/18/2022 10:15:00 AM 9.6 49.28 0.046 7.16 1.06 11.02
5/18/2022 10:30:00 AM 9.79 49.622 0.046 7.17 1.65 11
5/18/2022 10:45:00 AM 9.98 49.964 0.046 7.17 1.36 10.96
5/18/2022 11:00:00 AM 10.2 50.36 0.046 7.18 1.03 10.93
5/18/2022 11:15:00 AM 10.39 50.702 0.046 7.19 1.06 10.9
5/18/2022 11:30:00 AM 10.62 51.116 0.046 7.2 0.93 10.86
5/18/2022 11:45:00 AM 10.83 51.494 0.046 7.2 3.72 10.81
5/18/2022 12:00:00 PM 11.1 51.98 0.046 7.22 1.07 10.78
5/18/2022 12:15:00 PM 11.43 52.574 0.046 7.22 1.16 10.73
5/18/2022 12:30:00 PM 11.59 52.862 0.046 7.24 1.02 10.7
5/18/2022 12:45:00 PM 11.72 53.096 0.046 7.24 1.06 10.65
5/18/2022 1:00:00 PM 12.02 53.636 0.046 7.25 1.31 10.61
5/18/2022 1:15:00 PM 12.19 53.942 0.046 7.26 1.06 10.57
5/18/2022 1:30:00 PM 12.21 53.978 0.046 7.26 1.08 10.54
5/18/2022 1:45:00 PM 12.28 54.104 0.046 7.27 1.2 10.5
5/18/2022 2:00:00 PM 12.42 54.356 0.045 7.28 1.08 10.48
5/18/2022 2:15:00 PM 12.73 54.914 0.045 7.29 1.15 10.46
5/18/2022 2:30:00 PM 12.77 54.986 0.046 7.28 1.29 10.41
5/18/2022 2:45:00 PM 12.8 55.04 0.045 7.28 1.12 10.37
5/18/2022 3:00:00 PM 13.08 55.544 0.045 7.29 1.16 10.33
5/18/2022 3:15:00 PM 12.92 55.256 0.046 7.26 1.01 10.23
5/18/2022 3:30:00 PM 12.88 55.184 0.045 7.24 1.07 10.16
5/18/2022 3:45:00 PM 12.84 55.112 0.045 7.23 1.1 10.16
5/18/2022 4:00:00 PM 12.79 55.022 0.045 7.24 0.99 10.17
5/18/2022 4:15:00 PM 12.7 54.86 0.045 7.23 1.07 10.18
5/18/2022 4:30:00 PM 12.56 54.608 0.045 7.22 1.11 10.13
5/18/2022 4:45:00 PM 12.48 54.464 0.046 7.2 1.17 10.11
5/18/2022 5:00:00 PM 12.39 54.302 0.046 7.18 1.12 10.08
5/18/2022 5:15:00 PM 12.31 54.158 0.046 7.16 1.1 10.06
5/18/2022 5:30:00 PM 12.26 54.068 0.046 7.17 1.13 10.1
5/18/2022 5:45:00 PM 12.22 53.996 0.046 7.17 1.1 10.12
5/18/2022 6:00:00 PM 12.14 53.852 0.046 7.16 1.34 10.08
5/18/2022 6:15:00 PM 12.07 53.726 0.046 7.14 1.11 10.07
5/18/2022 6:30:00 PM 12.02 53.636 0.046 7.13 1.16 10.06
5/18/2022 6:45:00 PM 11.98 53.564 0.046 7.12 1.12 10.04
5/18/2022 7:00:00 PM 11.94 53.492 0.046 7.12 1.14 10.04
5/18/2022 7:15:00 PM 11.89 53.402 0.046 7.11 1.12 10.04
5/18/2022 7:30:00 PM 11.84 53.312 0.046 7.11 1.1 10.01
5/18/2022 7:45:00 PM 11.79 53.222 0.046 7.09 1.15 9.99
5/18/2022 8:00:00 PM 11.75 53.15 0.046 7.08 1.19 9.99
5/18/2022 8:15:00 PM 11.7 53.06 0.046 7.08 1.16 9.98
5/18/2022 8:30:00 PM 11.65 52.97 0.046 7.07 1.3 9.98
5/18/2022 8:45:00 PM 11.6 52.88 0.046 7.06 1.13 9.97
5/18/2022 9:00:00 PM 11.56 52.808 0.047 7.06 1.43 9.97
5/18/2022 9:15:00 PM 11.51 52.718 0.047 7.05 1.35 9.97
5/18/2022 9:30:00 PM 11.46 52.628 0.047 7.05 1.42 9.97
5/18/2022 9:45:00 PM 11.41 52.538 0.046 7.04 1.38 9.98
5/18/2022 10:00:00 PM 11.37 52.466 0.046 7.04 1.46 9.99
5/18/2022 10:15:00 PM 11.33 52.394 0.046 7.03 1.34 9.99
5/18/2022 10:30:00 PM 11.29 52.322 0.046 7.03 1.57 10
5/18/2022 10:45:00 PM 11.24 52.232 0.046 7.03 1.75 10
5/18/2022 11:00:00 PM 11.21 52.178 0.046 7.02 1.52 10.02
5/18/2022 11:15:00 PM 11.17 52.106 0.046 7.03 1.66 10.03
5/18/2022 11:30:00 PM 11.13 52.034 0.046 7.02 1.74 10.02
5/18/2022 11:45:00 PM 11.1 51.98 0.046 7.03 1.56 10.04
5/19/2022 12:00:00 AM 11.07 51.926 0.046 7.03 1.53 10.05
5/19/2022 12:15:00 AM 11.05 51.89 0.046 7.02 1.83 10.05
5/19/2022 12:30:00 AM 11.01 51.818 0.046 7.02 1.59 10.06
5/19/2022 12:45:00 AM 10.99 51.782 0.046 7.02 1.61 10.07
5/19/2022 1:00:00 AM 10.96 51.728 0.046 7.03 1.55 10.07
5/19/2022 1:15:00 AM 10.93 51.674 0.046 7.02 1.72 10.09
5/19/2022 1:30:00 AM 10.91 51.638 0.046 7.03 1.51 10.08
5/19/2022 1:45:00 AM 10.88 51.584 0.046 7.02 1.83 10.09
5/19/2022 2:00:00 AM 10.86 51.548 0.047 7.02 1.56 10.1
5/19/2022 2:15:00 AM 10.84 51.512 0.047 7.03 1.55 10.11
5/19/2022 2:30:00 AM 10.82 51.476 0.047 7.03 1.54 10.11
5/19/2022 2:45:00 AM 10.79 51.422 0.047 7.03 1.56 10.12
5/19/2022 3:00:00 AM 10.77 51.386 0.047 7.03 1.61 10.13
5/19/2022 3:15:00 AM 10.74 51.332 0.047 7.03 1.62 10.13
5/19/2022 3:30:00 AM 10.72 51.296 0.047 7.03 1.61 10.14
5/19/2022 3:45:00 AM 10.7 51.26 0.047 7.03 1.78 10.15
5/19/2022 4:00:00 AM 10.67 51.206 0.047 7.03 1.6 10.15
5/19/2022 4:15:00 AM 10.65 51.17 0.047 7.04 1.97 10.14
5/19/2022 4:30:00 AM 10.64 51.152 0.047 7.03 1.45 10.15
5/19/2022 4:45:00 AM 10.61 51.098 0.047 7.03 1.71 10.16
5/19/2022 5:00:00 AM 10.59 51.062 0.047 7.03 1.47 10.16
5/19/2022 5:15:00 AM 10.57 51.026 0.047 7.03 1.53 10.17
5/19/2022 5:30:00 AM 10.55 50.99 0.048 7.03 1.52 10.17
5/19/2022 5:45:00 AM 10.53 50.954 0.048 7.03 1.56 10.18
5/19/2022 6:00:00 AM 10.52 50.936 0.048 7.02 1.45 10.17
5/19/2022 6:15:00 AM 10.51 50.918 0.048 7.02 1.46 10.18
5/19/2022 6:30:00 AM 10.49 50.882 0.048 7.03 1.51 10.19
5/19/2022 6:45:00 AM 10.48 50.864 0.048 7.02 1.31 10.2
5/19/2022 7:00:00 AM 10.47 50.846 0.047 7.02 1.27 10.21
5/19/2022 7:15:00 AM 10.46 50.828 0.046 7.02 1.33 10.23
5/19/2022 7:30:00 AM 10.45 50.81 0.047 7.03 1.3 10.24
5/19/2022 7:45:00 AM 10.44 50.792 0.047 7.03 1.54 10.26
5/19/2022 8:00:00 AM 10.44 50.792 0.048 7.03 1.3 10.28
5/19/2022 8:15:00 AM 10.44 50.792 0.047 7.03 1.39 10.29
5/19/2022 8:30:00 AM 10.45 50.81 0.047 7.05 1.25 10.32
5/19/2022 8:45:00 AM 10.45 50.81 0.047 7.05 1.45 10.34
5/19/2022 9:00:00 AM 10.46 50.828 0.046 7.06 1.94 10.37
5/19/2022 9:15:00 AM 10.47 50.846 0.047 7.07 1.22 10.4
5/19/2022 9:30:00 AM 10.5 50.9 0.046 7.07 1.3 10.41
5/19/2022 9:45:00 AM 10.53 50.954 0.046 7.09 1.3 10.45
5/19/2022 10:00:00 AM 10.57 51.026 0.046 7.1 1.22 10.47
5/19/2022 10:15:00 AM 10.63 51.134 0.046 7.12 1.16 10.51
5/19/2022 10:30:00 AM 10.68 51.224 0.046 7.14 1.67 10.52
5/19/2022 10:45:00 AM 10.74 51.332 0.046 7.15 1.22 10.52
5/19/2022 11:00:00 AM 10.79 51.422 0.046 7.15 1.24 10.5
5/19/2022 11:15:00 AM 10.85 51.53 0.046 7.16 1.25 10.48
5/19/2022 11:30:00 AM 10.88 51.584 0.047 7.15 1.37 10.44
5/19/2022 11:45:00 AM 10.94 51.692 0.046 7.15 1.22 10.46
5/19/2022 12:00:00 PM 11.08 51.944 0.046 7.17 2 10.5
5/19/2022 12:15:00 PM 11.21 52.178 0.046 7.19 1.22 10.52
5/19/2022 12:30:00 PM 11.3 52.34 0.046 7.2 1.21 10.54
5/19/2022 12:45:00 PM 11.49 52.682 0.046 7.22 1.33 10.52
5/19/2022 1:00:00 PM 11.64 52.952 0.046 7.23 1.12 10.49
5/19/2022 1:15:00 PM 11.89 53.402 0.046 7.22 1.4 10.45
5/19/2022 1:30:00 PM 12.06 53.708 0.046 7.24 1.26 10.38
5/19/2022 1:45:00 PM 12.33 54.194 0.046 7.24 1.15 10.33
5/19/2022 2:00:00 PM 12.6 54.68 0.046 7.24 1.13 10.33
5/19/2022 2:15:00 PM 12.61 54.698 0.046 7.25 1.05 10.26
5/19/2022 2:30:00 PM 12.56 54.608 0.046 7.23 1.13 10.2
5/19/2022 2:45:00 PM 12.83 55.094 0.046 7.24 1.12 10.19
5/19/2022 3:00:00 PM 12.96 55.328 0.046 7.24 1.81 10.19
5/19/2022 3:15:00 PM 13.17 55.706 0.046 7.24 1.42 10.17
5/19/2022 3:30:00 PM 13.4 56.12 0.046 7.26 1.27 10.15
5/19/2022 3:45:00 PM 13.57 56.426 0.046 7.26 1.04 10.09
5/19/2022 4:00:00 PM 13.66 56.588 0.046 7.26 1.12 10.04
5/19/2022 4:15:00 PM 13.84 56.912 0.046 7.25 1.02 10.01
5/19/2022 4:30:00 PM 14 57.2 0.046 7.26 1.05 9.96
5/19/2022 4:45:00 PM 14.09 57.362 0.046 7.25 1.1 9.91
5/19/2022 5:00:00 PM 14.14 57.452 0.046 7.25 1.13 9.86
5/19/2022 5:15:00 PM 14.14 57.452 0.046 7.24 1.01 9.83
5/19/2022 5:30:00 PM 14.06 57.308 0.046 7.22 1.15 9.77
5/19/2022 5:45:00 PM 14.01 57.218 0.046 7.22 1.01 9.76
5/19/2022 6:00:00 PM 13.93 57.074 0.046 7.22 1.12 9.76
5/19/2022 6:15:00 PM 13.85 56.93 0.046 7.2 0.94 9.73
5/19/2022 6:30:00 PM 13.79 56.822 0.046 7.2 1.03 9.74
5/19/2022 6:45:00 PM 13.73 56.714 0.047 7.2 1.13 9.71
5/19/2022 7:00:00 PM 13.65 56.57 0.046 7.19 1.08 9.73
5/19/2022 7:15:00 PM 13.59 56.462 0.046 7.17 1.03 9.69
5/19/2022 7:30:00 PM 13.5 56.3 0.046 7.16 1.09 9.68
5/19/2022 7:45:00 PM 13.44 56.192 0.046 7.14 1.06 9.66
5/19/2022 8:00:00 PM 13.36 56.048 0.046 7.12 1.16 9.65
5/19/2022 8:15:00 PM 13.29 55.922 0.046 7.11 1.09 9.66
5/19/2022 8:30:00 PM 13.21 55.778 0.046 7.1 1.16 9.64
5/19/2022 8:45:00 PM 13.14 55.652 0.046 7.09 1.16 9.62
5/19/2022 9:00:00 PM 13.04 55.472 0.046 7.07 1.1 9.63
5/19/2022 9:15:00 PM 12.97 55.346 0.046 7.07 1.16 9.63
5/19/2022 9:30:00 PM 12.89 55.202 0.046 7.06 1.35 9.64
5/19/2022 9:45:00 PM 12.8 55.04 0.046 7.05 1.45 9.66
5/19/2022 10:00:00 PM 12.73 54.914 0.046 7.04 1.39 9.66
5/19/2022 10:15:00 PM 12.65 54.77 0.046 7.05 1.29 9.68
5/19/2022 10:30:00 PM 12.57 54.626 0.047 7.05 1.28 9.7
5/19/2022 10:45:00 PM 12.51 54.518 0.046 7.04 1.48 9.7
5/19/2022 11:00:00 PM 12.42 54.356 0.046 7.04 1.26 9.74
5/19/2022 11:15:00 PM 12.34 54.212 0.048 7.04 1.25 9.75
5/19/2022 11:30:00 PM 12.24 54.032 0.046 7.04 1.46 9.78
5/19/2022 11:45:00 PM 12.17 53.906 0.049 7.04 1.27 9.79
5/20/2022 12:00:00 AM 12.1 53.78 0.048 7.04 1.3 9.81
5/20/2022 12:15:00 AM 12.05 53.69 0.048 7.03 1.25 9.82
5/20/2022 12:30:00 AM 11.97 53.546 0.048 7.03 1.46 9.83
5/20/2022 12:45:00 AM 11.92 53.456 0.048 7.03 1.31 9.84
5/20/2022 1:00:00 AM 11.85 53.33 0.048 7.03 1.67 9.88
5/20/2022 1:15:00 AM 11.78 53.204 0.047 7.03 1.38 9.88
5/20/2022 1:30:00 AM 11.72 53.096 0.048 7.03 1.22 9.9
5/20/2022 1:45:00 AM 11.65 52.97 0.048 7.03 1.59 9.91
5/20/2022 2:00:00 AM 11.59 52.862 0.047 7.03 1.44 9.94
5/20/2022 2:15:00 AM 11.53 52.754 0.048 7.03 1.28 9.95
5/20/2022 2:30:00 AM 11.47 52.646 0.048 7.03 1.41 9.95
5/20/2022 2:45:00 AM 11.4 52.52 0.048 7.03 1.47 9.96
5/20/2022 3:00:00 AM 11.35 52.43 0.048 7.04 1.29 9.99
5/20/2022 3:15:00 AM 11.28 52.304 0.048 7.02 1.75 9.98
5/20/2022 3:30:00 AM 11.22 52.196 0.047 7.03 1.39 10.01
5/20/2022 3:45:00 AM 11.15 52.07 0.047 7.02 1.37 10.03
5/20/2022 4:00:00 AM 11.09 51.962 0.048 7.02 1.5 10.04
5/20/2022 4:15:00 AM 11.02 51.836 0.048 7.02 1.38 10.06
5/20/2022 4:30:00 AM 10.97 51.746 0.048 7.02 1.27 10.08
5/20/2022 4:45:00 AM 10.91 51.638 0.048 7.03 1.39 10.09
5/20/2022 5:00:00 AM 10.84 51.512 0.047 7.02 1.48 10.1
5/20/2022 5:15:00 AM 10.79 51.422 0.048 7.02 1.41 10.12
5/20/2022 5:30:00 AM 10.73 51.314 0.048 7.02 1.34 10.13
5/20/2022 5:45:00 AM 10.66 51.188 0.048 7.01 1.32 10.15
5/20/2022 6:00:00 AM 10.63 51.134 0.048 7.02 1.12 10.19
5/20/2022 6:15:00 AM 10.59 51.062 0.048 7.03 1.83 10.21
5/20/2022 6:30:00 AM 10.56 51.008 0.048 7.02 1.31 10.22
5/20/2022 6:45:00 AM 10.54 50.972 0.048 7.04 1.12 10.25
5/20/2022 7:00:00 AM 10.53 50.954 0.048 7.04 1.19 10.28
5/20/2022 7:15:00 AM 10.53 50.954 0.048 7.04 1.18 10.33
5/20/2022 7:30:00 AM 10.53 50.954 0.048 7.05 1.14 10.35
5/20/2022 7:45:00 AM 10.54 50.972 0.047 7.06 1.23 10.39
5/20/2022 8:00:00 AM 10.57 51.026 0.047 7.08 1.11 10.44
5/20/2022 8:15:00 AM 10.61 51.098 0.047 7.1 1.07 10.5
5/20/2022 8:30:00 AM 10.65 51.17 0.047 7.12 1.15 10.55
5/20/2022 8:45:00 AM 10.72 51.296 0.047 7.13 1.13 10.58
5/20/2022 9:00:00 AM 10.79 51.422 0.047 7.15 1.09 10.59
5/20/2022 9:15:00 AM 10.91 51.638 0.047 7.15 1.04 10.6
5/20/2022 9:30:00 AM 10.99 51.782 0.047 7.16 1.1 10.58
5/20/2022 9:45:00 AM 11.07 51.926 0.047 7.16 1.11 10.53
5/20/2022 10:00:00 AM 11.19 52.142 0.047 7.17 1.04 10.52
5/20/2022 10:15:00 AM 11.36 52.448 0.047 7.18 1.08 10.54
5/20/2022 10:30:00 AM 11.43 52.574 0.047 7.2 1.11 10.52
5/20/2022 10:45:00 AM 11.48 52.664 0.047 7.2 1.27 10.52
5/20/2022 11:00:00 AM 11.7 53.06 0.047 7.22 2.93 10.52
5/20/2022 11:15:00 AM 11.82 53.276 0.047 7.22 1.01 10.49
5/20/2022 11:30:00 AM 11.94 53.492 0.047 7.22 1.13 10.47
5/20/2022 11:45:00 AM 12.2 53.96 0.046 7.24 1.02 10.46
5/20/2022 12:00:00 PM 12.44 54.392 0.047 7.25 1.14 10.39
5/20/2022 12:15:00 PM 12.78 55.004 0.046 7.25 1.02 10.34
5/20/2022 12:30:00 PM 13.01 55.418 0.046 7.27 1.29 10.29
5/20/2022 12:45:00 PM 13.21 55.778 0.046 7.27 1 10.24
5/20/2022 1:00:00 PM 13.48 56.264 0.046 7.28 1.06 10.21
5/20/2022 1:15:00 PM 13.96 57.128 0.046 7.3 1.07 10.15
5/20/2022 1:30:00 PM 14.02 57.236 0.046 7.28 1.06 10.08
5/20/2022 1:45:00 PM 14.01 57.218 0.046 7.28 1.08 10.03
5/20/2022 2:00:00 PM 14.06 57.308 0.046 7.26 1.07 9.95
5/20/2022 2:15:00 PM 14.15 57.47 0.046 7.27 1.1 9.89
5/20/2022 2:30:00 PM 14.17 57.506 0.046 7.24 1.14 9.81
5/20/2022 2:45:00 PM 14.16 57.488 0.046 7.22 1.2 9.77
5/20/2022 3:00:00 PM 14.17 57.506 0.046 7.23 1.08 9.78
5/20/2022 3:15:00 PM 14.14 57.452 0.046 7.23 1.04 9.76
5/20/2022 3:30:00 PM 14.11 57.398 0.046 7.22 1.06 9.74
5/20/2022 3:45:00 PM 14.1 57.38 0.046 7.2 1.09 9.74
5/20/2022 4:00:00 PM 14.13 57.434 0.046 7.22 1.05 9.77
5/20/2022 4:15:00 PM 14.11 57.398 0.046 7.21 1.1 9.74
5/20/2022 4:30:00 PM 14.1 57.38 0.047 7.21 1.15 9.7
5/20/2022 4:45:00 PM 14.08 57.344 0.047 7.19 1.17 9.67
5/20/2022 5:00:00 PM 14.05 57.29 0.047 7.17 1.48 9.64
5/20/2022 5:15:00 PM 14.05 57.29 0.047 7.17 1.19 9.65
5/20/2022 5:30:00 PM 14.02 57.236 0.047 7.17 1.09 9.66
5/20/2022 5:45:00 PM 13.97 57.146 0.047 7.15 4.43 9.64
5/20/2022 6:00:00 PM 13.92 57.056 0.047 7.14 1.24 9.61
5/20/2022 6:15:00 PM 13.92 57.056 0.047 7.15 1.07 9.66
5/20/2022 6:30:00 PM 13.9 57.02 0.047 7.16 1.06 9.7
5/20/2022 6:45:00 PM 13.87 56.966 0.047 7.16 1.21 9.71
5/20/2022 7:00:00 PM 13.85 56.93 0.047 7.15 1.09 9.69
5/20/2022 7:15:00 PM 13.82 56.876 0.047 7.14 1.29 9.66
5/20/2022 7:30:00 PM 13.78 56.804 0.047 7.13 1.22 9.65
5/20/2022 7:45:00 PM 13.73 56.714 0.047 7.11 1.23 9.64
5/20/2022 8:00:00 PM 13.69 56.642 0.047 7.1 1.28 9.61
5/20/2022 8:15:00 PM 13.63 56.534 0.047 7.08 1.25 9.58
5/20/2022 8:30:00 PM 13.58 56.444 0.047 7.05 1.14 9.58
5/20/2022 8:45:00 PM 13.53 56.354 0.047 7.05 1.29 9.55
5/20/2022 9:00:00 PM 13.47 56.246 0.048 7.02 1.36 9.54
5/20/2022 9:15:00 PM 13.42 56.156 0.048 7.02 1.26 9.54
5/20/2022 9:30:00 PM 13.37 56.066 0.049 7 1.43 9.55
5/20/2022 9:45:00 PM 13.32 55.976 0.048 7 1.43 9.51
5/20/2022 10:00:00 PM 13.27 55.886 0.048 7 1.38 9.54
5/20/2022 10:15:00 PM 13.23 55.814 0.049 6.99 1.36 9.56
5/20/2022 10:30:00 PM 13.18 55.724 0.048 6.98 1.33 9.56
5/20/2022 10:45:00 PM 13.13 55.634 0.048 6.97 1.43 9.56
5/20/2022 11:00:00 PM 13.08 55.544 0.048 6.98 1.39 9.59
5/20/2022 11:15:00 PM 13.03 55.454 0.048 6.97 1.4 9.59
5/20/2022 11:30:00 PM 12.99 55.382 0.048 6.96 1.31 9.59
5/20/2022 11:45:00 PM 12.96 55.328 0.048 6.97 1.32 9.61
5/21/2022 12:00:00 AM 12.92 55.256 0.048 6.97 1.22 9.63
5/21/2022 12:15:00 AM 12.88 55.184 0.048 6.97 1.48 9.64
5/21/2022 12:30:00 AM 12.84 55.112 0.048 6.97 1.4 9.65
5/21/2022 12:45:00 AM 12.8 55.04 0.048 6.97 1.47 9.66
5/21/2022 1:00:00 AM 12.78 55.004 0.048 6.97 1.38 9.66
5/21/2022 1:15:00 AM 12.74 54.932 0.049 6.97 1.32 9.66
5/21/2022 1:30:00 AM 12.68 54.824 0.048 6.97 1.35 9.7
5/21/2022 1:45:00 AM 12.64 54.752 0.048 6.97 1.5 9.72
5/21/2022 2:00:00 AM 12.6 54.68 0.048 6.96 1.43 9.72
5/21/2022 2:15:00 AM 12.56 54.608 0.048 6.96 1.91 9.73
5/21/2022 2:30:00 AM 12.51 54.518 0.048 6.96 1.52 9.72
5/21/2022 2:45:00 AM 12.47 54.446 0.048 6.95 1.46 9.75
5/21/2022 3:00:00 AM 12.44 54.392 0.048 6.95 1.5 9.75
5/21/2022 3:15:00 AM 12.4 54.32 0.048 6.95 1.59 9.77
5/21/2022 3:30:00 AM 12.37 54.266 0.048 6.95 1.47 9.77
5/21/2022 3:45:00 AM 12.35 54.23 0.048 6.94 1.4 9.78
5/21/2022 4:00:00 AM 12.32 54.176 0.048 6.94 1.45 9.8
5/21/2022 4:15:00 AM 12.3 54.14 0.048 6.95 1.49 9.81
5/21/2022 4:30:00 AM 12.27 54.086 0.048 6.95 2.48 9.79
5/21/2022 4:45:00 AM 12.25 54.05 0.048 6.95 1.41 9.81
5/21/2022 5:00:00 AM 12.23 54.014 0.048 6.95 1.65 9.82
5/21/2022 5:15:00 AM 12.2 53.96 0.048 6.95 1.59 9.81
5/21/2022 5:30:00 AM 12.17 53.906 0.048 6.94 4.32 9.83
5/21/2022 5:45:00 AM 12.14 53.852 0.048 6.95 1.27 9.84
5/21/2022 6:00:00 AM 12.11 53.798 0.048 6.94 1.49 9.86
5/21/2022 6:15:00 AM 12.1 53.78 0.048 6.94 1.28 9.86
5/21/2022 6:30:00 AM 12.1 53.78 0.048 6.95 1.49 9.89
5/21/2022 6:45:00 AM 12.08 53.744 0.048 6.97 1.41 9.94
5/21/2022 7:00:00 AM 12.06 53.708 0.048 6.98 1.34 9.97
5/21/2022 7:15:00 AM 12.05 53.69 0.048 7.01 1.92 10.02
5/21/2022 7:30:00 AM 12.05 53.69 0.048 7.01 1.64 10.07
5/21/2022 7:45:00 AM 12.04 53.672 0.048 7.03 1.19 10.13
5/21/2022 8:00:00 AM 12.03 53.654 0.048 7.04 1.24 10.15
5/21/2022 8:15:00 AM 12.04 53.672 0.047 7.05 1.19 10.17
5/21/2022 8:30:00 AM 12.06 53.708 0.047 7.06 1.26 10.2
5/21/2022 8:45:00 AM 12.12 53.816 0.047 7.07 1.26 10.21
5/21/2022 9:00:00 AM 12.19 53.942 0.047 7.09 1.3 10.22
5/21/2022 9:15:00 AM 12.29 54.122 0.047 7.1 1.27 10.23
5/21/2022 9:30:00 AM 12.43 54.374 0.047 7.12 1.39 10.21
5/21/2022 9:45:00 AM 12.62 54.716 0.047 7.13 1.23 10.22
5/21/2022 10:00:00 AM 12.83 55.094 0.047 7.16 1.3 10.21
5/21/2022 10:15:00 AM 13.03 55.454 0.047 7.18 1.9 10.18
5/21/2022 10:30:00 AM 13.3 55.94 0.047 7.2 1.27 10.16
5/21/2022 10:45:00 AM 13.55 56.39 0.047 7.2 1.22 10.12
5/21/2022 11:00:00 AM 13.79 56.822 0.047 7.22 1.28 10.09
5/21/2022 11:15:00 AM 14.1 57.38 0.047 7.23 1.18 10.05
5/21/2022 11:30:00 AM 14.33 57.794 0.047 7.24 1.13 10
5/21/2022 11:45:00 AM 14.53 58.154 0.047 7.25 1.17 9.97
5/21/2022 12:00:00 PM 14.76 58.568 0.047 7.24 1.51 9.91
5/21/2022 12:15:00 PM 14.96 58.928 0.047 7.26 1.35 9.87
5/21/2022 12:30:00 PM 15.3 59.54 0.046 7.28 1.3 9.87
5/21/2022 12:45:00 PM 15.66 60.188 0.046 7.29 1.26 9.81
5/21/2022 1:00:00 PM 15.95 60.71 0.046 7.29 1.3 9.76
5/21/2022 1:15:00 PM 16.13 61.034 0.046 7.29 1.2 9.69
5/21/2022 1:30:00 PM 16.45 61.61 0.046 7.31 1.27 9.65
5/21/2022 1:45:00 PM 16.81 62.258 0.046 7.31 1.25 9.6
5/21/2022 2:00:00 PM 17.02 62.636 0.046 7.31 1.25 9.54
5/21/2022 2:15:00 PM 17.35 63.23 0.046 7.31 1.31 9.48
5/21/2022 2:30:00 PM 17.54 63.572 0.046 7.34 1.33 9.44
5/21/2022 2:45:00 PM 17.74 63.932 0.046 7.3 1.4 9.36
5/21/2022 3:00:00 PM 17.94 64.292 0.046 7.34 1.25 9.34
5/21/2022 3:15:00 PM 17.97 64.346 0.046 7.32 1.55 9.27
5/21/2022 3:30:00 PM 18.18 64.724 0.046 7.32 1.22 9.26
5/21/2022 3:45:00 PM 18.28 64.904 0.046 7.34 1.38 9.24
5/21/2022 4:00:00 PM 18.47 65.246 0.046 7.33 1.29 9.2
5/21/2022 4:15:00 PM 18.53 65.354 0.046 7.32 1.23 9.14
5/21/2022 4:30:00 PM 18.66 65.588 0.046 7.31 1.29 9.11
5/21/2022 4:45:00 PM 18.69 65.642 0.046 7.31 1.28 9.09
5/21/2022 5:00:00 PM 18.68 65.624 0.046 7.29 1.43 9.06
5/21/2022 5:15:00 PM 18.62 65.516 0.046 7.28 1.32 9.03
5/21/2022 5:30:00 PM 18.45 65.21 0.046 7.28 1.38 8.99
5/21/2022 5:45:00 PM 18.3 64.94 0.046 7.27 1.35 9
5/21/2022 6:00:00 PM 18.18 64.724 0.046 7.26 1.38 8.97
5/21/2022 6:15:00 PM 18.02 64.436 0.046 7.25 1.3 8.98
5/21/2022 6:30:00 PM 17.93 64.274 0.046 7.22 1.27 8.94
5/21/2022 6:45:00 PM 17.81 64.058 0.046 7.22 1.64 8.96
5/21/2022 7:00:00 PM 17.69 63.842 0.047 7.2 1.36 8.96
5/21/2022 7:15:00 PM 17.56 63.608 0.046 7.17 1.39 8.9
5/21/2022 7:30:00 PM 17.42 63.356 0.047 7.15 1.38 8.89
5/21/2022 7:45:00 PM 17.3 63.14 0.047 7.13 1.31 8.86
5/21/2022 8:00:00 PM 17.14 62.852 0.047 7.11 1.38 8.88
5/21/2022 8:15:00 PM 16.99 62.582 0.047 7.09 1.29 8.87
5/21/2022 8:30:00 PM 16.85 62.33 0.047 7.06 1.52 8.87
5/21/2022 8:45:00 PM 16.72 62.096 0.047 7.05 1.39 8.86
5/21/2022 9:00:00 PM 16.58 61.844 0.047 7.04 1.46 8.88
5/21/2022 9:15:00 PM 16.48 61.664 0.047 7.02 1.5 8.87
5/21/2022 9:30:00 PM 16.35 61.43 0.048 7.01 1.56 8.91
5/21/2022 9:45:00 PM 16.24 61.232 0.048 7.01 1.6 8.9
5/21/2022 10:00:00 PM 16.12 61.016 0.048 6.99 1.47 8.94
5/21/2022 10:15:00 PM 16.03 60.854 0.048 6.98 1.53 8.93
5/21/2022 10:30:00 PM 15.93 60.674 0.048 6.98 1.6 8.98
5/21/2022 10:45:00 PM 15.84 60.512 0.048 6.98 1.89 8.99
5/21/2022 11:00:00 PM 15.77 60.386 0.048 6.99 1.52 8.99
5/21/2022 11:15:00 PM 15.71 60.278 0.048 7.01 1.55 9.04
5/21/2022 11:30:00 PM 15.65 60.17 0.048 7.01 1.65 9.03
5/21/2022 11:45:00 PM 15.58 60.044 0.048 7 1.75 9.01
5/22/2022 12:00:00 AM 15.49 59.882 0.048 7.03 1.63 9.08
5/22/2022 12:15:00 AM 15.4 59.72 0.048 7.02 1.46 9.11
5/22/2022 12:30:00 AM 15.31 59.558 0.048 7.01 1.71 9.12
5/22/2022 12:45:00 AM 15.24 59.432 0.048 7.01 1.6 9.1
5/22/2022 1:00:00 AM 15.15 59.27 0.049 7.01 1.67 9.15
5/22/2022 1:15:00 AM 15.09 59.162 0.048 7 1.64 9.16
5/22/2022 1:30:00 AM 15.02 59.036 0.048 7.01 1.59 9.19
5/22/2022 1:45:00 AM 14.97 58.946 0.048 7.01 1.68 9.17
5/22/2022 2:00:00 AM 14.89 58.802 0.048 7.01 1.53 9.21
5/22/2022 2:15:00 AM 14.82 58.676 0.048 7.01 1.55 9.23
5/22/2022 2:30:00 AM 14.74 58.532 0.048 7.01 1.51 9.23
5/22/2022 2:45:00 AM 14.68 58.424 0.049 7.01 1.71 9.26
5/22/2022 3:00:00 AM 14.61 58.298 0.048 7.01 1.6 9.28
5/22/2022 3:15:00 AM 14.53 58.154 0.048 7 1.54 9.27
5/22/2022 3:30:00 AM 14.46 58.028 0.049 6.99 1.7 9.29
5/22/2022 3:45:00 AM 14.39 57.902 0.049 7 1.56 9.31
5/22/2022 4:00:00 AM 14.3 57.74 0.049 7.01 1.62 9.34
5/22/2022 4:15:00 AM 14.24 57.632 0.049 7 1.64 9.33
5/22/2022 4:30:00 AM 14.17 57.506 0.048 7.01 1.61 9.36
5/22/2022 4:45:00 AM 14.1 57.38 0.049 7.01 1.81 9.39
5/22/2022 5:00:00 AM 14.03 57.254 0.049 7.01 1.6 9.39
5/22/2022 5:15:00 AM 13.96 57.128 0.051 7.01 1.69 9.42
5/22/2022 5:30:00 AM 13.89 57.002 0.05 7 1.61 9.42
5/22/2022 5:45:00 AM 13.82 56.876 0.051 7 1.66 9.42
5/22/2022 6:00:00 AM 13.75 56.75 0.051 7.01 1.71 9.47
5/22/2022 6:15:00 AM 13.7 56.66 0.051 7.01 1.45 9.49
5/22/2022 6:30:00 AM 13.63 56.534 0.05 7.02 1.49 9.55
5/22/2022 6:45:00 AM 13.58 56.444 0.051 7.01 1.35 9.59
5/22/2022 7:00:00 AM 13.53 56.354 0.051 7.04 1.35 9.64
5/22/2022 7:15:00 AM 13.49 56.282 0.051 7.03 1.46 9.64
5/22/2022 7:30:00 AM 13.47 56.246 0.05 7.05 1.35 9.72
5/22/2022 7:45:00 AM 13.47 56.246 0.05 7.06 1.4 9.74
5/22/2022 8:00:00 AM 13.5 56.3 0.05 7.07 1.48 9.81
5/22/2022 8:15:00 AM 13.52 56.336 0.05 7.1 1.25 9.87
5/22/2022 8:30:00 AM 13.56 56.408 0.05 7.11 1.32 9.91
5/22/2022 8:45:00 AM 13.59 56.462 0.05 7.11 1.32 9.91
5/22/2022 9:00:00 AM 13.71 56.678 0.05 7.13 1.43 9.93
5/22/2022 9:15:00 AM 13.77 56.786 0.049 7.15 1.49 9.94
5/22/2022 9:30:00 AM 13.87 56.966 0.05 7.16 1.38 9.93
5/22/2022 9:45:00 AM 13.96 57.128 0.049 7.18 1.33 9.98
5/22/2022 10:00:00 AM 14.03 57.254 0.049 7.2 1.2 9.95
5/22/2022 10:15:00 AM 14.07 57.326 0.049 7.2 1.27 9.93
5/22/2022 10:30:00 AM 14.14 57.452 0.049 7.19 1.29 9.91
5/22/2022 10:45:00 AM 14.31 57.758 0.049 7.21 1.38 9.9
5/22/2022 11:00:00 AM 14.53 58.154 0.049 7.22 1.22 9.91
5/22/2022 11:15:00 AM 14.62 58.316 0.05 7.24 1.26 9.91
5/22/2022 11:30:00 AM 14.68 58.424 0.05 7.25 1.2 9.9
5/22/2022 11:45:00 AM 14.82 58.676 0.049 7.26 1.26 9.88
5/22/2022 12:00:00 PM 15.08 59.144 0.049 7.26 1.27 9.83
5/22/2022 12:15:00 PM 15.47 59.846 0.049 7.28 1.26 9.82
5/22/2022 12:30:00 PM 15.72 60.296 0.049 7.29 1.2 9.78
5/22/2022 12:45:00 PM 15.83 60.494 0.049 7.31 1.2 9.76
5/22/2022 1:00:00 PM 15.9 60.62 0.05 7.3 1.25 9.7
5/22/2022 1:15:00 PM 16.14 61.052 0.05 7.3 1.38 9.64
5/22/2022 1:30:00 PM 16.26 61.268 0.049 7.31 1.36 9.6
5/22/2022 1:45:00 PM 16.48 61.664 0.049 7.32 1.24 9.6
5/22/2022 2:00:00 PM 16.58 61.844 0.049 7.32 1.29 9.57
5/22/2022 2:15:00 PM 16.66 61.988 0.049 7.31 1.31 9.54
5/22/2022 2:30:00 PM 16.85 62.33 0.049 7.32 1.28 9.53
5/22/2022 2:45:00 PM 17.07 62.726 0.049 7.33 1.3 9.52
5/22/2022 3:00:00 PM 17.28 63.104 0.049 7.32 2.69 9.48
5/22/2022 3:15:00 PM 17.37 63.266 0.049 7.32 1.25 9.41
5/22/2022 3:30:00 PM 17.3 63.14 0.049 7.3 1.31 9.3
5/22/2022 3:45:00 PM 17.39 63.302 0.049 7.28 1.23 9.27
5/22/2022 4:00:00 PM 17.4 63.32 0.049 7.28 1.27 9.21
5/22/2022 4:15:00 PM 17.36 63.248 0.049 7.24 1.47 9.11
5/22/2022 4:30:00 PM 17.28 63.104 0.049 7.22 1.34 9.1
5/22/2022 4:45:00 PM 17.21 62.978 0.049 7.22 1.44 9.15
5/22/2022 5:00:00 PM 17.1 62.78 0.049 7.23 1.49 9.14
5/22/2022 5:15:00 PM 17.01 62.618 0.048 7.2 1.28 9.14
5/22/2022 5:30:00 PM 16.87 62.366 0.049 7.22 1.54 9.18
5/22/2022 5:45:00 PM 16.77 62.186 0.049 7.2 1.55 9.17
5/22/2022 6:00:00 PM 16.68 62.024 0.049 7.22 1.4 9.22
5/22/2022 6:15:00 PM 16.6 61.88 0.049 7.21 1.38 9.21
5/22/2022 6:30:00 PM 16.48 61.664 0.049 7.19 2.53 9.18
5/22/2022 6:45:00 PM 16.39 61.502 0.048 7.18 1.38 9.17
5/22/2022 7:00:00 PM 16.29 61.322 0.049 7.17 1.43 9.17
5/22/2022 7:15:00 PM 16.19 61.142 0.049 7.16 1.4 9.17
5/22/2022 7:30:00 PM 16.07 60.926 0.049 7.16 1.36 9.17
5/22/2022 7:45:00 PM 15.98 60.764 0.049 7.15 1.51 9.2
5/22/2022 8:00:00 PM 15.86 60.548 0.049 7.16 1.53 9.21
5/22/2022 8:15:00 PM 15.75 60.35 0.049 7.13 1.55 9.19
5/22/2022 8:30:00 PM 15.65 60.17 0.049 7.12 1.59 9.17
5/22/2022 8:45:00 PM 15.55 59.99 0.049 7.12 1.56 9.17
5/22/2022 9:00:00 PM 15.44 59.792 0.049 7.11 1.27 9.19
5/22/2022 9:15:00 PM 15.31 59.558 0.049 7.11 1.53 9.2
5/22/2022 9:30:00 PM 15.18 59.324 0.049 7.09 1.55 9.22
5/22/2022 9:45:00 PM 15.05 59.09 0.049 7.1 1.4 9.24
5/22/2022 10:00:00 PM 14.94 58.892 0.049 7.09 1.54 9.27
5/22/2022 10:15:00 PM 14.85 58.73 0.049 7.09 1.55 9.27
5/22/2022 10:30:00 PM 14.77 58.586 0.049 7.07 1.61 9.29
5/22/2022 10:45:00 PM 14.67 58.406 0.049 7.08 1.38 9.31
5/22/2022 11:00:00 PM 14.53 58.154 0.049 7.07 1.49 9.34
5/22/2022 11:15:00 PM 14.43 57.974 0.05 7.07 1.43 9.36
5/22/2022 11:30:00 PM 14.31 57.758 0.05 7.08 1.52 9.38
5/22/2022 11:45:00 PM 14.2 57.56 0.05 7.07 1.7 9.4
5/23/2022 12:00:00 AM 14.08 57.344 0.05 7.06 1.57 9.42
5/23/2022 12:15:00 AM 13.92 57.056 0.05 7.06 1.72 9.46
5/23/2022 12:30:00 AM 13.82 56.876 0.05 7.06 1.63 9.49
5/23/2022 12:45:00 AM 13.7 56.66 0.05 7.05 1.52 9.51
5/23/2022 1:00:00 AM 13.57 56.426 0.05 7.05 1.51 9.53
5/23/2022 1:15:00 AM 13.47 56.246 0.05 7.05 1.46 9.55
5/23/2022 1:30:00 AM 13.4 56.12 0.05 7.05 1.43 9.57
5/23/2022 1:45:00 AM 13.3 55.94 0.05 7.04 1.56 9.59
5/23/2022 2:00:00 AM 13.21 55.778 0.05 7.04 1.44 9.61
5/23/2022 2:15:00 AM 13.13 55.634 0.048 7.04 1.65 9.65
5/23/2022 2:30:00 AM 13.07 55.526 0.05 7.05 1.47 9.66
5/23/2022 2:45:00 AM 13 55.4 0.049 7.04 1.5 9.69
5/23/2022 3:00:00 AM 12.94 55.292 0.048 7.04 1.52 9.7
5/23/2022 3:15:00 AM 12.89 55.202 0.048 7.05 2.31 9.72
5/23/2022 3:30:00 AM 12.82 55.076 0.048 7.04 1.51 9.72
5/23/2022 3:45:00 AM 12.76 54.968 0.049 7.04 1.45 9.71
5/23/2022 4:00:00 AM 12.69 54.842 0.049 7.03 1.53 9.75
5/23/2022 4:15:00 AM 12.61 54.698 0.049 7.04 1.48 9.79
5/23/2022 4:30:00 AM 12.54 54.572 0.049 7.04 1.61 9.78
5/23/2022 4:45:00 AM 12.47 54.446 0.049 7.04 1.48 9.82
5/23/2022 5:00:00 AM 12.37 54.266 0.05 7.03 1.51 9.83
5/23/2022 5:15:00 AM 12.3 54.14 0.05 7.04 1.61 9.86
5/23/2022 5:30:00 AM 12.22 53.996 0.05 7.03 1.62 9.83
5/23/2022 5:45:00 AM 12.14 53.852 0.05 7.02 1.62 9.86
5/23/2022 6:00:00 AM 12.07 53.726 0.05 7.03 1.58 9.88
5/23/2022 6:15:00 AM 12 53.6 0.05 7.03 1.49 9.9
5/23/2022 6:30:00 AM 11.94 53.492 0.05 7.03 1.44 9.96
5/23/2022 6:45:00 AM 11.87 53.366 0.05 7.05 1.51 10.03
5/23/2022 7:00:00 AM 11.82 53.276 0.05 7.05 1.5 10.05
5/23/2022 7:15:00 AM 11.77 53.186 0.05 7.06 1.4 10.12
5/23/2022 7:30:00 AM 11.74 53.132 0.049 7.07 1.49 10.15
5/23/2022 7:45:00 AM 11.71 53.078 0.049 7.09 1.43 10.15
5/23/2022 8:00:00 AM 11.66 52.988 0.049 7.1 1.38 10.23
5/23/2022 8:15:00 AM 11.68 53.024 0.049 7.11 1.41 10.27
5/23/2022 8:30:00 AM 11.7 53.06 0.049 7.12 1.43 10.28
5/23/2022 8:45:00 AM 11.73 53.114 0.049 7.13 1.4 10.31
5/23/2022 9:00:00 AM 11.77 53.186 0.049 7.14 1.47 10.34
5/23/2022 9:15:00 AM 11.82 53.276 0.049 7.16 1.35 10.39
5/23/2022 9:30:00 AM 11.92 53.456 0.049 7.19 1.35 10.41
5/23/2022 9:45:00 AM 12.07 53.726 0.049 7.19 1.32 10.41
5/23/2022 10:00:00 AM 12.19 53.942 0.048 7.2 1.34 10.39
5/23/2022 10:15:00 AM 12.28 54.104 0.048 7.21 1.35 10.38
5/23/2022 10:30:00 AM 12.39 54.302 0.048 7.21 1.31 10.39
5/23/2022 10:45:00 AM 12.52 54.536 0.048 7.23 1.45 10.37
5/23/2022 11:00:00 AM 12.67 54.806 0.048 7.24 1.27 10.36
5/23/2022 11:15:00 AM 12.81 55.058 0.048 7.25 1.35 10.37
5/23/2022 11:30:00 AM 12.97 55.346 0.048 7.24 1.31 10.33
5/23/2022 11:45:00 AM 13.06 55.508 0.048 7.27 1.35 10.35
5/23/2022 12:00:00 PM 13.19 55.742 0.048 7.27 1.31 10.32
5/23/2022 12:15:00 PM 13.27 55.886 0.048 7.27 1.31 10.31
5/23/2022 12:30:00 PM 13.43 56.174 0.048 7.29 1.41 10.31
5/23/2022 12:45:00 PM 13.52 56.336 0.048 7.28 1.45 10.28
5/23/2022 1:00:00 PM 13.65 56.57 0.048 7.3 1.45 10.26
5/23/2022 1:15:00 PM 13.82 56.876 0.048 7.29 1.39 10.21
5/23/2022 1:30:00 PM 13.96 57.128 0.048 7.31 1.32 10.18
5/23/2022 1:45:00 PM 14.05 57.29 0.048 7.31 1.34 10.19
5/23/2022 2:00:00 PM 14.16 57.488 0.048 7.31 1.38 10.14
5/23/2022 2:15:00 PM 14.29 57.722 0.048 7.33 1.39 10.12
5/23/2022 2:30:00 PM 14.4 57.92 0.048 7.3 1.51 10.08
5/23/2022 2:45:00 PM 14.43 57.974 0.048 7.32 1.41 10.07
5/23/2022 3:00:00 PM 14.55 58.19 0.048 7.31 1.35 10.03
5/23/2022 3:15:00 PM 14.58 58.244 0.048 7.31 1.24 10.03
5/23/2022 3:30:00 PM 14.61 58.298 0.048 7.31 1.4 9.98
5/23/2022 3:45:00 PM 14.63 58.334 0.048 7.32 1.31 9.98
5/23/2022 4:00:00 PM 14.69 58.442 0.048 7.32 1.79 9.95
5/23/2022 4:15:00 PM 14.71 58.478 0.048 7.32 1.22 9.93
5/23/2022 4:30:00 PM 14.7 58.46 0.048 7.31 1.38 9.89
5/23/2022 4:45:00 PM 14.66 58.388 0.048 7.32 1.31 9.92
5/23/2022 5:00:00 PM 14.63 58.334 0.048 7.3 1.38 9.88
5/23/2022 5:15:00 PM 14.61 58.298 0.048 7.29 1.33 9.88
5/23/2022 5:30:00 PM 14.57 58.226 0.048 7.27 1.43 9.8
5/23/2022 5:45:00 PM 14.51 58.118 0.048 7.27 1.46 9.85
5/23/2022 6:00:00 PM 14.45 58.01 0.048 7.27 1.25 9.83
5/23/2022 6:15:00 PM 14.39 57.902 0.048 7.25 1.36 9.81
5/23/2022 6:30:00 PM 14.34 57.812 0.048 7.24 1.36 9.79
5/23/2022 6:45:00 PM 14.26 57.668 0.048 7.23 1.44 9.76
5/23/2022 7:00:00 PM 14.18 57.524 0.048 7.22 1.52 9.74
5/23/2022 7:15:00 PM 14.11 57.398 0.048 7.19 1.38 9.7
5/23/2022 7:30:00 PM 14.03 57.254 0.048 7.17 1.35 9.69
5/23/2022 7:45:00 PM 13.95 57.11 0.048 7.15 1.55 9.64
5/23/2022 8:00:00 PM 13.86 56.948 0.048 7.16 1.41 9.64
5/23/2022 8:15:00 PM 13.76 56.768 0.049 7.13 1.74 9.61
5/23/2022 8:30:00 PM 13.64 56.552 0.049 7.13 1.37 9.66
5/23/2022 8:45:00 PM 13.56 56.408 0.049 7.11 1.39 9.6
5/23/2022 9:00:00 PM 13.48 56.264 0.049 7.1 1.42 9.61
5/23/2022 9:15:00 PM 13.36 56.048 0.049 7.1 1.51 9.63
5/23/2022 9:30:00 PM 13.28 55.904 0.049 7.09 1.46 9.63
5/23/2022 9:45:00 PM 13.19 55.742 0.049 7.08 1.55 9.63
5/23/2022 10:00:00 PM 13.08 55.544 0.049 7.08 1.48 9.66
5/23/2022 10:15:00 PM 13.01 55.418 0.049 7.08 1.43 9.68
5/23/2022 10:30:00 PM 12.92 55.256 0.049 7.07 1.52 9.7
5/23/2022 10:45:00 PM 12.83 55.094 0.049 7.07 1.47 9.71
5/23/2022 11:00:00 PM 12.77 54.986 0.049 7.07 1.47 9.74
5/23/2022 11:15:00 PM 12.69 54.842 0.05 7.06 1.36 9.75
5/23/2022 11:30:00 PM 12.61 54.698 0.05 7.06 1.5 9.77
5/23/2022 11:45:00 PM 12.53 54.554 0.05 7.07 1.54 9.79
5/24/2022 12:00:00 AM 12.47 54.446 0.05 7.06 1.47 9.79
5/24/2022 12:15:00 AM 12.41 54.338 0.05 7.06 1.51 9.81
5/24/2022 12:30:00 AM 12.33 54.194 0.05 7.06 1.48 9.86
5/24/2022 12:45:00 AM 12.27 54.086 0.05 7.05 1.64 9.83
5/24/2022 1:00:00 AM 12.2 53.96 0.049 7.06 1.69 9.87
5/24/2022 1:15:00 AM 12.13 53.834 0.05 7.05 1.48 9.87
5/24/2022 1:30:00 AM 12.06 53.708 0.05 7.05 1.49 9.9
5/24/2022 1:45:00 AM 11.98 53.564 0.05 7.06 1.58 9.92
5/24/2022 2:00:00 AM 11.9 53.42 0.054 7.05 1.52 9.93
5/24/2022 2:15:00 AM 11.81 53.258 0.055 7.05 1.56 9.94
5/24/2022 2:30:00 AM 11.74 53.132 0.049 7.05 1.51 9.97
5/24/2022 2:45:00 AM 11.67 53.006 0.048 7.05 1.52 10.01
5/24/2022 3:00:00 AM 11.6 52.88 0.048 7.05 1.79 10.01
5/24/2022 3:15:00 AM 11.52 52.736 0.048 7.05 1.52 10.02
5/24/2022 3:30:00 AM 11.45 52.61 0.048 7.04 1.51 10.04
5/24/2022 3:45:00 AM 11.39 52.502 0.048 7.05 1.48 10.05
5/24/2022 4:00:00 AM 11.31 52.358 0.048 7.04 1.51 10.06
5/24/2022 4:15:00 AM 11.24 52.232 0.048 7.05 1.42 10.07
5/24/2022 4:30:00 AM 11.16 52.088 0.048 7.04 1.42 10.11
5/24/2022 4:45:00 AM 11.1 51.98 0.048 7.05 1.5 10.11
5/24/2022 5:00:00 AM 11.01 51.818 0.048 7.05 1.44 10.16
5/24/2022 5:15:00 AM 10.96 51.728 0.048 7.05 1.62 10.15
5/24/2022 5:30:00 AM 10.9 51.62 0.048 7.05 1.63 10.17
5/24/2022 5:45:00 AM 10.86 51.548 0.048 7.04 1.46 10.18
5/24/2022 6:00:00 AM 10.82 51.476 0.048 7.05 1.49 10.2
5/24/2022 6:15:00 AM 10.76 51.368 0.048 7.04 1.66 10.22
5/24/2022 6:30:00 AM 10.73 51.314 0.048 7.07 1.45 10.27
5/24/2022 6:45:00 AM 10.7 51.26 0.048 7.06 1.41 10.3
5/24/2022 7:00:00 AM 10.67 51.206 0.048 7.08 1.36 10.34
5/24/2022 7:15:00 AM 10.65 51.17 0.048 7.09 1.37 10.37
5/24/2022 7:30:00 AM 10.63 51.134 0.048 7.1 1.44 10.41
5/24/2022 7:45:00 AM 10.61 51.098 0.048 7.1 1.27 10.47
5/24/2022 8:00:00 AM 10.64 51.152 0.048 7.12 1.35 10.5
5/24/2022 8:15:00 AM 10.67 51.206 0.048 7.13 1.38 10.59
5/24/2022 8:30:00 AM 10.73 51.314 0.048 7.14 1.3 10.58
5/24/2022 8:45:00 AM 10.78 51.404 0.048 7.16 1.42 10.61
5/24/2022 9:00:00 AM 10.86 51.548 0.048 7.17 1.36 10.63
5/24/2022 9:15:00 AM 10.96 51.728 0.048 7.18 1.41 10.64
5/24/2022 9:30:00 AM 11.08 51.944 0.048 7.19 1.35 10.64
5/24/2022 9:45:00 AM 11.19 52.142 0.048 7.21 1.33 10.66
5/24/2022 10:00:00 AM 11.31 52.358 0.048 7.22 1.3 10.68
5/24/2022 10:15:00 AM 11.4 52.52 0.048 7.23 1.28 10.65
5/24/2022 10:30:00 AM 11.49 52.682 0.047 7.23 1.33 10.64
5/24/2022 10:45:00 AM 11.58 52.844 0.047 7.24 2.2 10.61
5/24/2022 11:00:00 AM 11.69 53.042 0.047 7.25 1.37 10.61
5/24/2022 11:15:00 AM 11.78 53.204 0.047 7.25 1.35 10.58
5/24/2022 11:30:00 AM 11.87 53.366 0.047 7.26 1.48 10.58
5/24/2022 11:45:00 AM 11.98 53.564 0.047 7.26 1.27 10.56
5/24/2022 12:00:00 PM 12.11 53.798 0.047 7.28 1.34 10.55
5/24/2022 12:15:00 PM 12.22 53.996 0.047 7.28 1.27 10.54
5/24/2022 12:30:00 PM 12.34 54.212 0.047 7.3 1.29 10.54
5/24/2022 12:45:00 PM 12.41 54.338 0.047 7.28 1.38 10.49
5/24/2022 1:00:00 PM 12.51 54.518 0.047 7.29 1.32 10.46
5/24/2022 1:15:00 PM 12.6 54.68 0.047 7.29 1.29 10.41
5/24/2022 1:30:00 PM 12.7 54.86 0.047 7.27 1.24 10.37
5/24/2022 1:45:00 PM 12.74 54.932 0.047 7.28 1.32 10.34
5/24/2022 2:00:00 PM 12.77 54.986 0.047 7.27 1.38 10.28
5/24/2022 2:15:00 PM 12.76 54.968 0.047 7.24 1.32 10.2
5/24/2022 2:30:00 PM 12.77 54.986 0.047 7.23 1.3 10.18
5/24/2022 2:45:00 PM 12.75 54.95 0.047 7.22 1.27 10.18
5/24/2022 3:00:00 PM 12.73 54.914 0.047 7.22 1.39 10.17
5/24/2022 3:15:00 PM 12.68 54.824 0.047 7.21 1.31 10.17
5/24/2022 3:30:00 PM 12.66 54.788 0.047 7.21 1.32 10.18
5/24/2022 3:45:00 PM 12.64 54.752 0.047 7.2 1.28 10.18
5/24/2022 4:00:00 PM 12.62 54.716 0.047 7.19 2.54 10.19
5/24/2022 4:15:00 PM 12.6 54.68 0.047 7.21 1.91 10.2
5/24/2022 4:30:00 PM 12.66 54.788 0.047 7.21 1.48 10.24
5/24/2022 4:45:00 PM 12.76 54.968 0.047 7.23 1.13 10.23
5/24/2022 5:00:00 PM 12.76 54.968 0.047 7.24 1.18 10.28
5/24/2022 5:15:00 PM 12.77 54.986 0.047 7.23 1.13 10.24
5/24/2022 5:30:00 PM 12.73 54.914 0.047 7.24 1.14 10.17
5/24/2022 5:45:00 PM 12.71 54.878 0.047 7.21 1.19 10.13
5/24/2022 6:00:00 PM 12.71 54.878 0.047 7.2 1.24 10.07
5/24/2022 6:15:00 PM 12.7 54.86 0.047 7.19 1.16 10.06
5/24/2022 6:30:00 PM 12.67 54.806 0.047 7.17 1.17 10.03
5/24/2022 6:45:00 PM 12.64 54.752 0.047 7.16 1.08 10.02
5/24/2022 7:00:00 PM 12.59 54.662 0.048 7.15 1.11 9.99
5/24/2022 7:15:00 PM 12.55 54.59 0.048 7.13 1.11 9.96
5/24/2022 7:30:00 PM 12.5 54.5 0.048 7.13 1.13 9.96
5/24/2022 7:45:00 PM 12.46 54.428 0.048 7.11 1.19 9.96
5/24/2022 8:00:00 PM 12.43 54.374 0.048 7.1 1.16 9.92
5/24/2022 8:15:00 PM 12.39 54.302 0.048 7.09 1.08 9.95
5/24/2022 8:30:00 PM 12.36 54.248 0.048 7.09 2.43 9.91
5/24/2022 8:45:00 PM 12.33 54.194 0.048 7.08 1.12 9.92
5/24/2022 9:00:00 PM 12.3 54.14 0.048 7.08 1.19 9.91
5/24/2022 9:15:00 PM 12.26 54.068 0.048 7.07 1.26 9.93
5/24/2022 9:30:00 PM 12.23 54.014 0.048 7.07 1.22 9.93
5/24/2022 9:45:00 PM 12.21 53.978 0.05 7.05 1.24 9.91
5/24/2022 10:00:00 PM 12.18 53.924 0.052 7.05 1.22 9.92
5/24/2022 10:15:00 PM 12.16 53.888 0.051 7.04 1.31 9.9
5/24/2022 10:30:00 PM 12.13 53.834 0.051 7.05 1.5 9.91
5/24/2022 10:45:00 PM 12.11 53.798 0.051 7.03 1.32 9.91
5/24/2022 11:00:00 PM 12.09 53.762 0.051 7.04 1.27 9.91
5/24/2022 11:15:00 PM 12.06 53.708 0.051 7.05 1.35 9.95
5/24/2022 11:30:00 PM 12.04 53.672 0.051 7.04 1.49 9.96
5/24/2022 11:45:00 PM 12.02 53.636 0.053 7.04 1.31 9.95
5/25/2022 12:00:00 AM 12.01 53.618 0.054 7.04 1.27 9.93
5/25/2022 12:15:00 AM 11.99 53.582 0.053 7.03 1.17 9.96
5/25/2022 12:30:00 AM 11.97 53.546 0.053 7.03 1.36 9.96
5/25/2022 12:45:00 AM 11.96 53.528 0.053 7.04 1.33 9.96
5/25/2022 1:00:00 AM 11.94 53.492 0.053 7.03 1.3 9.96
5/25/2022 1:15:00 AM 11.92 53.456 0.053 7.04 1.38 9.96
5/25/2022 1:30:00 AM 11.91 53.438 0.053 7.02 1.25 9.96
5/25/2022 1:45:00 AM 11.89 53.402 0.054 7.03 1.37 9.97
5/25/2022 2:00:00 AM 11.87 53.366 0.054 7.02 1.26 9.97
5/25/2022 2:15:00 AM 11.85 53.33 0.054 7.02 1.24 9.98
5/25/2022 2:30:00 AM 11.84 53.312 0.053 7.02 1.33 9.97
5/25/2022 2:45:00 AM 11.82 53.276 0.053 7.02 1.45 9.98
5/25/2022 3:00:00 AM 11.8 53.24 0.054 7.03 1.36 9.98
5/25/2022 3:15:00 AM 11.79 53.222 0.054 7.02 1.35 9.98
5/25/2022 3:30:00 AM 11.77 53.186 0.054 7.03 1.34 10.01
5/25/2022 3:45:00 AM 11.76 53.168 0.054 7.02 1.58 10
5/25/2022 4:00:00 AM 11.75 53.15 0.054 7.02 1.26 10
5/25/2022 4:15:00 AM 11.72 53.096 0.054 7.01 1.3 10.03
5/25/2022 4:30:00 AM 11.71 53.078 0.055 7.02 1.58 10.02
5/25/2022 4:45:00 AM 11.68 53.024 0.054 7.03 1.42 10.03
5/25/2022 5:00:00 AM 11.66 52.988 0.054 7.02 1.41 10.03
5/25/2022 5:15:00 AM 11.65 52.97 0.054 7.02 1.38 10.02
5/25/2022 5:30:00 AM 11.63 52.934 0.054 7.03 1.43 10.03
5/25/2022 5:45:00 AM 11.61 52.898 0.054 7.02 1.91 10.02
5/25/2022 6:00:00 AM 11.59 52.862 0.054 7.03 1.37 10.07
5/25/2022 6:15:00 AM 11.57 52.826 0.054 7.02 1.32 10.04
5/25/2022 6:30:00 AM 11.57 52.826 0.054 7.02 1.28 10.07
5/25/2022 6:45:00 AM 11.56 52.808 0.054 7.03 1.39 10.09
5/25/2022 7:00:00 AM 11.56 52.808 0.054 7.03 1.42 10.11
5/25/2022 7:15:00 AM 11.57 52.826 0.054 7.03 1.3 10.13
5/25/2022 7:30:00 AM 11.58 52.844 0.054 7.04 1.26 10.15
5/25/2022 7:45:00 AM 11.6 52.88 0.054 7.06 1.33 10.22
5/25/2022 8:00:00 AM 11.63 52.934 0.054 7.07 1.23 10.28
5/25/2022 8:15:00 AM 11.67 53.006 0.054 7.08 1.31 10.28
5/25/2022 8:30:00 AM 11.71 53.078 0.054 7.1 1.62 10.35
5/25/2022 8:45:00 AM 11.75 53.15 0.054 7.13 1.25 10.35
5/25/2022 9:00:00 AM 11.83 53.294 0.054 7.15 1.21 10.43
5/25/2022 9:15:00 AM 11.92 53.456 0.054 7.17 1.3 10.42
5/25/2022 9:30:00 AM 12 53.6 0.053 7.19 1.24 10.44
5/25/2022 9:45:00 AM 12.11 53.798 0.053 7.19 1.16 10.43
5/25/2022 10:00:00 AM 12.2 53.96 0.053 7.22 1.23 10.44
5/25/2022 10:15:00 AM 12.28 54.104 0.053 7.22 1.26 10.41
5/25/2022 10:30:00 AM 12.37 54.266 0.053 7.24 1.26 10.44
5/25/2022 10:45:00 AM 12.44 54.392 0.053 7.23 1.22 10.35
5/25/2022 11:00:00 AM 12.51 54.518 0.053 7.24 1.21 10.38
5/25/2022 11:15:00 AM 12.66 54.788 0.053 7.25 1.26 10.41
5/25/2022 11:30:00 AM 12.81 55.058 0.053 7.27 1.27 10.43
5/25/2022 11:45:00 AM 12.95 55.31 0.053 7.28 1.53 10.4
5/25/2022 12:00:00 PM 13.08 55.544 0.053 7.29 1.21 10.38
5/25/2022 12:15:00 PM 13.19 55.742 0.052 7.3 1.27 10.37
5/25/2022 12:30:00 PM 13.4 56.12 0.053 7.31 1.45 10.36
5/25/2022 12:45:00 PM 13.64 56.552 0.053 7.32 1.18 10.32
5/25/2022 1:00:00 PM 13.82 56.876 0.053 7.3 1.63 10.22
5/25/2022 1:15:00 PM 14.08 57.344 0.053 7.33 1.19 10.22
5/25/2022 1:30:00 PM 14.32 57.776 0.053 7.33 1.27 10.2
5/25/2022 1:45:00 PM 14.47 58.046 0.053 7.33 1.34 10.13
5/25/2022 2:00:00 PM 14.75 58.55 0.053 7.34 1.45 10.12
5/25/2022 2:15:00 PM 14.85 58.73 0.053 7.34 1.32 10.03
5/25/2022 2:30:00 PM 15.12 59.216 0.053 7.34 1.21 9.98
5/25/2022 2:45:00 PM 15.46 59.828 0.053 7.33 1.19 9.91
5/25/2022 3:00:00 PM 15.68 60.224 0.053 7.32 1.39 9.84
5/25/2022 3:15:00 PM 15.87 60.566 0.053 7.3 1.32 9.77
5/25/2022 3:30:00 PM 16.02 60.836 0.053 7.3 1.38 9.71
5/25/2022 3:45:00 PM 16.09 60.962 0.053 7.31 1.25 9.69
5/25/2022 4:00:00 PM 16.29 61.322 0.053 7.29 1.44 9.65
5/25/2022 4:15:00 PM 16.28 61.304 0.054 7.29 1.31 9.56
5/25/2022 4:30:00 PM 16.43 61.574 0.053 7.3 1.37 9.57
5/25/2022 4:45:00 PM 16.46 61.628 0.054 7.29 1.36 9.54
5/25/2022 5:00:00 PM 16.43 61.574 0.054 7.29 1.3 9.49
5/25/2022 5:15:00 PM 16.34 61.412 0.054 7.27 1.28 9.46
5/25/2022 5:30:00 PM 16.25 61.25 0.054 7.28 1.32 9.45
5/25/2022 5:45:00 PM 16.14 61.052 0.054 7.25 1.48 9.4
5/25/2022 6:00:00 PM 16.03 60.854 0.054 7.26 1.29 9.41
5/25/2022 6:15:00 PM 15.89 60.602 0.054 7.25 1.33 9.39
5/25/2022 6:30:00 PM 15.78 60.404 0.054 7.26 1.21 9.45
5/25/2022 6:45:00 PM 15.67 60.206 0.054 7.24 1.4 9.4
5/25/2022 7:00:00 PM 15.62 60.116 0.054 7.22 1.56 9.4
5/25/2022 7:15:00 PM 15.49 59.882 0.054 7.2 1.3 9.29
5/25/2022 7:30:00 PM 15.38 59.684 0.054 7.18 1.28 9.35
5/25/2022 7:45:00 PM 15.28 59.504 0.054 7.18 1.3 9.32
5/25/2022 8:00:00 PM 15.19 59.342 0.054 7.17 1.37 9.31
5/25/2022 8:15:00 PM 15.1 59.18 0.054 7.16 1.48 9.31
5/25/2022 8:30:00 PM 15.03 59.054 0.054 7.14 1.44 9.26
5/25/2022 8:45:00 PM 14.95 58.91 0.054 7.12 1.44 9.27
5/25/2022 9:00:00 PM 14.87 58.766 0.054 7.13 1.57 9.29
5/25/2022 9:15:00 PM 14.79 58.622 0.054 7.11 1.5 9.26
5/25/2022 9:30:00 PM 14.71 58.478 0.055 7.1 1.53 9.25
5/25/2022 9:45:00 PM 14.64 58.352 0.054 7.1 1.55 9.27
5/25/2022 10:00:00 PM 14.56 58.208 0.051 7.08 1.87 9.28
5/25/2022 10:15:00 PM 14.49 58.082 0.051 7.08 1.58 9.3
5/25/2022 10:30:00 PM 14.4 57.92 0.049 7.08 1.58 9.32
5/25/2022 10:45:00 PM 14.34 57.812 0.049 7.08 1.52 9.34
5/25/2022 11:00:00 PM 14.27 57.686 0.049 7.09 1.51 9.36
5/25/2022 11:15:00 PM 14.2 57.56 0.049 7.09 1.42 9.4
5/25/2022 11:30:00 PM 14.15 57.47 0.051 7.08 1.44 9.38
5/25/2022 11:45:00 PM 14.08 57.344 0.049 7.08 1.62 9.41
5/26/2022 12:00:00 AM 14.02 57.236 0.049 7.08 1.58 9.4
5/26/2022 12:15:00 AM 13.97 57.146 0.051 7.07 1.53 9.41
5/26/2022 12:30:00 AM 13.89 57.002 0.051 7.08 1.63 9.44
5/26/2022 12:45:00 AM 13.84 56.912 0.051 7.07 1.51 9.44
5/26/2022 1:00:00 AM 13.78 56.804 0.051 7.08 1.47 9.44
5/26/2022 1:15:00 AM 13.71 56.678 0.051 7.07 1.57 9.48
5/26/2022 1:30:00 AM 13.64 56.552 0.05 7.07 1.57 9.47
5/26/2022 1:45:00 AM 13.58 56.444 0.051 7.07 1.61 9.52
5/26/2022 2:00:00 AM 13.51 56.318 0.05 7.08 1.76 9.54
5/26/2022 2:15:00 AM 13.45 56.21 0.051 7.07 1.4 9.55
5/26/2022 2:30:00 AM 13.39 56.102 0.051 7.07 1.54 9.54
5/26/2022 2:45:00 AM 13.34 56.012 0.051 7.07 1.59 9.56
5/26/2022 3:00:00 AM 13.31 55.958 0.051 7.07 1.93 9.56
5/26/2022 3:15:00 AM 13.27 55.886 0.051 7.07 1.47 9.57
5/26/2022 3:30:00 AM 13.24 55.832 0.05 7.07 1.66 9.6
5/26/2022 3:45:00 AM 13.21 55.778 0.05 7.07 1.67 9.59
5/26/2022 4:00:00 AM 13.18 55.724 0.05 7.06 1.57 9.59
5/26/2022 4:15:00 AM 13.14 55.652 0.051 7.06 1.46 9.59
5/26/2022 4:30:00 AM 13.09 55.562 0.051 7.06 1.49 9.61
5/26/2022 4:45:00 AM 13.03 55.454 0.05 7.07 1.83 9.65
5/26/2022 5:00:00 AM 12.98 55.364 0.051 7.04 1.65 9.63
5/26/2022 5:15:00 AM 12.92 55.256 0.05 7.06 1.62 9.64
5/26/2022 5:30:00 AM 12.85 55.13 0.05 7.04 1.52 9.63
5/26/2022 5:45:00 AM 12.79 55.022 0.05 7.06 1.55 9.68
5/26/2022 6:00:00 AM 12.71 54.878 0.051 7.07 4.85 9.74
5/26/2022 6:15:00 AM 12.65 54.77 0.051 7.05 1.7 9.71
5/26/2022 6:30:00 AM 12.58 54.644 0.051 7.07 2.29 9.8
5/26/2022 6:45:00 AM 12.53 54.554 0.051 7.07 1.07 9.81
5/26/2022 7:00:00 AM 12.5 54.5 0.05 7.09 1.11 9.89
5/26/2022 7:15:00 AM 12.48 54.464 0.051 7.1 1.12 9.91
5/26/2022 7:30:00 AM 12.47 54.446 0.05 7.11 1.17 9.98
5/26/2022 7:45:00 AM 12.47 54.446 0.05 7.14 1.11 10.03
5/26/2022 8:00:00 AM 12.47 54.446 0.05 7.14 0.95 10.03
5/26/2022 8:15:00 AM 12.47 54.446 0.05 7.14 1.06 10.06
5/26/2022 8:30:00 AM 12.51 54.518 0.05 7.14 1.09 10.05
5/26/2022 8:45:00 AM 12.58 54.644 0.05 7.16 1.09 10.08
5/26/2022 9:00:00 AM 12.65 54.77 0.05 7.17 1.01 10.1
5/26/2022 9:15:00 AM 12.74 54.932 0.05 7.18 1.07 10.12
5/26/2022 9:30:00 AM 12.86 55.148 0.05 7.19 1.12 10.15
5/26/2022 9:45:00 AM 13 55.4 0.05 7.2 1.28 10.14
5/26/2022 10:00:00 AM 13.14 55.652 0.05 7.23 1.07 10.17
5/26/2022 10:15:00 AM 13.3 55.94 0.05 7.23 1.4 10.12
5/26/2022 10:30:00 AM 13.49 56.282 0.05 7.25 1.13 10.1
5/26/2022 10:45:00 AM 13.7 56.66 0.05 7.26 1.05 10.08
5/26/2022 11:00:00 AM 13.88 56.984 0.05 7.26 1.09 10.04
5/26/2022 11:15:00 AM 14.07 57.326 0.05 7.27 1.09 10.04
5/26/2022 11:30:00 AM 14.19 57.542 0.05 7.28 0.98 10.01
5/26/2022 11:45:00 AM 14.4 57.92 0.049 7.31 1.08 10
5/26/2022 12:00:00 PM 14.58 58.244 0.049 7.28 1.05 9.93
5/26/2022 12:15:00 PM 14.9 58.82 0.049 7.3 1.06 9.88
5/26/2022 12:30:00 PM 15.23 59.414 0.049 7.29 1.07 9.83
5/26/2022 12:45:00 PM 15.56 60.008 0.049 7.31 1.22 9.82
5/26/2022 1:00:00 PM 15.9 60.62 0.049 7.31 1.06 9.77
5/26/2022 1:15:00 PM 16 60.8 0.049 7.3 1.14 9.68
5/26/2022 1:30:00 PM 16.17 61.106 0.049 7.33 0.99 9.68
5/26/2022 1:45:00 PM 16.48 61.664 0.049 7.32 1.01 9.62
5/26/2022 2:00:00 PM 16.81 62.258 0.049 7.34 0.99 9.56
5/26/2022 2:15:00 PM 17.15 62.87 0.049 7.32 1.67 9.49
5/26/2022 2:30:00 PM 17.28 63.104 0.049 7.33 1.13 9.47
5/26/2022 2:45:00 PM 17.19 62.942 0.049 7.33 0.99 9.42
5/26/2022 3:00:00 PM 17.19 62.942 0.049 7.33 1.03 9.42
5/26/2022 3:15:00 PM 17.28 63.104 0.049 7.35 1.07 9.39
5/26/2022 3:30:00 PM 17.36 63.248 0.049 7.33 1.05 9.32
5/26/2022 3:45:00 PM 17.63 63.734 0.049 7.34 1.06 9.33
5/26/2022 4:00:00 PM 17.59 63.662 0.049 7.32 1.1 9.25
5/26/2022 4:15:00 PM 17.7 63.86 0.049 7.3 1.14 9.2
5/26/2022 4:30:00 PM 17.69 63.842 0.049 7.31 0.98 9.17
5/26/2022 4:45:00 PM 17.6 63.68 0.049 7.3 0.96 9.11
5/26/2022 5:00:00 PM 17.55 63.59 0.049 7.28 1.24 9.1
5/26/2022 5:15:00 PM 17.48 63.464 0.049 7.25 1.09 9.02
5/26/2022 5:30:00 PM 17.45 63.41 0.049 7.26 1.05 9.05
5/26/2022 5:45:00 PM 17.45 63.41 0.049 7.26 1.24 9.04
5/26/2022 6:00:00 PM 17.4 63.32 0.049 7.27 1.21 9.1
5/26/2022 6:15:00 PM 17.38 63.284 0.049 7.25 1.65 9.09
5/26/2022 6:30:00 PM 17.32 63.176 0.049 7.26 1.81 9.07
5/26/2022 6:45:00 PM 17.3 63.14 0.049 7.25 1.06 9.06
5/26/2022 7:00:00 PM 17.24 63.032 0.05 7.22 1.21 8.94
5/26/2022 7:15:00 PM 17.16 62.888 0.05 7.2 1.25 8.89
5/26/2022 7:30:00 PM 17.09 62.762 0.05 7.17 1.78 8.83
5/26/2022 7:45:00 PM 17 62.6 0.05 7.16 2.36 8.85
5/26/2022 8:00:00 PM 16.9 62.42 0.05 7.16 1.41 8.84
5/26/2022 8:15:00 PM 16.82 62.276 0.05 7.15 1.04 8.8
5/26/2022 8:30:00 PM 16.73 62.114 0.05 7.13 1 8.81
5/26/2022 8:45:00 PM 16.64 61.952 0.051 7.14 0.89 8.8
5/26/2022 9:00:00 PM 16.56 61.808 0.051 7.13 0.95 8.83
5/26/2022 9:15:00 PM 16.46 61.628 0.051 7.11 0.99 8.82
5/26/2022 9:30:00 PM 16.38 61.484 0.051 7.11 1.17 8.82
5/26/2022 9:45:00 PM 16.28 61.304 0.051 7.1 0.98 8.84
5/26/2022 10:00:00 PM 16.2 61.16 0.051 7.09 0.99 8.83
5/26/2022 10:15:00 PM 16.11 60.998 0.051 7.08 1.14 8.87
5/26/2022 10:30:00 PM 16.02 60.836 0.051 7.08 0.95 8.85
5/26/2022 10:45:00 PM 15.95 60.71 0.051 7.08 1.12 8.91
5/26/2022 11:00:00 PM 15.88 60.584 0.051 7.08 1.21 8.92
5/26/2022 11:15:00 PM 15.81 60.458 0.051 7.08 1.13 8.92
5/26/2022 11:30:00 PM 15.75 60.35 0.051 7.07 0.93 8.92
5/26/2022 11:45:00 PM 15.67 60.206 0.051 7.06 1.19 8.94
5/27/2022 12:00:00 AM 15.62 60.116 0.051 7.06 1.16 8.97
5/27/2022 12:15:00 AM 15.57 60.026 0.051 7.06 1.11 8.94
5/27/2022 12:30:00 AM 15.51 59.918 0.051 7.07 0.97 8.99
5/27/2022 12:45:00 AM 15.46 59.828 0.051 7.05 0.96 8.99
5/27/2022 1:00:00 AM 15.4 59.72 0.051 7.06 1.08 8.99
5/27/2022 1:15:00 AM 15.35 59.63 0.051 7.05 1.1 9
5/27/2022 1:30:00 AM 15.3 59.54 0.051 7.06 1.13 9.03
5/27/2022 1:45:00 AM 15.24 59.432 0.051 7.05 1.07 9.05
5/27/2022 2:00:00 AM 15.21 59.378 0.051 7.04 1.02 9.03
5/27/2022 2:15:00 AM 15.16 59.288 0.051 7.05 1.14 9.07
5/27/2022 2:30:00 AM 15.12 59.216 0.051 7.05 1.11 9.06
5/27/2022 2:45:00 AM 15.08 59.144 0.051 7.05 1.1 9.06
5/27/2022 3:00:00 AM 15.04 59.072 0.051 7.06 1.02 9.07
5/27/2022 3:15:00 AM 15 59 0.051 7.04 1.07 9.07
5/27/2022 3:30:00 AM 14.96 58.928 0.051 7.05 1.19 9.1
5/27/2022 3:45:00 AM 14.92 58.856 0.051 7.06 1.11 9.12
5/27/2022 4:00:00 AM 14.88 58.784 0.051 7.05 1.11 9.11
5/27/2022 4:15:00 AM 14.84 58.712 0.051 7.04 1.11 9.12
5/27/2022 4:30:00 AM 14.81 58.658 0.051 7.05 1.11 9.12
5/27/2022 4:45:00 AM 14.77 58.586 0.051 7.05 1.07 9.14
5/27/2022 5:00:00 AM 14.74 58.532 0.051 7.05 1.13 9.13
5/27/2022 5:15:00 AM 14.72 58.496 0.051 7.04 1.42 9.12
5/27/2022 5:30:00 AM 14.69 58.442 0.051 7.05 1.14 9.15
5/27/2022 5:45:00 AM 14.65 58.37 0.051 7.05 1.26 9.16
5/27/2022 6:00:00 AM 14.62 58.316 0.051 7.05 1.22 9.18
5/27/2022 6:15:00 AM 14.6 58.28 0.051 7.05 1.09 9.19
5/27/2022 6:30:00 AM 14.58 58.244 0.051 7.05 2.38 9.18
5/27/2022 6:45:00 AM 14.57 58.226 0.051 7.05 1.08 9.19
5/27/2022 7:00:00 AM 14.55 58.19 0.051 7.06 1.11 9.23
5/27/2022 7:15:00 AM 14.55 58.19 0.051 7.07 1.01 9.25
5/27/2022 7:30:00 AM 14.55 58.19 0.051 7.09 0.89 9.28
5/27/2022 7:45:00 AM 14.54 58.172 0.051 7.09 1.06 9.29
5/27/2022 8:00:00 AM 14.56 58.208 0.051 7.09 0.94 9.29
5/27/2022 8:15:00 AM 14.57 58.226 0.051 7.12 0.93 9.39
5/27/2022 8:30:00 AM 14.6 58.28 0.051 7.13 0.88 9.43
5/27/2022 8:45:00 AM 14.63 58.334 0.051 7.14 0.87 9.43
5/27/2022 9:00:00 AM 14.67 58.406 0.051 7.15 1 9.48
5/27/2022 9:15:00 AM 14.68 58.424 0.051 7.17 0.89 9.49
5/27/2022 9:30:00 AM 14.71 58.478 0.051 7.17 0.93 9.5
5/27/2022 9:45:00 AM 14.76 58.568 0.05 7.19 0.97 9.54
5/27/2022 10:00:00 AM 14.88 58.784 0.05 7.2 0.93 9.6
5/27/2022 10:15:00 AM 14.95 58.91 0.05 7.21 1.09 9.59
5/27/2022 10:30:00 AM 14.95 58.91 0.05 7.22 1.27 9.57
5/27/2022 10:45:00 AM 14.96 58.928 0.05 7.22 0.92 9.53
5/27/2022 11:00:00 AM 14.98 58.964 0.05 7.21 0.99 9.52
5/27/2022 11:15:00 AM 14.99 58.982 0.05 7.2 1.04 9.49
5/27/2022 11:30:00 AM 15.06 59.108 0.05 7.22 1.35 9.51
5/27/2022 11:45:00 AM 15.07 59.126 0.05 7.21 1.05 9.5
5/27/2022 12:00:00 PM 15.04 59.072 0.05 7.21 0.94 9.48
5/27/2022 12:15:00 PM 15.02 59.036 0.05 7.18 0.97 9.43
5/27/2022 12:30:00 PM 15.09 59.162 0.05 7.17 1.21 9.4
5/27/2022 12:45:00 PM 15.11 59.198 0.05 7.15 1.54 9.41
5/27/2022 1:00:00 PM 15.09 59.162 0.05 7.16 1.65 9.39
5/27/2022 1:15:00 PM 15.12 59.216 0.049 7.16 1.42 9.44
5/27/2022 1:30:00 PM 15.21 59.378 0.049 7.18 1.53 9.5
5/27/2022 1:45:00 PM 15.28 59.504 0.049 7.2 1.43 9.52
5/27/2022 2:00:00 PM 15.3 59.54 0.049 7.22 1.26 9.56
5/27/2022 2:15:00 PM 15.38 59.684 0.049 7.24 1.12 9.58
5/27/2022 2:30:00 PM 15.47 59.846 0.049 7.27 1.35 9.58
5/27/2022 2:45:00 PM 15.53 59.954 0.049 7.24 1.41 9.51
5/27/2022 3:00:00 PM 15.67 60.206 0.049 7.26 2.01 9.54
5/27/2022 3:15:00 PM 15.81 60.458 0.049 7.27 1.07 9.54
5/27/2022 3:30:00 PM 15.91 60.638 0.049 7.28 1.23 9.48
5/27/2022 3:45:00 PM 16.01 60.818 0.049 7.28 1.32 9.48
5/27/2022 4:00:00 PM 16.07 60.926 0.048 7.31 1.26 9.5
5/27/2022 4:15:00 PM 16.11 60.998 0.048 7.3 1.39 9.47
5/27/2022 4:30:00 PM 16.21 61.178 0.048 7.31 2.15 9.46
5/27/2022 4:45:00 PM 16.25 61.25 0.048 7.32 1.57 9.44
5/27/2022 5:00:00 PM 16.35 61.43 0.048 7.3 1.46 9.38
5/27/2022 5:15:00 PM 16.39 61.502 0.048 7.3 1.64 9.39
5/27/2022 5:30:00 PM 16.35 61.43 0.048 7.3 1.81 9.35
5/27/2022 5:45:00 PM 16.3 61.34 0.048 7.28 1.55 9.31
5/27/2022 6:00:00 PM 16.24 61.232 0.049 7.27 1.62 9.27
5/27/2022 6:15:00 PM 16.18 61.124 0.049 7.26 1.64 9.26
5/27/2022 6:30:00 PM 16.15 61.07 0.049 7.24 1.7 9.23
5/27/2022 6:45:00 PM 16.08 60.944 0.049 7.24 1.69 9.23
5/27/2022 7:00:00 PM 16.05 60.89 0.049 7.23 1.44 9.2
5/27/2022 7:15:00 PM 15.97 60.746 0.049 7.22 1.73 9.18
5/27/2022 7:30:00 PM 15.87 60.566 0.049 7.2 1.55 9.15
5/27/2022 7:45:00 PM 15.79 60.422 0.049 7.18 1.37 9.11
5/27/2022 8:00:00 PM 15.69 60.242 0.049 7.16 1.62 9.08
5/27/2022 8:15:00 PM 15.61 60.098 0.049 7.14 1.52 9.04
5/27/2022 8:30:00 PM 15.52 59.936 0.049 7.13 1.71 9.05
5/27/2022 8:45:00 PM 15.43 59.774 0.049 7.11 1.37 9.05
5/27/2022 9:00:00 PM 15.32 59.576 0.049 7.1 1.43 9.04
5/27/2022 9:15:00 PM 15.22 59.396 0.049 7.1 1.63 9.06
5/27/2022 9:30:00 PM 15.12 59.216 0.05 7.09 1.47 9.08
5/27/2022 9:45:00 PM 15.02 59.036 0.05 7.08 1.59 9.07
5/27/2022 10:00:00 PM 14.94 58.892 0.05 7.06 1.52 9.05
5/27/2022 10:15:00 PM 14.84 58.712 0.05 7.06 1.48 9.08
5/27/2022 10:30:00 PM 14.78 58.604 0.05 7.06 1.55 9.1
5/27/2022 10:45:00 PM 14.72 58.496 0.05 7.05 1.64 9.1
5/27/2022 11:00:00 PM 14.65 58.37 0.05 7.06 1.6 9.13
5/27/2022 11:15:00 PM 14.6 58.28 0.05 7.05 1.28 9.13
5/27/2022 11:30:00 PM 14.55 58.19 0.05 7.05 1.38 9.14
5/27/2022 11:45:00 PM 14.49 58.082 0.051 7.05 1.5 9.15
5/28/2022 12:00:00 AM 14.45 58.01 0.05 7.04 1.47 9.15
5/28/2022 12:15:00 AM 14.4 57.92 0.05 7.05 1.43 9.19
5/28/2022 12:30:00 AM 14.36 57.848 0.051 7.04 1.31 9.19
5/28/2022 12:45:00 AM 14.32 57.776 0.051 7.04 1.26 9.18
5/28/2022 1:00:00 AM 14.28 57.704 0.051 7.05 1.82 9.19
5/28/2022 1:15:00 AM 14.25 57.65 0.051 7.04 1.53 9.21
5/28/2022 1:30:00 AM 14.2 57.56 0.051 7.04 1.58 9.21
5/28/2022 1:45:00 AM 14.18 57.524 0.051 7.04 1.52 9.2
5/28/2022 2:00:00 AM 14.14 57.452 0.051 7.04 1.47 9.24
5/28/2022 2:15:00 AM 14.11 57.398 0.051 7.04 1.41 9.22
5/28/2022 2:30:00 AM 14.07 57.326 0.051 7.03 1.48 9.21
5/28/2022 2:45:00 AM 14.03 57.254 0.051 7.04 1.52 9.23
5/28/2022 3:00:00 AM 13.99 57.182 0.051 7.04 1.38 9.26
5/28/2022 3:15:00 AM 13.95 57.11 0.051 7.04 1.45 9.27
5/28/2022 3:30:00 AM 13.91 57.038 0.051 7.04 1.3 9.3
5/28/2022 3:45:00 AM 13.89 57.002 0.051 7.04 1.72 9.29
5/28/2022 4:00:00 AM 13.86 56.948 0.051 7.02 1.42 9.26
5/28/2022 4:15:00 AM 13.83 56.894 0.051 7.02 1.56 9.28
5/28/2022 4:30:00 AM 13.8 56.84 0.051 7.02 1.75 9.29
5/28/2022 4:45:00 AM 13.78 56.804 0.051 7.02 2.18 9.29
5/28/2022 5:00:00 AM 13.75 56.75 0.051 7.03 1.75 9.31
5/28/2022 5:15:00 AM 13.72 56.696 0.051 7.03 1.48 9.33
5/28/2022 5:30:00 AM 13.7 56.66 0.05 7.02 1.76 9.31
5/28/2022 5:45:00 AM 13.68 56.624 0.05 7.02 1.42 9.31
5/28/2022 6:00:00 AM 13.65 56.57 0.05 7.02 1.49 9.34
5/28/2022 6:15:00 AM 13.64 56.552 0.05 7.02 1.28 9.35
5/28/2022 6:30:00 AM 13.62 56.516 0.051 7.04 1.37 9.42
5/28/2022 6:45:00 AM 13.6 56.48 0.05 7.03 1.4 9.38
5/28/2022 7:00:00 AM 13.59 56.462 0.05 7.04 1.27 9.39
5/28/2022 7:15:00 AM 13.57 56.426 0.05 7.04 1.17 9.44
5/28/2022 7:30:00 AM 13.57 56.426 0.05 7.07 1.2 9.49
5/28/2022 7:45:00 AM 13.57 56.426 0.05 7.07 1.3 9.49
5/28/2022 8:00:00 AM 13.57 56.426 0.05 7.07 1.54 9.57
5/28/2022 8:15:00 AM 13.61 56.498 0.05 7.07 2.21 9.56
5/28/2022 8:30:00 AM 13.63 56.534 0.05 7.11 1.35 9.65
5/28/2022 8:45:00 AM 13.64 56.552 0.05 7.12 1.26 9.7
5/28/2022 9:00:00 AM 13.68 56.624 0.05 7.13 1.06 9.71
5/28/2022 9:15:00 AM 13.71 56.678 0.05 7.13 1.51 9.7
5/28/2022 9:30:00 AM 13.77 56.786 0.05 7.15 1.27 9.76
5/28/2022 9:45:00 AM 13.8 56.84 0.05 7.18 1.24 9.75
5/28/2022 10:00:00 AM 13.82 56.876 0.05 7.17 1.55 9.74
5/28/2022 10:15:00 AM 13.87 56.966 0.049 7.2 1.67 9.78
5/28/2022 10:30:00 AM 13.89 57.002 0.049 7.19 2.07 9.74
5/28/2022 10:45:00 AM 13.9 57.02 0.05 7.2 1.12 9.76
5/28/2022 11:00:00 AM 13.93 57.074 0.05 7.19 1.32 9.71
5/28/2022 11:15:00 AM 13.94 57.092 0.05 7.22 1.3 9.77
5/28/2022 11:30:00 AM 14 57.2 0.05 7.21 0.96 9.79
5/28/2022 11:45:00 AM 14.09 57.362 0.049 7.25 0.96 9.84
5/28/2022 12:00:00 PM 14.11 57.398 0.049 7.22 1.09 9.8
5/28/2022 12:15:00 PM 14.21 57.578 0.049 7.24 1.69 9.85
5/28/2022 12:30:00 PM 14.32 57.776 0.049 7.26 1.15 9.84
5/28/2022 12:45:00 PM 14.43 57.974 0.049 7.28 1.05 9.83
5/28/2022 1:00:00 PM 14.64 58.352 0.049 7.28 1.42 9.82
5/28/2022 1:15:00 PM 14.64 58.352 0.049 7.29 1.31 9.77
5/28/2022 1:30:00 PM 14.72 58.496 0.049 7.3 0.9 9.75
5/28/2022 1:45:00 PM 14.89 58.802 0.049 7.29 0.94 9.74
5/28/2022 2:00:00 PM 15.08 59.144 0.049 7.29 1.01 9.7
5/28/2022 2:15:00 PM 15.02 59.036 0.049 7.29 1.61 9.63
5/28/2022 2:30:00 PM 15.18 59.324 0.049 7.31 2.35 9.7
5/28/2022 2:45:00 PM 15.09 59.162 0.05 7.3 1 9.63
5/28/2022 3:00:00 PM 15.33 59.594 0.049 7.29 0.99 9.64
5/28/2022 3:15:00 PM 15.46 59.828 0.049 7.3 0.97 9.63
5/28/2022 3:30:00 PM 15.41 59.738 0.049 7.28 0.9 9.56
5/28/2022 3:45:00 PM 15.64 60.152 0.049 7.29 0.92 9.56
5/28/2022 4:00:00 PM 15.64 60.152 0.049 7.31 0.85 9.58
5/28/2022 4:15:00 PM 15.67 60.206 0.049 7.3 0.81 9.55
5/28/2022 4:30:00 PM 15.69 60.242 0.049 7.3 0.88 9.54
5/28/2022 4:45:00 PM 15.72 60.296 0.049 7.3 1.1 9.49
5/28/2022 5:00:00 PM 15.65 60.17 0.049 7.29 0.87 9.41
5/28/2022 5:15:00 PM 15.64 60.152 0.049 7.27 0.94 9.42
5/28/2022 5:30:00 PM 15.61 60.098 0.049 7.27 1.06 9.37
5/28/2022 5:45:00 PM 15.58 60.044 0.049 7.27 1.1 9.42
5/28/2022 6:00:00 PM 15.54 59.972 0.049 7.26 0.94 9.44
5/28/2022 6:15:00 PM 15.48 59.864 0.049 7.27 0.92 9.42
5/28/2022 6:30:00 PM 15.42 59.756 0.049 7.25 1.74 9.4
5/28/2022 6:45:00 PM 15.37 59.666 0.05 7.22 1.22 9.34
5/28/2022 7:00:00 PM 15.31 59.558 0.05 7.23 1.49 9.38
5/28/2022 7:15:00 PM 15.27 59.486 0.049 7.21 1.09 9.34
5/28/2022 7:30:00 PM 15.21 59.378 0.05 7.21 0.73 9.36
5/28/2022 7:45:00 PM 15.13 59.234 0.049 7.2 0.98 9.35
5/28/2022 8:00:00 PM 15.05 59.09 0.05 7.17 0.8 9.3
5/28/2022 8:15:00 PM 14.97 58.946 0.05 7.18 0.83 9.3
5/28/2022 8:30:00 PM 14.88 58.784 0.05 7.16 0.8 9.27
5/28/2022 8:45:00 PM 14.79 58.622 0.05 7.15 0.86 9.25
5/28/2022 9:00:00 PM 14.69 58.442 0.05 7.12 0.99 9.21
5/28/2022 9:15:00 PM 14.59 58.262 0.05 7.13 0.91 9.28
5/28/2022 9:30:00 PM 14.49 58.082 0.05 7.13 0.9 9.27
5/28/2022 9:45:00 PM 14.4 57.92 0.051 7.1 1.58 9.26
5/28/2022 10:00:00 PM 14.29 57.722 0.051 7.1 1.03 9.29
5/28/2022 10:15:00 PM 14.2 57.56 0.051 7.09 0.98 9.28
5/28/2022 10:30:00 PM 14.11 57.398 0.051 7.09 1.05 9.3
5/28/2022 10:45:00 PM 14.02 57.236 0.051 7.08 0.86 9.32
5/28/2022 11:00:00 PM 13.95 57.11 0.051 7.07 0.93 9.33
5/28/2022 11:15:00 PM 13.85 56.93 0.051 7.08 0.87 9.37
5/28/2022 11:30:00 PM 13.76 56.768 0.051 7.07 1.02 9.39
5/28/2022 11:45:00 PM 13.71 56.678 0.051 7.07 1.02 9.4
5/29/2022 12:00:00 AM 13.64 56.552 0.051 7.07 0.93 9.42
5/29/2022 12:15:00 AM 13.55 56.39 0.051 7.06 1.03 9.43
5/29/2022 12:30:00 AM 13.49 56.282 0.051 7.06 0.98 9.45
5/29/2022 12:45:00 AM 13.44 56.192 0.051 7.07 0.91 9.47
5/29/2022 1:00:00 AM 13.4 56.12 0.051 7.08 1.01 9.47
5/29/2022 1:15:00 AM 13.36 56.048 0.051 7.08 1.04 9.51
5/29/2022 1:30:00 AM 13.32 55.976 0.051 7.08 0.92 9.49
5/29/2022 1:45:00 AM 13.28 55.904 0.051 7.07 1.03 9.52
5/29/2022 2:00:00 AM 13.23 55.814 0.052 7.07 1.3 9.5
5/29/2022 2:15:00 AM 13.19 55.742 0.051 7.08 1.64 9.54
5/29/2022 2:30:00 AM 13.14 55.652 0.051 7.07 1.05 9.52
5/29/2022 2:45:00 AM 13.1 55.58 0.052 7.08 1 9.54
5/29/2022 3:00:00 AM 13.05 55.49 0.051 7.07 1.07 9.57
5/29/2022 3:15:00 AM 13.01 55.418 0.052 7.07 1.04 9.57
5/29/2022 3:30:00 AM 12.96 55.328 0.052 7.08 1.05 9.6
5/29/2022 3:45:00 AM 12.91 55.238 0.051 7.08 1.16 9.61
5/29/2022 4:00:00 AM 12.85 55.13 0.052 7.07 1.26 9.62
5/29/2022 4:15:00 AM 12.81 55.058 0.051 7.08 1.03 9.63
5/29/2022 4:30:00 AM 12.75 54.95 0.051 7.07 1.16 9.64
5/29/2022 4:45:00 AM 12.7 54.86 0.051 7.07 1.11 9.65
5/29/2022 5:00:00 AM 12.65 54.77 0.051 7.07 1.16 9.67
5/29/2022 5:15:00 AM 12.6 54.68 0.051 7.08 1.03 9.68
5/29/2022 5:30:00 AM 12.56 54.608 0.051 7.07 1.45 9.7
5/29/2022 5:45:00 AM 12.51 54.518 0.051 7.06 1.22 9.67
5/29/2022 6:00:00 AM 12.45 54.41 0.051 7.05 1.35 9.69
5/29/2022 6:15:00 AM 12.4 54.32 0.05 7.08 1.02 9.72
5/29/2022 6:30:00 AM 12.36 54.248 0.05 7.07 0.83 9.8
5/29/2022 6:45:00 AM 12.33 54.194 0.05 7.1 0.79 9.87
5/29/2022 7:00:00 AM 12.3 54.14 0.05 7.1 0.93 9.91
5/29/2022 7:15:00 AM 12.27 54.086 0.05 7.11 0.85 9.95
5/29/2022 7:30:00 AM 12.24 54.032 0.051 7.13 0.92 10.01
5/29/2022 7:45:00 AM 12.22 53.996 0.052 7.13 0.83 10.03
5/29/2022 8:00:00 AM 12.23 54.014 0.049 7.15 0.71 10.1
5/29/2022 8:15:00 AM 12.23 54.014 0.049 7.14 0.96 10.1
5/29/2022 8:30:00 AM 12.24 54.032 0.049 7.15 0.79 10.13
5/29/2022 8:45:00 AM 12.27 54.086 0.049 7.17 0.76 10.17
5/29/2022 9:00:00 AM 12.31 54.158 0.049 7.18 0.8 10.2
5/29/2022 9:15:00 AM 12.37 54.266 0.049 7.17 0.74 10.18
5/29/2022 9:30:00 AM 12.43 54.374 0.049 7.2 0.93 10.22
5/29/2022 9:45:00 AM 12.53 54.554 0.049 7.2 0.74 10.22
5/29/2022 10:00:00 AM 12.66 54.788 0.049 7.21 0.78 10.23
5/29/2022 10:15:00 AM 12.78 55.004 0.049 7.22 0.71 10.22
5/29/2022 10:30:00 AM 12.94 55.292 0.049 7.23 0.68 10.18
5/29/2022 10:45:00 AM 13.17 55.706 0.049 7.24 0.79 10.12
5/29/2022 11:00:00 AM 13.46 56.228 0.049 7.23 0.78 10.08
5/29/2022 11:15:00 AM 13.65 56.57 0.049 7.25 0.76 10.02
5/29/2022 11:30:00 AM 13.84 56.912 0.049 7.24 0.8 10
5/29/2022 11:45:00 AM 14.14 57.452 0.049 7.25 0.7 9.93
5/29/2022 12:00:00 PM 14.44 57.992 0.049 7.27 0.78 9.91
5/29/2022 12:15:00 PM 14.75 58.55 0.049 7.26 0.76 9.84
5/29/2022 12:30:00 PM 15.19 59.342 0.049 7.25 0.91 9.76
5/29/2022 12:45:00 PM 15.52 59.936 0.049 7.26 0.91 9.67
5/29/2022 1:00:00 PM 15.84 60.512 0.049 7.27 0.78 9.67
5/29/2022 1:15:00 PM 16.16 61.088 0.049 7.29 1.75 9.65
5/29/2022 1:30:00 PM 16.46 61.628 0.049 7.28 1.03 9.58
5/29/2022 1:45:00 PM 16.76 62.168 0.049 7.28 0.91 9.55
5/29/2022 2:00:00 PM 17.01 62.618 0.049 7.28 0.91 9.46
5/29/2022 2:15:00 PM 17.21 62.978 0.049 7.29 0.9 9.43
5/29/2022 2:30:00 PM 17.43 63.374 0.049 7.3 0.86 9.38
5/29/2022 2:45:00 PM 17.65 63.77 0.049 7.3 1.06 9.34
5/29/2022 3:00:00 PM 17.82 64.076 0.049 7.32 0.8 9.33
5/29/2022 3:15:00 PM 17.83 64.094 0.049 7.3 0.96 9.23
5/29/2022 3:30:00 PM 17.92 64.256 0.049 7.29 0.84 9.22
5/29/2022 3:45:00 PM 18.1 64.58 0.049 7.3 0.83 9.2
5/29/2022 4:00:00 PM 18.28 64.904 0.049 7.33 0.79 9.18
5/29/2022 4:15:00 PM 18.24 64.832 0.049 7.32 0.89 9.15
5/29/2022 4:30:00 PM 18.31 64.958 0.049 7.31 0.95 9.15
5/29/2022 4:45:00 PM 18.33 64.994 0.049 7.3 1.01 9.06
5/29/2022 5:00:00 PM 18.28 64.904 0.049 7.27 1.04 8.99
5/29/2022 5:15:00 PM 18.17 64.706 0.049 7.28 1.3 9.01
5/29/2022 5:30:00 PM 17.98 64.364 0.049 7.28 0.94 8.99
5/29/2022 5:45:00 PM 17.83 64.094 0.049 7.26 0.98 8.96
5/29/2022 6:00:00 PM 17.69 63.842 0.049 7.23 0.99 8.91
5/29/2022 6:15:00 PM 17.56 63.608 0.049 7.23 0.99 8.93
5/29/2022 6:30:00 PM 17.4 63.32 0.049 7.21 1.01 8.9
5/29/2022 6:45:00 PM 17.26 63.068 0.05 7.2 0.91 8.93
5/29/2022 7:00:00 PM 17.17 62.906 0.05 7.19 1.05 8.91
5/29/2022 7:15:00 PM 17.05 62.69 0.05 7.2 0.96 8.97
5/29/2022 7:30:00 PM 16.92 62.456 0.05 7.16 0.93 8.93
5/29/2022 7:45:00 PM 16.79 62.222 0.05 7.16 0.94 8.91
5/29/2022 8:00:00 PM 16.66 61.988 0.05 7.14 0.86 8.89
5/29/2022 8:15:00 PM 16.53 61.754 0.05 7.13 0.9 8.89
5/29/2022 8:30:00 PM 16.42 61.556 0.05 7.12 0.92 8.84
5/29/2022 8:45:00 PM 16.31 61.358 0.05 7.12 0.94 8.91
5/29/2022 9:00:00 PM 16.2 61.16 0.05 7.1 1.07 8.87
5/29/2022 9:15:00 PM 16.09 60.962 0.05 7.1 1 8.89
5/29/2022 9:30:00 PM 15.99 60.782 0.05 7.08 1.04 8.91
5/29/2022 9:45:00 PM 15.88 60.584 0.05 7.09 1.09 8.92
5/29/2022 10:00:00 PM 15.76 60.368 0.05 7.08 1.08 8.94
5/29/2022 10:15:00 PM 15.66 60.188 0.051 7.08 1.1 8.95
5/29/2022 10:30:00 PM 15.54 59.972 0.051 7.07 1.22 8.97
5/29/2022 10:45:00 PM 15.43 59.774 0.051 7.08 1.1 9.02
5/29/2022 11:00:00 PM 15.33 59.594 0.051 7.08 1.29 9.02
5/29/2022 11:15:00 PM 15.21 59.378 0.051 7.07 1.26 9.05
5/29/2022 11:30:00 PM 15.12 59.216 0.051 7.07 1.04 9.06
5/29/2022 11:45:00 PM 15.01 59.018 0.051 7.07 1.27 9.1
5/30/2022 12:00:00 AM 14.92 58.856 0.051 7.08 1.07 9.12
5/30/2022 12:15:00 AM 14.83 58.694 0.051 7.07 1.02 9.13
5/30/2022 12:30:00 AM 14.73 58.514 0.051 7.07 1.06 9.17
5/30/2022 12:45:00 AM 14.65 58.37 0.051 7.06 1.07 9.17
5/30/2022 1:00:00 AM 14.56 58.208 0.051 7.06 1.27 9.2
5/30/2022 1:15:00 AM 14.48 58.064 0.054 7.06 1.22 9.22
5/30/2022 1:30:00 AM 14.41 57.938 0.054 7.05 1.25 9.23
5/30/2022 1:45:00 AM 14.32 57.776 0.052 7.06 1.18 9.23
5/30/2022 2:00:00 AM 14.26 57.668 0.052 7.06 1.08 9.28
5/30/2022 2:15:00 AM 14.18 57.524 0.052 7.06 1.29 9.28
5/30/2022 2:30:00 AM 14.1 57.38 0.052 7.06 1.15 9.29
5/30/2022 2:45:00 AM 14.03 57.254 0.052 7.06 1.32 9.33
5/30/2022 3:00:00 AM 13.96 57.128 0.052 7.05 1.21 9.32
5/30/2022 3:15:00 AM 13.9 57.02 0.052 7.05 1.02 9.35
5/30/2022 3:30:00 AM 13.82 56.876 0.052 7.07 1.2 9.39
5/30/2022 3:45:00 AM 13.75 56.75 0.052 7.07 1.14 9.41
5/30/2022 4:00:00 AM 13.69 56.642 0.052 7.04 1.22 9.4
5/30/2022 4:15:00 AM 13.62 56.516 0.052 7.06 1.12 9.43
5/30/2022 4:30:00 AM 13.55 56.39 0.052 7.06 1.17 9.45
5/30/2022 4:45:00 AM 13.49 56.282 0.052 7.05 2.32 9.46
5/30/2022 5:00:00 AM 13.43 56.174 0.052 7.05 1.39 9.48
5/30/2022 5:15:00 AM 13.36 56.048 0.052 7.04 1.46 9.44
5/30/2022 5:30:00 AM 13.3 55.94 0.052 7.04 2.64 9.44
5/30/2022 5:45:00 AM 13.24 55.832 0.052 7.05 1.88 9.49
5/30/2022 6:00:00 AM 13.18 55.724 0.052 7.04 1.48 9.51
5/30/2022 6:15:00 AM 13.11 55.598 0.052 7.04 1.5 9.52
5/30/2022 6:30:00 AM 13.06 55.508 0.052 7.03 1.76 9.53
5/30/2022 6:45:00 AM 13.01 55.418 0.052 7.05 2.08 9.66
5/30/2022 7:00:00 AM 12.98 55.364 0.052 7.05 1.31 9.55
5/30/2022 7:15:00 AM 12.94 55.292 0.052 7.07 1.69 9.66
5/30/2022 7:30:00 AM 12.92 55.256 0.052 7.06 1.35 9.74
5/30/2022 7:45:00 AM 12.92 55.256 0.052 7.08 1.47 9.78
5/30/2022 8:00:00 AM 12.92 55.256 0.052 7.08 1.28 9.8
5/30/2022 8:15:00 AM 12.94 55.292 0.052 7.11 3.02 9.88
5/30/2022 8:30:00 AM 13.01 55.418 0.052 7.11 1.18 9.91
5/30/2022 8:45:00 AM 13.1 55.58 0.051 7.13 3.28 9.96
5/30/2022 9:00:00 AM 13.16 55.688 0.051 7.14 1.22 9.95
5/30/2022 9:15:00 AM 13.25 55.85 0.051 7.14 1.1 10
5/30/2022 9:30:00 AM 13.38 56.084 0.051 7.16 1.1 9.98
5/30/2022 9:45:00 AM 13.6 56.48 0.051 7.17 1.14 9.96
5/30/2022 10:00:00 AM 13.81 56.858 0.051 7.18 1.05 9.94
5/30/2022 10:15:00 AM 13.94 57.092 0.051 7.2 1.11 9.95
5/30/2022 10:30:00 AM 14.06 57.308 0.051 7.19 1.65 9.82
5/30/2022 10:45:00 AM 14.25 57.65 0.051 7.21 1.18 9.86
5/30/2022 11:00:00 AM 14.53 58.154 0.051 7.2 1.33 9.77
5/30/2022 11:15:00 AM 14.9 58.82 0.051 7.23 1.18 9.77
5/30/2022 11:30:00 AM 15.16 59.288 0.051 7.2 1.11 9.69
5/30/2022 11:45:00 AM 15.46 59.828 0.051 7.22 1.04 9.59
5/30/2022 12:00:00 PM 15.82 60.476 0.051 7.22 1.01 9.55
5/30/2022 12:15:00 PM 16.2 61.16 0.051 7.22 1.01 9.53
5/30/2022 12:30:00 PM 16.65 61.97 0.051 7.26 1.89 9.49
5/30/2022 12:45:00 PM 16.97 62.546 0.051 7.24 1.09 9.41
5/30/2022 1:00:00 PM 17.36 63.248 0.051 7.29 1.06 9.39
5/30/2022 1:15:00 PM 17.64 63.752 0.051 7.28 0.96 9.28
5/30/2022 1:30:00 PM 17.98 64.364 0.051 7.29 0.94 9.25
5/30/2022 1:45:00 PM 18.26 64.868 0.051 7.28 1.12 9.23
5/30/2022 2:00:00 PM 18.51 65.318 0.051 7.3 1.48 9.23
5/30/2022 2:15:00 PM 18.78 65.804 0.05 7.29 1.11 9.15
5/30/2022 2:30:00 PM 19.01 66.218 0.051 7.27 1.15 9.06
5/30/2022 2:45:00 PM 19.22 66.596 0.051 7.3 1.24 9.05
5/30/2022 3:00:00 PM 19.42 66.956 0.051 7.29 1.39 8.95
5/30/2022 3:15:00 PM 19.64 67.352 0.05 7.29 1.12 8.93
5/30/2022 3:30:00 PM 19.71 67.478 0.051 7.29 1.15 8.9
5/30/2022 3:45:00 PM 19.85 67.73 0.051 7.28 1.14 8.89
5/30/2022 4:00:00 PM 19.96 67.92799 0.051 7.3 1.08 8.83
5/30/2022 4:15:00 PM 20.04 68.07201 0.051 7.3 1.07 8.78
5/30/2022 4:30:00 PM 20.11 68.198 0.051 7.3 1.14 8.76
5/30/2022 4:45:00 PM 20.17 68.306 0.051 7.31 0.96 8.74
5/30/2022 5:00:00 PM 20.16 68.288 0.051 7.27 1.2 8.71
5/30/2022 5:15:00 PM 20.08 68.144 0.051 7.29 1.09 8.66
5/30/2022 5:30:00 PM 19.96 67.92799 0.051 7.26 1.07 8.57
5/30/2022 5:45:00 PM 19.82 67.676 0.051 7.27 0.69 8.59
5/30/2022 6:00:00 PM 19.71 67.478 0.051 7.24 1.01 8.54
5/30/2022 6:15:00 PM 19.6 67.28 0.051 7.22 1.05 8.52
5/30/2022 6:30:00 PM 19.44 66.992 0.051 7.21 0.81 8.49
5/30/2022 6:45:00 PM 19.27 66.686 0.051 7.19 0.82 8.53
5/30/2022 7:00:00 PM 19.16 66.488 0.051 7.18 0.85 8.47
5/30/2022 7:15:00 PM 19.02 66.236 0.051 7.16 0.84 8.49
5/30/2022 7:30:00 PM 18.85 65.93 0.051 7.17 0.73 8.55
5/30/2022 7:45:00 PM 18.71 65.67799 0.052 7.14 0.82 8.51
5/30/2022 8:00:00 PM 18.57 65.426 0.052 7.11 0.9 8.46
5/30/2022 8:15:00 PM 18.43 65.174 0.052 7.09 0.75 8.44
5/30/2022 8:30:00 PM 18.3 64.94 0.052 7.08 0.81 8.44
5/30/2022 8:45:00 PM 18.16 64.688 0.052 7.1 0.88 8.48
5/30/2022 9:00:00 PM 18.03 64.454 0.052 7.09 0.74 8.48
5/30/2022 9:15:00 PM 17.91 64.238 0.052 7.06 0.96 8.5
5/30/2022 9:30:00 PM 17.79 64.022 0.052 7.06 0.95 8.46
5/30/2022 9:45:00 PM 17.68 63.824 0.052 7.05 0.97 8.5
5/30/2022 10:00:00 PM 17.56 63.608 0.052 7.05 1.1 8.55
5/30/2022 10:15:00 PM 17.46 63.428 0.052 7.05 0.93 8.56
5/30/2022 10:30:00 PM 17.35 63.23 0.052 7.03 0.99 8.54
5/30/2022 10:45:00 PM 17.23 63.014 0.053 7.04 1.03 8.57
5/30/2022 11:00:00 PM 17.12 62.816 0.053 7.04 1.06 8.63
5/30/2022 11:15:00 PM 17.01 62.618 0.053 7.05 0.97 8.63
5/30/2022 11:30:00 PM 16.91 62.438 0.053 7.04 0.98 8.66
5/30/2022 11:45:00 PM 16.81 62.258 0.053 7.05 0.9 8.68
5/31/2022 12:00:00 AM 16.69 62.042 0.053 7.04 0.93 8.69
5/31/2022 12:15:00 AM 16.6 61.88 0.053 7.04 0.98 8.73
5/31/2022 12:30:00 AM 16.5 61.7 0.053 7.03 0.97 8.74
5/31/2022 12:45:00 AM 16.4 61.52 0.053 7.04 0.94 8.75
5/31/2022 1:00:00 AM 16.3 61.34 0.053 7.04 1.01 8.77
5/31/2022 1:15:00 AM 16.21 61.178 0.053 7.03 1.01 8.8
5/31/2022 1:30:00 AM 16.11 60.998 0.053 7.04 1 8.82
5/31/2022 1:45:00 AM 16.02 60.836 0.053 7.04 1.19 8.83
5/31/2022 2:00:00 AM 15.93 60.674 0.053 7.04 0.98 8.86
5/31/2022 2:15:00 AM 15.84 60.512 0.052 7.04 1.03 8.89
5/31/2022 2:30:00 AM 15.76 60.368 0.054 7.02 1.78 8.9
5/31/2022 2:45:00 AM 15.66 60.188 0.053 7.03 1.08 8.91
5/31/2022 3:00:00 AM 15.58 60.044 0.053 7.03 1.14 8.91
5/31/2022 3:15:00 AM 15.49 59.882 0.053 7.03 1.2 8.94
5/31/2022 3:30:00 AM 15.41 59.738 0.053 7.03 1 8.98
5/31/2022 3:45:00 AM 15.33 59.594 0.053 7.03 1.01 8.99
5/31/2022 4:00:00 AM 15.26 59.468 0.052 7.03 1.2 8.99
5/31/2022 4:15:00 AM 15.18 59.324 0.052 7.02 1.44 9.02
5/31/2022 4:30:00 AM 15.1 59.18 0.054 7.03 1.09 9.01
5/31/2022 4:45:00 AM 15.03 59.054 0.057 7.03 0.99 9.02
5/31/2022 5:00:00 AM 14.95 58.91 0.057 7.03 1.06 9.09
5/31/2022 5:15:00 AM 14.87 58.766 0.055 7.01 1 9.09
5/31/2022 5:30:00 AM 14.8 58.64 0.055 7.03 1.31 9.13
5/31/2022 5:45:00 AM 14.73 58.514 0.055 7.02 1.44 9.11
5/31/2022 6:00:00 AM 14.67 58.406 0.055 7.01 1.77 9.07
5/31/2022 6:15:00 AM 14.61 58.298 0.055 7.02 1.34 9.19
5/31/2022 6:30:00 AM 14.56 58.208 0.055 7.02 1.2 9.2
5/31/2022 6:45:00 AM 14.5 58.1 0.055 7.03 1.39 9.24
5/31/2022 7:00:00 AM 14.47 58.046 0.055 7.02 3.18 9.26
5/31/2022 7:15:00 AM 14.43 57.974 0.055 7.04 1.04 9.3
5/31/2022 7:30:00 AM 14.39 57.902 0.055 7.05 1.75 9.37
5/31/2022 7:45:00 AM 14.37 57.866 0.054 7.06 1.2 9.42
5/31/2022 8:00:00 AM 14.37 57.866 0.054 7.08 1.03 9.48
5/31/2022 8:15:00 AM 14.38 57.884 0.055 7.04 1.97 9.33
5/31/2022 8:30:00 AM 14.4 57.92 0.055 7.07 2.18 9.44
5/31/2022 8:45:00 AM 14.44 57.992 0.054 7.08 1.31 9.47
5/31/2022 9:00:00 AM 14.49 58.082 0.054 7.09 1.2 9.51
5/31/2022 9:15:00 AM 14.58 58.244 0.054 7.09 1.03 9.5
5/31/2022 9:30:00 AM 14.72 58.496 0.054 7.13 2.14 9.53
5/31/2022 9:45:00 AM 14.91 58.838 0.054 7.13 1.06 9.52
5/31/2022 10:00:00 AM 15.11 59.198 0.054 7.13 1 9.57
5/31/2022 10:15:00 AM 15.26 59.468 0.053 7.16 1.13 9.5
5/31/2022 10:30:00 AM 15.45 59.81 0.053 7.17 0.97 9.46
5/31/2022 10:45:00 AM 15.71 60.278 0.053 7.17 1.08 9.42
5/31/2022 11:00:00 AM 16.01 60.818 0.053 7.18 1.56 9.38
5/31/2022 11:15:00 AM 16.29 61.322 0.053 7.2 1.2 9.34
5/31/2022 11:30:00 AM 16.6 61.88 0.053 7.22 1.07 9.36
5/31/2022 11:45:00 AM 16.71 62.078 0.053 7.21 1.04 9.27
5/31/2022 12:00:00 PM 16.89 62.402 0.053 7.21 1.09 9.23
5/31/2022 12:15:00 PM 17.07 62.726 0.054 7.2 1.25 9.17
5/31/2022 12:30:00 PM 17.46 63.428 0.054 7.17 1.26 9.05
5/31/2022 12:45:00 PM 17.55 63.59 0.054 7.24 1 9.11
5/31/2022 1:00:00 PM 17.7 63.86 0.054 7.26 1.16 9.17
5/31/2022 1:15:00 PM 17.71 63.878 0.054 7.23 3.32 9.14
5/31/2022 1:30:00 PM 18.17 64.706 0.054 7.29 1.19 9.24
5/31/2022 1:45:00 PM 18.38 65.084 0.054 7.27 1.1 9.08
5/31/2022 2:00:00 PM 18.52 65.336 0.054 7.31 0.9 9.17
5/31/2022 2:15:00 PM 18.95 66.11 0.054 7.3 0.75 9.1
5/31/2022 2:30:00 PM 19.16 66.488 0.054 7.31 0.87 9.06
5/31/2022 2:45:00 PM 19.25 66.65 0.054 7.34 0.76 9.04
5/31/2022 3:00:00 PM 19.28 66.704 0.054 7.31 0.81 8.92
5/31/2022 3:15:00 PM 19.28 66.704 0.055 7.25 1.16 8.8
5/31/2022 3:30:00 PM 19.49 67.082 0.055 7.28 0.88 8.74
5/31/2022 3:45:00 PM 19.88 67.784 0.056 7.3 0.78 8.78
5/31/2022 4:00:00 PM 20.07 68.126 0.057 7.31 0.88 8.78
5/31/2022 4:15:00 PM 20.23 68.414 0.057 7.29 0.76 8.7
5/31/2022 4:30:00 PM 20.33 68.594 0.057 7.32 0.83 8.71
5/31/2022 4:45:00 PM 20.37 68.666 0.057 7.3 0.84 8.65
5/31/2022 5:00:00 PM 20.39 68.702 0.056 7.3 1.03 8.67
5/31/2022 5:15:00 PM 20.36 68.648 0.057 7.3 2.27 8.62
5/31/2022 5:30:00 PM 20.18 68.324 0.057 7.3 0.77 8.58
5/31/2022 5:45:00 PM 20.1 68.18 0.057 7.22 1.83 8.45
5/31/2022 6:00:00 PM 20.02 68.036 0.057 7.23 1.52 8.47
5/31/2022 6:15:00 PM 19.94 67.892 0.058 7.22 1.08 8.43
5/31/2022 6:30:00 PM 19.84 67.712 0.057 7.21 0.93 8.42
5/31/2022 6:45:00 PM 19.73 67.514 0.057 7.21 0.81 8.41
5/31/2022 7:00:00 PM 19.62 67.316 0.057 7.19 0.94 8.38
5/31/2022 7:15:00 PM 19.52 67.136 0.057 7.15 0.94 8.28
5/31/2022 7:30:00 PM 19.41 66.938 0.057 7.17 1.5 8.38
5/31/2022 7:45:00 PM 19.31 66.758 0.057 7.14 0.94 8.27
5/31/2022 8:00:00 PM 19.2 66.56 0.055 7.13 1.01 8.34
5/31/2022 8:15:00 PM 19.06 66.308 0.055 7.1 0.91 8.26
5/31/2022 8:30:00 PM 18.92 66.056 0.055 7.1 1.01 8.31
5/31/2022 8:45:00 PM 18.8 65.84 0.054 7.1 1.17 8.26
5/31/2022 9:00:00 PM 18.67 65.606 0.054 7.09 0.96 8.28
5/31/2022 9:15:00 PM 18.56 65.408 0.055 7.08 1.05 8.3
5/31/2022 9:30:00 PM 18.43 65.174 0.055 7.07 1.09 8.35
5/31/2022 9:45:00 PM 18.33 64.994 0.055 7.07 0.95 8.31
5/31/2022 10:00:00 PM 18.21 64.778 0.055 7.06 1.15 8.33
5/31/2022 10:15:00 PM 18.11 64.598 0.055 7.05 0.99 8.32
5/31/2022 10:30:00 PM 17.98 64.364 0.055 7.06 1.36 8.4
5/31/2022 10:45:00 PM 17.88 64.184 0.055 7.05 1.01 8.37
5/31/2022 11:00:00 PM 17.78 64.004 0.055 7.05 1.03 8.39
5/31/2022 11:15:00 PM 17.66 63.788 0.055 7.05 1.11 8.45
5/31/2022 11:30:00 PM 17.57 63.626 0.056 7.04 1.01 8.45
5/31/2022 11:45:00 PM 17.45 63.41 0.055 7.04 0.92 8.48
6/1/2022 12:00:00 AM 17.36 63.248 0.055 7.05 1.09 8.49
6/1/2022 12:15:00 AM 17.27 63.086 0.056 7.04 1.32 8.5
6/1/2022 12:30:00 AM 17.16 62.888 0.056 7.04 1.28 8.59
6/1/2022 12:45:00 AM 17.09 62.762 0.056 7.04 1.1 8.55
6/1/2022 1:00:00 AM 16.99 62.582 0.056 7.03 1.34 8.59
6/1/2022 1:15:00 AM 16.9 62.42 0.056 7.04 1.34 8.61
6/1/2022 1:30:00 AM 16.81 62.258 0.056 7.05 1.1 8.65
6/1/2022 1:45:00 AM 16.73 62.114 0.056 7.05 1.08 8.64
6/1/2022 2:00:00 AM 16.64 61.952 0.056 7.05 1.2 8.7
6/1/2022 2:15:00 AM 16.58 61.844 0.056 7.05 1.19 8.68
6/1/2022 2:30:00 AM 16.5 61.7 0.056 7.04 1.31 8.7
6/1/2022 2:45:00 AM 16.44 61.592 0.056 7.04 1.23 8.7
6/1/2022 3:00:00 AM 16.36 61.448 0.056 7.04 1.21 8.72
6/1/2022 3:15:00 AM 16.28 61.304 0.056 7.04 1.44 8.73
6/1/2022 3:30:00 AM 16.21 61.178 0.056 7.03 1.22 8.74
6/1/2022 3:45:00 AM 16.14 61.052 0.056 7.04 1.26 8.77
6/1/2022 4:00:00 AM 16.07 60.926 0.056 7.04 1.49 8.77
6/1/2022 4:15:00 AM 15.99 60.782 0.056 7.04 1.26 8.79
6/1/2022 4:30:00 AM 15.92 60.656 0.056 7.04 1.34 8.82
6/1/2022 4:45:00 AM 15.86 60.548 0.057 7.04 1.25 8.83
6/1/2022 5:00:00 AM 15.79 60.422 0.056 7.04 1.56 8.83
6/1/2022 5:15:00 AM 15.73 60.314 0.055 7.04 1.22 8.86
6/1/2022 5:30:00 AM 15.66 60.188 0.056 7.03 1.99 8.85
6/1/2022 5:45:00 AM 15.59 60.062 0.056 7.02 5.08 8.81
6/1/2022 6:00:00 AM 15.53 59.954 0.056 7.03 1.42 8.78
6/1/2022 6:15:00 AM 15.48 59.864 0.056 7.03 1.54 8.87
6/1/2022 6:30:00 AM 15.44 59.792 0.056 7.02 1.93 8.92
6/1/2022 6:45:00 AM 15.39 59.702 0.056 7.03 1.29 8.96
6/1/2022 7:00:00 AM 15.34 59.612 0.056 7.03 1.35 8.97
6/1/2022 7:15:00 AM 15.31 59.558 0.056 7.05 2.86 9.09
6/1/2022 7:30:00 AM 15.28 59.504 0.056 7.05 1.27 9.12
6/1/2022 7:45:00 AM 15.26 59.468 0.056 7.05 1.39 9.1
6/1/2022 8:00:00 AM 15.25 59.45 0.056 7.09 1.41 9.2
6/1/2022 8:15:00 AM 15.26 59.468 0.056 7.09 1.55 9.18
6/1/2022 8:30:00 AM 15.28 59.504 0.056 7.07 1.18 9.15
6/1/2022 8:45:00 AM 15.32 59.576 0.056 7.11 1.03 9.24
6/1/2022 9:00:00 AM 15.38 59.684 0.056 7.1 1.59 9.18
6/1/2022 9:15:00 AM 15.47 59.846 0.056 7.12 1.05 9.26
6/1/2022 9:30:00 AM 15.59 60.062 0.056 7.15 1.23 9.31
6/1/2022 9:45:00 AM 15.77 60.386 0.056 7.13 1.38 9.28
6/1/2022 10:00:00 AM 15.97 60.746 0.056 7.15 1.4 9.25
6/1/2022 10:15:00 AM 16.14 61.052 0.056 7.17 1.26 9.29
6/1/2022 10:30:00 AM 16.3 61.34 0.056 7.18 1.76 9.18
6/1/2022 10:45:00 AM 16.56 61.808 0.056 7.21 1.64 9.25
6/1/2022 11:00:00 AM 16.83 62.294 0.056 7.23 1.18 9.26
6/1/2022 11:15:00 AM 17.09 62.762 0.056 7.22 1.23 9.19
6/1/2022 11:30:00 AM 17.4 63.32 0.055 7.24 2.2 9.13
6/1/2022 11:45:00 AM 17.68 63.824 0.056 7.21 1.5 9.01
6/1/2022 12:00:00 PM 18.02 64.436 0.056 7.27 1.05 9.16
6/1/2022 12:15:00 PM 18.34 65.012 0.056 7.27 3.33 9.07
6/1/2022 12:30:00 PM 18.6 65.48 0.056 7.29 1.11 9
6/1/2022 12:45:00 PM 18.8 65.84 0.056 7.27 1.56 8.98
6/1/2022 1:00:00 PM 18.96 66.128 0.056 7.3 1.35 8.96
6/1/2022 1:15:00 PM 19.08 66.344 0.055 7.33 1.29 8.93
6/1/2022 1:30:00 PM 19.21 66.578 0.056 7.3 1.1 8.9
6/1/2022 1:45:00 PM 19.56 67.208 0.056 7.33 1.28 8.93
6/1/2022 2:00:00 PM 19.84 67.712 0.055 7.33 1.08 8.93
6/1/2022 2:15:00 PM 19.93 67.874 0.056 7.33 1.3 8.84
6/1/2022 2:30:00 PM 20.02 68.036 0.055 7.31 1.78 8.8
6/1/2022 2:45:00 PM 19.9 67.82 0.056 7.3 0.99 8.69
6/1/2022 3:00:00 PM 19.94 67.892 0.056 7.29 1.23 8.71
6/1/2022 3:15:00 PM 20.14 68.252 0.056 7.33 1.1 8.73
6/1/2022 3:30:00 PM 20.26 68.468 0.055 7.3 1.15 8.63
6/1/2022 3:45:00 PM 20.29 68.522 0.056 7.29 1.25 8.58
6/1/2022 4:00:00 PM 20.39 68.702 0.056 7.31 1.83 8.64
6/1/2022 4:15:00 PM 20.43 68.774 0.056 7.32 0.74 8.61
6/1/2022 4:30:00 PM 20.33 68.594 0.056 7.34 0.72 8.56
6/1/2022 4:45:00 PM 20.25 68.45 0.056 7.3 1.17 8.5
6/1/2022 5:00:00 PM 20.25 68.45 0.056 7.25 1.16 8.44
6/1/2022 5:15:00 PM 20.16 68.288 0.057 7.25 1.24 8.38
6/1/2022 5:30:00 PM 20.06 68.108 0.057 7.24 1.27 8.36
6/1/2022 5:45:00 PM 19.98 67.964 0.056 7.2 1.55 8.28
6/1/2022 6:00:00 PM 19.92 67.856 0.056 7.22 1.89 8.43
6/1/2022 6:15:00 PM 19.82 67.676 0.056 7.22 1.31 8.34
6/1/2022 6:30:00 PM 19.71 67.478 0.056 7.21 1.44 8.4
6/1/2022 6:45:00 PM 19.6 67.28 0.056 7.19 1.74 8.29
6/1/2022 7:00:00 PM 19.49 67.082 0.057 7.15 1.18 8.24
6/1/2022 7:15:00 PM 19.37 66.866 0.057 7.13 1.74 8.27
6/1/2022 7:30:00 PM 19.26 66.668 0.056 7.14 1.81 8.33
6/1/2022 7:45:00 PM 19.12 66.416 0.056 7.13 2.32 8.3
6/1/2022 8:00:00 PM 18.94 66.092 0.056 7.11 2.14 8.24
6/1/2022 8:15:00 PM 18.79 65.82201 0.056 7.09 2.37 8.22
6/1/2022 8:30:00 PM 18.66 65.588 0.056 7.1 1.74 8.22
6/1/2022 8:45:00 PM 18.54 65.372 0.056 7.1 1.15 8.25
6/1/2022 9:00:00 PM 18.45 65.21 0.056 7.09 1.25 8.22
6/1/2022 9:15:00 PM 18.37 65.066 0.056 7.08 1.12 8.24
6/1/2022 9:30:00 PM 18.27 64.886 0.056 7.08 1.4 8.27
6/1/2022 9:45:00 PM 18.16 64.688 0.055 7.06 2.05 8.31
6/1/2022 10:00:00 PM 18 64.4 0.055 7.03 2.16 8.29
6/1/2022 10:15:00 PM 17.88 64.184 0.055 7.01 2.6 8.25
6/1/2022 10:30:00 PM 17.77 63.986 0.055 6.99 2.62 8.21
6/1/2022 10:45:00 PM 17.67 63.806 0.057 6.98 2.34 8.23
6/1/2022 11:00:00 PM 17.58 63.644 0.055 6.98 2.16 8.25
6/1/2022 11:15:00 PM 17.5 63.5 0.055 6.99 1.88 8.28
6/1/2022 11:30:00 PM 17.44 63.392 0.055 6.99 1.89 8.31
6/1/2022 11:45:00 PM 17.36 63.248 0.055 7 1.69 8.32
6/2/2022 12:00:00 AM 17.29 63.122 0.055 7.01 1.63 8.38
6/2/2022 12:15:00 AM 17.22 62.996 0.055 7 1.5 8.36
6/2/2022 12:30:00 AM 17.14 62.852 0.055 7 1.56 8.37
6/2/2022 12:45:00 AM 17.08 62.744 0.055 6.99 1.2 8.37
6/2/2022 1:00:00 AM 17.02 62.636 0.055 6.99 1.54 8.38
6/2/2022 1:15:00 AM 16.96 62.528 0.055 6.98 1.51 8.4
6/2/2022 1:30:00 AM 16.91 62.438 0.055 6.99 1.67 8.42
6/2/2022 1:45:00 AM 16.86 62.348 0.055 7 1.82 8.44
6/2/2022 2:00:00 AM 16.83 62.294 0.055 7.01 1.51 8.46
6/2/2022 2:15:00 AM 16.78 62.204 0.055 7.01 1.66 8.56
6/2/2022 2:30:00 AM 16.76 62.168 0.055 7.01 1.75 8.49
6/2/2022 2:45:00 AM 16.72 62.096 0.055 7.01 1.56 8.52
6/2/2022 3:00:00 AM 16.68 62.024 0.055 7.03 3.06 8.54
6/2/2022 3:15:00 AM 16.65 61.97 0.055 7.01 1.77 8.57
6/2/2022 3:30:00 AM 16.62 61.916 0.055 7.02 1.86 8.58
6/2/2022 3:45:00 AM 16.6 61.88 0.055 7.03 1.56 8.62
6/2/2022 4:00:00 AM 16.57 61.826 0.055 7.03 1.46 8.6
6/2/2022 4:15:00 AM 16.53 61.754 0.055 7.02 1.59 8.63
6/2/2022 4:30:00 AM 16.51 61.718 0.055 7.04 1.73 8.62
6/2/2022 4:45:00 AM 16.47 61.646 0.055 7.04 1.59 8.66
6/2/2022 5:00:00 AM 16.44 61.592 0.055 7.05 1.51 8.66
6/2/2022 5:15:00 AM 16.4 61.52 0.055 7.03 1.64 8.65
6/2/2022 5:30:00 AM 16.37 61.466 0.055 7.04 1.79 8.69
6/2/2022 5:45:00 AM 16.34 61.412 0.055 7.02 2.28 8.7
6/2/2022 6:00:00 AM 16.31 61.358 0.055 7.02 3.41 8.67
6/2/2022 6:15:00 AM 16.27 61.286 0.055 7.02 1.67 8.69
6/2/2022 6:30:00 AM 16.24 61.232 0.055 7 1.92 8.72
6/2/2022 6:45:00 AM 16.21 61.178 0.055 7.02 1.03 8.78
6/2/2022 7:00:00 AM 16.19 61.142 0.055 7.02 2.34 8.8
6/2/2022 7:15:00 AM 16.17 61.106 0.056 7.05 1.83 8.87
6/2/2022 7:30:00 AM 16.15 61.07 0.056 7.06 1.35 8.91
6/2/2022 7:45:00 AM 16.14 61.052 0.056 7.06 1.75 8.93
6/2/2022 8:00:00 AM 16.14 61.052 0.056 7.08 1.23 8.98
6/2/2022 8:15:00 AM 16.15 61.07 0.056 7.08 1.2 9.01
6/2/2022 8:30:00 AM 16.15 61.07 0.056 7.11 1.46 9.05
6/2/2022 8:45:00 AM 16.19 61.142 0.056 7.13 1.45 9.11
6/2/2022 9:00:00 AM 16.22 61.196 0.056 7.13 1.14 9.05
6/2/2022 9:15:00 AM 16.21 61.178 0.056 7.15 1.12 9.12
6/2/2022 9:30:00 AM 16.22 61.196 0.056 7.16 1.14 9.15
6/2/2022 9:45:00 AM 16.24 61.232 0.056 7.15 1.29 9.13
6/2/2022 10:00:00 AM 16.29 61.322 0.056 7.18 1.4 9.21
6/2/2022 10:15:00 AM 16.33 61.394 0.056 7.19 11.76 9.22
6/2/2022 10:30:00 AM 16.36 61.448 0.056 7.18 1.17 9.18
6/2/2022 10:45:00 AM 16.43 61.574 0.056 7.21 1.1 9.2
6/2/2022 11:00:00 AM 16.52 61.736 0.056 7.23 1.59 9.26
6/2/2022 11:15:00 AM 16.62 61.916 0.056 7.24 1.08 9.29
6/2/2022 11:30:00 AM 16.72 62.096 0.056 7.27 0.97 9.29
6/2/2022 11:45:00 AM 16.74 62.132 0.056 7.28 1.41 9.25
6/2/2022 12:00:00 PM 16.75 62.15 0.056 7.27 0.99 9.22
6/2/2022 12:15:00 PM 16.8 62.24 0.056 7.26 0.97 9.19
6/2/2022 12:30:00 PM 16.82 62.276 0.056 7.25 0.96 9.11
6/2/2022 12:45:00 PM 16.84 62.312 0.056 7.22 1.52 9
6/2/2022 1:00:00 PM 16.87 62.366 0.056 7.22 0.94 9.01
6/2/2022 1:15:00 PM 16.88 62.384 0.056 7.23 1.02 9.01
6/2/2022 1:30:00 PM 16.86 62.348 0.056 7.21 0.89 8.97
6/2/2022 1:45:00 PM 16.84 62.312 0.056 7.2 1.17 8.99
6/2/2022 2:00:00 PM 16.89 62.402 0.056 7.23 0.97 9.07
6/2/2022 2:15:00 PM 16.96 62.528 0.056 7.24 1.04 9.11
6/2/2022 2:30:00 PM 16.99 62.582 0.056 7.25 2.92 9.15
6/2/2022 2:45:00 PM 17.17 62.906 0.056 7.27 0.99 9.22
6/2/2022 3:00:00 PM 17.48 63.464 0.056 7.3 0.9 9.22
6/2/2022 3:15:00 PM 17.6 63.68 0.056 7.3 1.05 9.2
6/2/2022 3:30:00 PM 17.6 63.68 0.056 7.31 1.11 9.21
6/2/2022 3:45:00 PM 17.69 63.842 0.056 7.32 1.62 9.11
6/2/2022 4:00:00 PM 17.9 64.22 0.056 7.31 0.98 9.08
6/2/2022 4:15:00 PM 18.03 64.454 0.056 7.33 1.09 9.08
6/2/2022 4:30:00 PM 18.14 64.652 0.056 7.32 1.05 9.01
6/2/2022 4:45:00 PM 18.23 64.814 0.056 7.31 0.94 9
6/2/2022 5:00:00 PM 18.32 64.976 0.056 7.33 1.3 8.95
6/2/2022 5:15:00 PM 18.4 65.12 0.056 7.31 1.42 8.91
6/2/2022 5:30:00 PM 18.44 65.192 0.056 7.3 1.13 8.86
6/2/2022 5:45:00 PM 18.41 65.138 0.056 7.29 1.12 8.79
6/2/2022 6:00:00 PM 18.37 65.066 0.056 7.28 1.28 8.8
6/2/2022 6:15:00 PM 18.29 64.922 0.056 7.27 1.92 8.78
6/2/2022 6:30:00 PM 18.21 64.778 0.055 7.27 1.63 8.81
6/2/2022 6:45:00 PM 18.14 64.652 0.055 7.24 1.38 8.75
6/2/2022 7:00:00 PM 18.1 64.58 0.055 7.23 1.37 8.71
6/2/2022 7:15:00 PM 18.02 64.436 0.055 7.22 1.47 8.69
6/2/2022 7:30:00 PM 17.95 64.31 0.055 7.2 1.17 8.62
6/2/2022 7:45:00 PM 17.87 64.166 0.055 7.2 1.21 8.62
6/2/2022 8:00:00 PM 17.76 63.968 0.055 7.17 1.15 8.63
6/2/2022 8:15:00 PM 17.67 63.806 0.056 7.15 0.94 8.55
6/2/2022 8:30:00 PM 17.57 63.626 0.056 7.14 0.86 8.55
6/2/2022 8:45:00 PM 17.48 63.464 0.056 7.12 0.78 8.46
6/2/2022 9:00:00 PM 17.35 63.23 0.056 7.15 0.83 8.54
6/2/2022 9:15:00 PM 17.26 63.068 0.055 7.13 0.82 8.53
6/2/2022 9:30:00 PM 17.15 62.87 0.055 7.14 1.03 8.55
6/2/2022 9:45:00 PM 17.05 62.69 0.055 7.14 1.25 8.55
6/2/2022 10:00:00 PM 16.95 62.51 0.056 7.13 1.18 8.54
6/2/2022 10:15:00 PM 16.82 62.276 0.056 7.12 1.09 8.57
6/2/2022 10:30:00 PM 16.71 62.078 0.056 7.11 1.28 8.58
6/2/2022 10:45:00 PM 16.61 61.898 0.056 7.11 1.3 8.59
6/2/2022 11:00:00 PM 16.51 61.718 0.056 7.1 1.11 8.62
6/2/2022 11:15:00 PM 16.43 61.574 0.056 7.1 1.14 8.64
6/2/2022 11:30:00 PM 16.35 61.43 0.055 7.1 1.22 8.65
6/2/2022 11:45:00 PM 16.26 61.268 0.055 7.1 1.1 8.69
6/3/2022 12:00:00 AM 16.2 61.16 0.055 7.11 1.32 8.73
6/3/2022 12:15:00 AM 16.13 61.034 0.056 7.1 1.17 8.72
6/3/2022 12:30:00 AM 16.07 60.926 0.056 7.1 1.1 8.75
6/3/2022 12:45:00 AM 16.01 60.818 0.056 7.1 0.94 8.74
6/3/2022 1:00:00 AM 15.93 60.674 0.056 7.1 1.08 8.77
6/3/2022 1:15:00 AM 15.87 60.566 0.056 7.1 1.05 8.79
6/3/2022 1:30:00 AM 15.8 60.44 0.055 7.09 0.92 8.8
6/3/2022 1:45:00 AM 15.73 60.314 0.056 7.09 1.11 8.81
6/3/2022 2:00:00 AM 15.66 60.188 0.056 7.09 4.31 8.83
6/3/2022 2:15:00 AM 15.58 60.044 0.055 7.09 1.52 8.83
6/3/2022 2:30:00 AM 15.51 59.918 0.056 7.09 1.46 8.84
6/3/2022 2:45:00 AM 15.42 59.756 0.056 7.1 1.34 8.86
6/3/2022 3:00:00 AM 15.32 59.576 0.056 7.1 1.03 8.92
6/3/2022 3:15:00 AM 15.24 59.432 0.056 7.1 1.05 8.91
6/3/2022 3:30:00 AM 15.13 59.234 0.056 7.1 1.23 8.93
6/3/2022 3:45:00 AM 15.05 59.09 0.057 7.1 1.1 8.95
6/3/2022 4:00:00 AM 14.95 58.91 0.057 7.09 1.22 8.98
6/3/2022 4:15:00 AM 14.84 58.712 0.057 7.09 1.14 9
6/3/2022 4:30:00 AM 14.75 58.55 0.057 7.08 1.63 8.97
6/3/2022 4:45:00 AM 14.64 58.352 0.057 7.08 1.51 9.01
6/3/2022 5:00:00 AM 14.52 58.136 0.056 7.09 1.12 9.09
6/3/2022 5:15:00 AM 14.42 57.956 0.056 7.08 0.97 9.06
6/3/2022 5:30:00 AM 14.3 57.74 0.056 7.07 3.67 9.09
6/3/2022 5:45:00 AM 14.23 57.614 0.056 7.07 1.89 9.09
6/3/2022 6:00:00 AM 14.19 57.542 0.057 7.08 1.32 9.13
6/3/2022 6:15:00 AM 14.14 57.452 0.056 7.09 1.27 9.18
6/3/2022 6:30:00 AM 14.1 57.38 0.057 7.09 1.04 9.19
6/3/2022 6:45:00 AM 14.06 57.308 0.056 7.09 0.94 9.23
6/3/2022 7:00:00 AM 14.02 57.236 0.056 7.11 1.3 9.29
6/3/2022 7:15:00 AM 13.96 57.128 0.056 7.11 1 9.32
6/3/2022 7:30:00 AM 13.91 57.038 0.056 7.15 0.82 9.47
6/3/2022 7:45:00 AM 13.85 56.93 0.056 7.13 1.09 9.41
6/3/2022 8:00:00 AM 13.82 56.876 0.056 7.15 1.55 9.46
6/3/2022 8:15:00 AM 13.79 56.822 0.057 7.15 1.23 9.47
6/3/2022 8:30:00 AM 13.77 56.786 0.056 7.15 0.96 9.47
6/3/2022 8:45:00 AM 13.76 56.768 0.056 7.14 0.98 9.48
6/3/2022 9:00:00 AM 13.78 56.804 0.056 7.15 0.97 9.52
6/3/2022 9:15:00 AM 13.83 56.894 0.056 7.16 1.26 9.55
6/3/2022 9:30:00 AM 13.91 57.038 0.056 7.17 1.15 9.54
6/3/2022 9:45:00 AM 14.02 57.236 0.056 7.19 0.82 9.6
6/3/2022 10:00:00 AM 14.22 57.596 0.056 7.18 0.88 9.62
6/3/2022 10:15:00 AM 14.28 57.704 0.056 7.19 0.96 9.56
6/3/2022 10:30:00 AM 14.42 57.956 0.056 7.2 0.82 9.59
6/3/2022 10:45:00 AM 14.61 58.298 0.056 7.2 0.88 9.46
6/3/2022 11:00:00 AM 14.83 58.694 0.056 7.2 0.96 9.47
6/3/2022 11:15:00 AM 15.07 59.126 0.056 7.21 0.72 9.44
6/3/2022 11:30:00 AM 15.31 59.558 0.056 7.22 0.89 9.41
6/3/2022 11:45:00 AM 15.59 60.062 0.056 7.23 0.91 9.39
6/3/2022 12:00:00 PM 15.85 60.53 0.055 7.23 0.89 9.35
6/3/2022 12:15:00 PM 16.18 61.124 0.055 7.23 0.86 9.3
6/3/2022 12:30:00 PM 16.55 61.79 0.055 7.24 1.07 9.27
6/3/2022 12:45:00 PM 16.88 62.384 0.055 7.27 0.82 9.33
6/3/2022 1:00:00 PM 17.22 62.996 0.055 7.28 0.86 9.25
6/3/2022 1:15:00 PM 17.48 63.464 0.055 7.29 0.91 9.2
6/3/2022 1:30:00 PM 17.68 63.824 0.055 7.28 0.75 9.16
6/3/2022 1:45:00 PM 17.82 64.076 0.056 7.29 0.78 9.13
6/3/2022 2:00:00 PM 18.04 64.472 0.056 7.29 1.04 9.13
6/3/2022 2:15:00 PM 18.22 64.796 0.056 7.29 0.95 9.07
6/3/2022 2:30:00 PM 18.5 65.3 0.056 7.29 0.95 9.04
6/3/2022 2:45:00 PM 18.61 65.498 0.056 7.3 1.37 9.01
6/3/2022 3:00:00 PM 18.84 65.912 0.056 7.32 0.98 8.99
6/3/2022 3:15:00 PM 19.03 66.254 0.056 7.27 0.7 8.88
6/3/2022 3:30:00 PM 19.06 66.308 0.057 7.27 0.95 8.86
6/3/2022 3:45:00 PM 19.08 66.344 0.057 7.3 1.02 8.93
6/3/2022 4:00:00 PM 19.07 66.326 0.057 7.28 0.97 8.84
6/3/2022 4:15:00 PM 19.09 66.362 0.056 7.28 0.86 8.8
6/3/2022 4:30:00 PM 19.2 66.56 0.057 7.26 0.84 8.76
6/3/2022 4:45:00 PM 19.18 66.524 0.056 7.27 1.4 8.71
6/3/2022 5:00:00 PM 19.13 66.434 0.055 7.26 1 8.64
6/3/2022 5:15:00 PM 19.15 66.47 0.056 7.29 1.06 8.7
6/3/2022 5:30:00 PM 18.93 66.074 0.056 7.27 0.9 8.64
6/3/2022 5:45:00 PM 18.75 65.75 0.056 7.26 2.69 8.62
6/3/2022 6:00:00 PM 18.62 65.516 0.056 7.25 1.46 8.56
6/3/2022 6:15:00 PM 18.51 65.318 0.056 7.22 0.87 8.53
6/3/2022 6:30:00 PM 18.34 65.012 0.056 7.21 0.9 8.5
6/3/2022 6:45:00 PM 18.17 64.706 0.056 7.21 1.05 8.51
6/3/2022 7:00:00 PM 18 64.4 0.056 7.21 0.81 8.54
6/3/2022 7:15:00 PM 17.85 64.13 0.055 7.19 0.93 8.51
6/3/2022 7:30:00 PM 17.72 63.896 0.056 7.17 0.88 8.51
6/3/2022 7:45:00 PM 17.58 63.644 0.056 7.16 0.8 8.47
6/3/2022 8:00:00 PM 17.44 63.392 0.056 7.15 0.88 8.54
6/3/2022 8:15:00 PM 17.28 63.104 0.056 7.15 1.09 8.56
6/3/2022 8:30:00 PM 17.11 62.798 0.056 7.15 0.88 8.54
6/3/2022 8:45:00 PM 16.94 62.492 0.056 7.14 0.86 8.58
6/3/2022 9:00:00 PM 16.75 62.15 0.056 7.13 0.88 8.56
6/3/2022 9:15:00 PM 16.59 61.862 0.057 7.12 0.96 8.62
6/3/2022 9:30:00 PM 16.41 61.538 0.057 7.11 1.08 8.61
6/3/2022 9:45:00 PM 16.26 61.268 0.057 7.11 1.25 8.66
6/3/2022 10:00:00 PM 16.09 60.962 0.057 7.1 1.17 8.69
6/3/2022 10:15:00 PM 15.94 60.692 0.057 7.1 2.5 8.69
6/3/2022 10:30:00 PM 15.8 60.44 0.057 7.09 1.65 8.75
6/3/2022 10:45:00 PM 15.64 60.152 0.056 7.1 1.16 8.8
6/3/2022 11:00:00 PM 15.52 59.936 0.056 7.1 1.1 8.83
6/3/2022 11:15:00 PM 15.37 59.666 0.056 7.09 1.11 8.84
6/3/2022 11:30:00 PM 15.25 59.45 0.056 7.08 1.05 8.84
6/3/2022 11:45:00 PM 15.13 59.234 0.056 7.09 1.05 8.89
6/4/2022 12:00:00 AM 14.99 58.982 0.056 7.09 1.6 8.93
6/4/2022 12:15:00 AM 14.85 58.73 0.056 7.1 1.13 9
6/4/2022 12:30:00 AM 14.73 58.514 0.055 7.08 1.01 9
6/4/2022 12:45:00 AM 14.59 58.262 0.055 7.07 1.25 8.99
6/4/2022 1:00:00 AM 14.48 58.064 0.055 7.08 2.26 9.05
6/4/2022 1:15:00 AM 14.37 57.866 0.055 7.08 1.12 9.07
6/4/2022 1:30:00 AM 14.24 57.632 0.055 7.08 1.2 9.1
6/4/2022 1:45:00 AM 14.12 57.416 0.055 7.08 1.19 9.13
6/4/2022 2:00:00 AM 14 57.2 0.054 7.08 1.17 9.17
6/4/2022 2:15:00 AM 13.91 57.038 0.054 7.07 1.25 9.12
6/4/2022 2:30:00 AM 13.82 56.876 0.054 7.08 1.09 9.21
6/4/2022 2:45:00 AM 13.72 56.696 0.054 7.07 1.17 9.23
6/4/2022 3:00:00 AM 13.6 56.48 0.054 7.06 0.95 9.23
6/4/2022 3:15:00 AM 13.52 56.336 0.054 7.07 1.01 9.26
6/4/2022 3:30:00 AM 13.42 56.156 0.054 7.07 1.27 9.27
6/4/2022 3:45:00 AM 13.31 55.958 0.054 7.07 1.21 9.3
6/4/2022 4:00:00 AM 13.24 55.832 0.055 7.07 1.32 9.34
6/4/2022 4:15:00 AM 13.13 55.634 0.055 7.06 1.13 9.35
6/4/2022 4:30:00 AM 13.06 55.508 0.055 7.07 1.02 9.38
6/4/2022 4:45:00 AM 12.94 55.292 0.055 7.07 1.16 9.45
6/4/2022 5:00:00 AM 12.86 55.148 0.055 7.06 1.39 9.38
6/4/2022 5:15:00 AM 12.77 54.986 0.055 7.07 1.11 9.46
6/4/2022 5:30:00 AM 12.68 54.824 0.055 7.04 1.6 9.41
6/4/2022 5:45:00 AM 12.58 54.644 0.054 7.05 1.44 9.51
6/4/2022 6:00:00 AM 12.48 54.464 0.054 7.04 1.13 9.51
6/4/2022 6:15:00 AM 12.4 54.32 0.054 7.04 1.01 9.57
6/4/2022 6:30:00 AM 12.32 54.176 0.054 7.05 0.9 9.61
6/4/2022 6:45:00 AM 12.24 54.032 0.054 7.05 0.88 9.65
6/4/2022 7:00:00 AM 12.17 53.906 0.054 7.04 1.52 9.63
6/4/2022 7:15:00 AM 12.12 53.816 0.054 7.06 0.85 9.75
6/4/2022 7:30:00 AM 12.08 53.744 0.054 7.06 0.8 9.75
6/4/2022 7:45:00 AM 12.07 53.726 0.054 7.09 0.93 9.88
6/4/2022 8:00:00 AM 12.04 53.672 0.054 7.09 0.92 9.88
6/4/2022 8:15:00 AM 12.03 53.654 0.054 7.1 1.04 9.91
6/4/2022 8:30:00 AM 12.02 53.636 0.054 7.12 0.84 9.93
6/4/2022 8:45:00 AM 12.04 53.672 0.054 7.11 0.85 9.94
6/4/2022 9:00:00 AM 12.1 53.78 0.053 7.14 0.74 9.96
6/4/2022 9:15:00 AM 12.17 53.906 0.054 7.13 0.76 9.95
6/4/2022 9:30:00 AM 12.3 54.14 0.054 7.14 0.65 9.96
6/4/2022 9:45:00 AM 12.45 54.41 0.054 7.15 1.88 9.96
6/4/2022 10:00:00 AM 12.64 54.752 0.054 7.14 0.78 9.92
6/4/2022 10:15:00 AM 12.8 55.04 0.055 7.18 0.74 9.95
6/4/2022 10:30:00 AM 12.96 55.328 0.054 7.18 0.92 9.88
6/4/2022 10:45:00 AM 13.17 55.706 0.055 7.17 0.93 9.85
6/4/2022 11:00:00 AM 13.4 56.12 0.055 7.18 0.68 9.76
6/4/2022 11:15:00 AM 13.69 56.642 0.055 7.21 0.72 9.8
6/4/2022 11:30:00 AM 13.94 57.092 0.055 7.22 1.18 9.71
6/4/2022 11:45:00 AM 14.28 57.704 0.055 7.21 0.72 9.63
6/4/2022 12:00:00 PM 14.51 58.118 0.055 7.21 0.67 9.57
6/4/2022 12:15:00 PM 14.89 58.802 0.054 7.24 0.82 9.62
6/4/2022 12:30:00 PM 15.28 59.504 0.054 7.22 0.73 9.56
6/4/2022 12:45:00 PM 15.68 60.224 0.054 7.25 0.91 9.51
6/4/2022 1:00:00 PM 16.01 60.818 0.054 7.25 0.83 9.49
6/4/2022 1:15:00 PM 16.35 61.43 0.054 7.27 0.85 9.5
6/4/2022 1:30:00 PM 16.73 62.114 0.054 7.27 1.04 9.46
6/4/2022 1:45:00 PM 17.04 62.672 0.054 7.26 1.15 9.35
6/4/2022 2:00:00 PM 17.28 63.104 0.054 7.31 0.74 9.41
6/4/2022 2:15:00 PM 17.49 63.482 0.054 7.32 0.84 9.35
6/4/2022 2:30:00 PM 17.7 63.86 0.055 7.3 0.7 9.22
6/4/2022 2:45:00 PM 17.87 64.166 0.055 7.3 0.84 9.18
6/4/2022 3:00:00 PM 18.06 64.508 0.055 7.31 1.22 9.21
6/4/2022 3:15:00 PM 18.24 64.832 0.055 7.29 0.76 9.11
6/4/2022 3:30:00 PM 18.37 65.066 0.055 7.3 0.94 9.06
6/4/2022 3:45:00 PM 18.42 65.156 0.055 7.29 0.76 8.98
6/4/2022 4:00:00 PM 18.53 65.354 0.056 7.31 0.79 9.04
6/4/2022 4:15:00 PM 18.58 65.444 0.056 7.3 0.84 8.97
6/4/2022 4:30:00 PM 18.56 65.408 0.056 7.29 1.72 8.96
6/4/2022 4:45:00 PM 18.57 65.426 0.056 7.24 0.84 8.87
6/4/2022 5:00:00 PM 18.52 65.336 0.056 7.27 0.88 8.79
6/4/2022 5:15:00 PM 18.43 65.174 0.056 7.28 0.91 8.86
6/4/2022 5:30:00 PM 18.17 64.706 0.057 7.23 2.33 8.74
6/4/2022 5:45:00 PM 17.98 64.364 0.057 7.23 1.39 8.72
6/4/2022 6:00:00 PM 17.83 64.094 0.056 7.21 0.76 8.73
6/4/2022 6:15:00 PM 17.72 63.896 0.056 7.2 0.83 8.66
6/4/2022 6:30:00 PM 17.58 63.644 0.056 7.19 0.81 8.64
6/4/2022 6:45:00 PM 17.43 63.374 0.056 7.19 0.95 8.64
6/4/2022 7:00:00 PM 17.23 63.014 0.056 7.18 2.99 8.68
6/4/2022 7:15:00 PM 17.07 62.726 0.056 7.17 1.71 8.68
6/4/2022 7:30:00 PM 16.89 62.402 0.055 7.17 1.36 8.67
6/4/2022 7:45:00 PM 16.71 62.078 0.056 7.15 1.45 8.67
6/4/2022 8:00:00 PM 16.52 61.736 0.056 7.14 0.88 8.69
6/4/2022 8:15:00 PM 16.35 61.43 0.055 7.15 0.84 8.74
6/4/2022 8:30:00 PM 16.17 61.106 0.055 7.15 0.8 8.76
6/4/2022 8:45:00 PM 15.95 60.71 0.056 7.14 0.79 8.8
6/4/2022 9:00:00 PM 15.77 60.386 0.056 7.13 0.96 8.82
6/4/2022 9:15:00 PM 15.58 60.044 0.056 7.12 1.18 8.82
6/4/2022 9:30:00 PM 15.39 59.702 0.056 7.12 1.07 8.89
6/4/2022 9:45:00 PM 15.21 59.378 0.056 7.11 0.94 8.86
6/4/2022 10:00:00 PM 15.05 59.09 0.056 7.1 1.05 8.91
6/4/2022 10:15:00 PM 14.89 58.802 0.056 7.11 0.87 8.96
6/4/2022 10:30:00 PM 14.73 58.514 0.056 7.1 0.98 8.97
6/4/2022 10:45:00 PM 14.56 58.208 0.056 7.09 0.92 8.97
6/4/2022 11:00:00 PM 14.42 57.956 0.056 7.11 1.05 9.05
6/4/2022 11:15:00 PM 14.27 57.686 0.056 7.07 1.06 9.05
6/4/2022 11:30:00 PM 14.15 57.47 0.056 7.08 0.9 9.1
6/4/2022 11:45:00 PM 14.04 57.272 0.056 7.08 0.95 9.15
6/5/2022 12:00:00 AM 13.93 57.074 0.056 7.09 0.89 9.17
6/5/2022 12:15:00 AM 13.79 56.822 0.056 7.08 1.02 9.17
6/5/2022 12:30:00 AM 13.66 56.588 0.055 7.05 27.58 9.07
6/5/2022 12:45:00 AM 13.54 56.372 0.055 7.09 1.23 9.27
6/5/2022 1:00:00 AM 13.44 56.192 0.056 7.09 1.22 9.29
6/5/2022 1:15:00 AM 13.29 55.922 0.055 7.09 1.07 9.33
6/5/2022 1:30:00 AM 13.19 55.742 0.055 7.08 1.16 9.33
6/5/2022 1:45:00 AM 13.07 55.526 0.056 7.08 1.02 9.36
6/5/2022 2:00:00 AM 12.96 55.328 0.056 7.08 1.2 9.32
6/5/2022 2:15:00 AM 12.83 55.094 0.056 7.08 0.95 9.41
6/5/2022 2:30:00 AM 12.71 54.878 0.056 7.08 1.1 9.44
6/5/2022 2:45:00 AM 12.61 54.698 0.056 7.09 1.05 9.5
6/5/2022 3:00:00 AM 12.49 54.482 0.056 7.08 1.18 9.49
6/5/2022 3:15:00 AM 12.38 54.284 0.056 7.08 1.31 9.52
6/5/2022 3:30:00 AM 12.28 54.104 0.056 7.09 1.09 9.57
6/5/2022 3:45:00 AM 12.17 53.906 0.056 7.08 1.32 9.56
6/5/2022 4:00:00 AM 12.09 53.762 0.056 7.07 1.03 9.53
6/5/2022 4:15:00 AM 11.97 53.546 0.056 7.07 1.24 9.61
6/5/2022 4:30:00 AM 11.87 53.366 0.056 7.05 2.03 9.62
6/5/2022 4:45:00 AM 11.79 53.222 0.056 7.07 1.26 9.66
6/5/2022 5:00:00 AM 11.71 53.078 0.056 7.07 2.12 9.68
6/5/2022 5:15:00 AM 11.62 52.916 0.056 7.06 1.18 9.68
6/5/2022 5:30:00 AM 11.51 52.718 0.056 7.07 1.64 9.72
6/5/2022 5:45:00 AM 11.45 52.61 0.056 7.05 1.97 9.71
6/5/2022 6:00:00 AM 11.36 52.448 0.056 7.05 3.38 9.8
6/5/2022 6:15:00 AM 11.29 52.322 0.056 7.06 1.96 9.85
6/5/2022 6:30:00 AM 11.21 52.178 0.056 7.05 2.25 9.82
6/5/2022 6:45:00 AM 11.13 52.034 0.056 7.03 1.03 9.87
6/5/2022 7:00:00 AM 11.09 51.962 0.056 7.06 0.81 9.89
6/5/2022 7:15:00 AM 11.06 51.908 0.056 7.06 0.67 9.89
6/5/2022 7:30:00 AM 11 51.8 0.056 7.08 1.28 10.02
6/5/2022 7:45:00 AM 11.01 51.818 0.056 7.09 0.79 10.05
6/5/2022 8:00:00 AM 11 51.8 0.056 7.1 0.75 10.06
6/5/2022 8:15:00 AM 11.03 51.854 0.056 7.1 0.83 10.13
6/5/2022 8:30:00 AM 11.09 51.962 0.056 7.13 0.72 10.16
6/5/2022 8:45:00 AM 11.13 52.034 0.056 7.17 0.81 10.3
6/5/2022 9:00:00 AM 11.21 52.178 0.056 7.17 0.97 10.3
6/5/2022 9:15:00 AM 11.31 52.358 0.055 7.18 0.7 10.33
6/5/2022 9:30:00 AM 11.42 52.556 0.056 7.17 0.74 10.29
6/5/2022 9:45:00 AM 11.56 52.808 0.056 7.21 1.17 10.36
6/5/2022 10:00:00 AM 11.69 53.042 0.056 7.22 1.12 10.33
6/5/2022 10:15:00 AM 11.84 53.312 0.056 7.23 0.74 10.34
6/5/2022 10:30:00 AM 12.01 53.618 0.056 7.23 0.77 10.33
6/5/2022 10:45:00 AM 12.18 53.924 0.055 7.25 0.75 10.26
6/5/2022 11:00:00 AM 12.37 54.266 0.055 7.27 0.68 10.31
6/5/2022 11:15:00 AM 12.53 54.554 0.055 7.26 0.79 10.28
6/5/2022 11:30:00 AM 12.67 54.806 0.055 7.29 0.76 10.25
6/5/2022 11:45:00 AM 12.85 55.13 0.055 7.27 0.75 10.22
6/5/2022 12:00:00 PM 13.08 55.544 0.055 7.28 0.75 10.15
6/5/2022 12:15:00 PM 13.31 55.958 0.055 7.28 0.79 10.11
6/5/2022 12:30:00 PM 13.59 56.462 0.054 7.3 0.71 10.12
6/5/2022 12:45:00 PM 13.96 57.128 0.054 7.29 0.71 10.08
6/5/2022 1:00:00 PM 14.4 57.92 0.054 7.31 0.68 10.03
6/5/2022 1:15:00 PM 14.64 58.352 0.054 7.32 0.66 9.96
6/5/2022 1:30:00 PM 15.15 59.27 0.054 7.33 0.75 9.97
6/5/2022 1:45:00 PM 15.38 59.684 0.054 7.32 0.88 9.85
6/5/2022 2:00:00 PM 15.79 60.422 0.054 7.32 0.74 9.79
6/5/2022 2:15:00 PM 16.1 60.98 0.054 7.34 0.77 9.7
6/5/2022 2:30:00 PM 16.39 61.502 0.054 7.32 0.89 9.58
6/5/2022 2:45:00 PM 16.7 62.06 0.054 7.34 0.83 9.56
6/5/2022 3:00:00 PM 16.97 62.546 0.055 7.33 0.77 9.48
6/5/2022 3:15:00 PM 17.21 62.978 0.055 7.32 0.84 9.36
6/5/2022 3:30:00 PM 17.39 63.302 0.055 7.35 0.78 9.41
6/5/2022 3:45:00 PM 17.49 63.482 0.055 7.31 0.92 9.28
6/5/2022 4:00:00 PM 17.64 63.752 0.055 7.33 0.83 9.28
6/5/2022 4:15:00 PM 17.7 63.86 0.055 7.29 0.82 9.16
6/5/2022 4:30:00 PM 17.72 63.896 0.055 7.26 0.84 9.18
6/5/2022 4:45:00 PM 17.61 63.698 0.056 7.29 0.89 9.17
6/5/2022 5:00:00 PM 17.68 63.824 0.056 7.3 0.8 9.12
6/5/2022 5:15:00 PM 17.64 63.752 0.056 7.29 0.75 9.11
6/5/2022 5:30:00 PM 17.46 63.428 0.055 7.29 0.89 9.13
6/5/2022 5:45:00 PM 17.31 63.158 0.055 7.28 0.81 9.01
6/5/2022 6:00:00 PM 17.18 62.924 0.055 7.25 0.81 8.94
6/5/2022 6:15:00 PM 17.03 62.654 0.056 7.25 0.82 8.95
6/5/2022 6:30:00 PM 16.9 62.42 0.056 7.22 2.27 8.89
6/5/2022 6:45:00 PM 16.76 62.168 0.056 7.21 1.1 8.89
6/5/2022 7:00:00 PM 16.67 62.006 0.056 7.21 0.96 8.86
6/5/2022 7:15:00 PM 16.57 61.826 0.056 7.21 1 8.89
6/5/2022 7:30:00 PM 16.47 61.646 0.056 7.22 0.87 8.98
6/5/2022 7:45:00 PM 16.31 61.358 0.056 7.19 0.97 8.91
6/5/2022 8:00:00 PM 16.15 61.07 0.056 7.18 0.88 8.92
6/5/2022 8:15:00 PM 16.01 60.818 0.056 7.16 0.9 8.93
6/5/2022 8:30:00 PM 15.89 60.602 0.056 7.18 0.93 8.92
6/5/2022 8:45:00 PM 15.77 60.386 0.055 7.16 1.23 8.91
6/5/2022 9:00:00 PM 15.64 60.152 0.055 7.14 1 8.88
6/5/2022 9:15:00 PM 15.51 59.918 0.056 7.13 0.94 8.89
6/5/2022 9:30:00 PM 15.39 59.702 0.056 7.11 1.16 8.86
6/5/2022 9:45:00 PM 15.27 59.486 0.056 7.11 1.16 8.9
6/5/2022 10:00:00 PM 15.17 59.306 0.056 7.11 1.15 8.9
6/5/2022 10:15:00 PM 15.07 59.126 0.056 7.11 1.11 8.92
6/5/2022 10:30:00 PM 14.98 58.964 0.056 7.1 1.15 8.94
6/5/2022 10:45:00 PM 14.87 58.766 0.056 7.1 1.1 8.97
6/5/2022 11:00:00 PM 14.77 58.586 0.056 7.1 1.37 9.02
6/5/2022 11:15:00 PM 14.67 58.406 0.056 7.09 1.12 9.02
6/5/2022 11:30:00 PM 14.57 58.226 0.056 7.1 1.41 9.01
6/5/2022 11:45:00 PM 14.46 58.028 0.056 7.1 1.21 9.05
6/6/2022 12:00:00 AM 14.37 57.866 0.056 7.09 1.02 9.07
6/6/2022 12:15:00 AM 14.25 57.65 0.056 7.08 1.13 9.1
6/6/2022 12:30:00 AM 14.15 57.47 0.056 7.1 0.96 9.1
6/6/2022 12:45:00 AM 14.05 57.29 0.056 7.07 1.31 9.14
6/6/2022 1:00:00 AM 13.96 57.128 0.056 7.09 1.52 9.14
6/6/2022 1:15:00 AM 13.86 56.948 0.056 7.08 1.04 9.17
6/6/2022 1:30:00 AM 13.73 56.714 0.056 7.09 1.41 9.23
6/6/2022 1:45:00 AM 13.67 56.606 0.056 7.07 1.59 9.22
6/6/2022 2:00:00 AM 13.56 56.408 0.056 7.07 1.53 9.22
6/6/2022 2:15:00 AM 13.45 56.21 0.056 7.06 1.32 9.25
6/6/2022 2:30:00 AM 13.36 56.048 0.056 7.07 1.25 9.27
6/6/2022 2:45:00 AM 13.28 55.904 0.056 7.06 1.8 9.3
6/6/2022 3:00:00 AM 13.18 55.724 0.056 7.07 1.52 9.32
6/6/2022 3:15:00 AM 13.1 55.58 0.056 7.07 1.41 9.34
6/6/2022 3:30:00 AM 13.01 55.418 0.056 7.08 1.23 9.36
6/6/2022 3:45:00 AM 12.92 55.256 0.056 7.08 2.96 9.39
6/6/2022 4:00:00 AM 12.83 55.094 0.056 7.09 1.08 9.41
6/6/2022 4:15:00 AM 12.75 54.95 0.056 7.08 1.04 9.44
6/6/2022 4:30:00 AM 12.66 54.788 0.056 7.08 1.09 9.43
6/6/2022 4:45:00 AM 12.58 54.644 0.056 7.08 1.27 9.48
6/6/2022 5:00:00 AM 12.51 54.518 0.056 7.08 1.11 9.5
6/6/2022 5:15:00 AM 12.42 54.356 0.056 7.06 7.6 9.49
6/6/2022 5:30:00 AM 12.33 54.194 0.056 7.07 1.45 9.54
6/6/2022 5:45:00 AM 12.25 54.05 0.056 7.06 1.04 9.53
6/6/2022 6:00:00 AM 12.19 53.942 0.056 7.06 0.98 9.51
6/6/2022 6:15:00 AM 12.12 53.816 0.056 7.06 1.01 9.55
6/6/2022 6:30:00 AM 12.05 53.69 0.056 7.08 1.26 9.57
6/6/2022 6:45:00 AM 11.99 53.582 0.056 7.08 6.1 9.66
6/6/2022 7:00:00 AM 11.96 53.528 0.056 7.09 1.06 9.66
6/6/2022 7:15:00 AM 11.91 53.438 0.056 7.09 0.83 9.73
6/6/2022 7:30:00 AM 11.89 53.402 0.056 7.1 1.08 9.78
6/6/2022 7:45:00 AM 11.86 53.348 0.056 7.1 0.97 9.8
6/6/2022 8:00:00 AM 11.86 53.348 0.056 7.12 1.16 9.87
6/6/2022 8:15:00 AM 11.87 53.366 0.055 7.13 1.25 9.9
6/6/2022 8:30:00 AM 11.9 53.42 0.055 7.13 0.92 9.9
6/6/2022 8:45:00 AM 11.94 53.492 0.055 7.15 2.12 9.95
6/6/2022 9:00:00 AM 12.01 53.618 0.055 7.16 1.11 9.98
6/6/2022 9:15:00 AM 12.13 53.834 0.055 7.16 1.1 10
6/6/2022 9:30:00 AM 12.26 54.068 0.055 7.19 0.83 10.06
6/6/2022 9:45:00 AM 12.46 54.428 0.055 7.2 1.06 10.1
6/6/2022 10:00:00 AM 12.65 54.77 0.055 7.2 0.97 10.07
6/6/2022 10:15:00 AM 12.79 55.022 0.055 7.2 0.88 10.05
6/6/2022 10:30:00 AM 13.01 55.418 0.055 7.23 0.89 10.03
6/6/2022 10:45:00 AM 13.25 55.85 0.055 7.25 0.84 10.02
6/6/2022 11:00:00 AM 13.52 56.336 0.055 7.26 0.82 9.98
6/6/2022 11:15:00 AM 13.77 56.786 0.055 7.25 0.97 9.9
6/6/2022 11:30:00 AM 14.13 57.434 0.055 7.27 0.96 9.86
6/6/2022 11:45:00 AM 14.43 57.974 0.055 7.27 1.02 9.81
6/6/2022 12:00:00 PM 14.79 58.622 0.055 7.28 0.84 9.81
6/6/2022 12:15:00 PM 15.13 59.234 0.055 7.31 0.83 9.83
6/6/2022 12:30:00 PM 15.53 59.954 0.055 7.3 1.11 9.74
6/6/2022 12:45:00 PM 15.9 60.62 0.055 7.29 0.91 9.7
6/6/2022 1:00:00 PM 16.21 61.178 0.055 7.32 1.05 9.66
6/6/2022 1:15:00 PM 16.44 61.592 0.055 7.34 1.18 9.61
6/6/2022 1:30:00 PM 16.89 62.402 0.054 7.34 0.92 9.55
6/6/2022 1:45:00 PM 17.25 63.05 0.054 7.33 0.92 9.46
6/6/2022 2:00:00 PM 17.42 63.356 0.055 7.34 0.95 9.4
6/6/2022 2:15:00 PM 17.31 63.158 0.055 7.32 1.06 9.29
6/6/2022 2:30:00 PM 17.49 63.482 0.055 7.37 0.92 9.35
6/6/2022 2:45:00 PM 17.73 63.914 0.055 7.34 0.88 9.29
6/6/2022 3:00:00 PM 17.65 63.77 0.055 7.3 1.06 9.1
6/6/2022 3:15:00 PM 17.88 64.184 0.055 7.35 0.89 9.21
6/6/2022 3:30:00 PM 18.04 64.472 0.056 7.34 1.13 9.14
6/6/2022 3:45:00 PM 17.94 64.292 0.055 7.32 1.07 9.13
6/6/2022 4:00:00 PM 17.84 64.112 0.055 7.35 1.01 9.2
6/6/2022 4:15:00 PM 18.01 64.418 0.056 7.32 0.9 9.07
6/6/2022 4:30:00 PM 18.02 64.436 0.056 7.33 0.87 9.04
6/6/2022 4:45:00 PM 18.04 64.472 0.056 7.32 1.07 9.02
6/6/2022 5:00:00 PM 17.97 64.346 0.056 7.29 1.58 9
6/6/2022 5:15:00 PM 17.99 64.382 0.056 7.29 1.21 9.04
6/6/2022 5:30:00 PM 17.92 64.256 0.056 7.29 1.02 8.92
6/6/2022 5:45:00 PM 17.8 64.04 0.056 7.3 1.03 8.91
6/6/2022 6:00:00 PM 17.7 63.86 0.056 7.27 1.06 8.81
6/6/2022 6:15:00 PM 17.64 63.752 0.056 7.23 0.92 8.79
6/6/2022 6:30:00 PM 17.6 63.68 0.056 7.21 0.91 8.71
6/6/2022 6:45:00 PM 17.54 63.572 0.056 7.22 0.99 8.71
6/6/2022 7:00:00 PM 17.47 63.446 0.056 7.22 1.03 8.73
6/6/2022 7:15:00 PM 17.37 63.266 0.056 7.2 0.97 8.7
6/6/2022 7:30:00 PM 17.26 63.068 0.057 7.2 1.06 8.74
6/6/2022 7:45:00 PM 17.14 62.852 0.057 7.19 1 8.69
6/6/2022 8:00:00 PM 17.08 62.744 0.057 7.18 1.38 8.66
6/6/2022 8:15:00 PM 16.99 62.582 0.057 7.18 0.93 8.63
6/6/2022 8:30:00 PM 16.91 62.438 0.057 7.15 1.04 8.59
6/6/2022 8:45:00 PM 16.83 62.294 0.056 7.16 1.66 8.64
6/6/2022 9:00:00 PM 16.73 62.114 0.057 7.15 1.02 8.65
6/6/2022 9:15:00 PM 16.62 61.916 0.057 7.16 1.18 8.65
6/6/2022 9:30:00 PM 16.51 61.718 0.057 7.12 1.22 8.59
6/6/2022 9:45:00 PM 16.43 61.574 0.057 7.14 1.15 8.65
6/6/2022 10:00:00 PM 16.31 61.358 0.057 7.11 1.04 8.62
6/6/2022 10:15:00 PM 16.2 61.16 0.058 7.11 1.19 8.62
6/6/2022 10:30:00 PM 16.09 60.962 0.058 7.1 1.33 8.67
6/6/2022 10:45:00 PM 16.01 60.818 0.058 7.1 1.3 8.66
6/6/2022 11:00:00 PM 15.93 60.674 0.058 7.1 1.87 8.69
6/6/2022 11:15:00 PM 15.84 60.512 0.058 7.08 1.36 8.57
6/6/2022 11:30:00 PM 15.76 60.368 0.058 7.11 1.26 8.73
6/6/2022 11:45:00 PM 15.69 60.242 0.058 7.1 1.5 8.76
6/7/2022 12:00:00 AM 15.64 60.152 0.058 7.1 1.58 8.7
6/7/2022 12:15:00 AM 15.58 60.044 0.058 7.09 1.28 8.68
6/7/2022 12:30:00 AM 15.51 59.918 0.058 7.09 1.54 8.78
6/7/2022 12:45:00 AM 15.45 59.81 0.057 7.07 2.03 8.75
6/7/2022 1:00:00 AM 15.38 59.684 0.057 7.1 1.44 8.83
6/7/2022 1:15:00 AM 15.34 59.612 0.057 7.1 1.17 8.8
6/7/2022 1:30:00 AM 15.3 59.54 0.057 7.09 1.52 8.79
6/7/2022 1:45:00 AM 15.25 59.45 0.057 7.07 1.78 8.82
6/7/2022 2:00:00 AM 15.21 59.378 0.057 7.07 1.93 8.83
6/7/2022 2:15:00 AM 15.16 59.288 0.057 7.08 2.49 8.84
6/7/2022 2:30:00 AM 15.1 59.18 0.057 7.09 1.58 8.82
6/7/2022 2:45:00 AM 15.06 59.108 0.057 7.07 1.42 8.89
6/7/2022 3:00:00 AM 15 59 0.057 7.08 1.47 8.88
6/7/2022 3:15:00 AM 14.96 58.928 0.057 7.09 1.17 8.94
6/7/2022 3:30:00 AM 14.91 58.838 0.057 7.06 1.22 8.92
6/7/2022 3:45:00 AM 14.85 58.73 0.057 7.06 3.07 8.8
6/7/2022 4:00:00 AM 14.82 58.676 0.057 7.07 2.39 8.95
6/7/2022 4:15:00 AM 14.78 58.604 0.057 7.07 1.41 8.96
6/7/2022 4:30:00 AM 14.74 58.532 0.057 7.07 2.89 8.98
6/7/2022 4:45:00 AM 14.7 58.46 0.057 7.08 1.33 8.99
6/7/2022 5:00:00 AM 14.66 58.388 0.057 7.07 1.14 8.99
6/7/2022 5:15:00 AM 14.62 58.316 0.057 7.05 3 8.96
6/7/2022 5:30:00 AM 14.58 58.244 0.057 7.05 1.25 8.97
6/7/2022 5:45:00 AM 14.53 58.154 0.057 7.05 1.3 9
6/7/2022 6:00:00 AM 14.49 58.082 0.057 7.06 1.83 8.99
6/7/2022 6:15:00 AM 14.46 58.028 0.057 7.06 1.66 9.01
6/7/2022 6:30:00 AM 14.44 57.992 0.057 7.06 1.51 9.01
6/7/2022 6:45:00 AM 14.44 57.992 0.057 7.06 1.33 9
6/7/2022 7:00:00 AM 14.42 57.956 0.057 7.1 1.14 9.17
6/7/2022 7:15:00 AM 14.42 57.956 0.057 7.1 1.25 9.17
6/7/2022 7:30:00 AM 14.42 57.956 0.057 7.11 1.05 9.17
6/7/2022 7:45:00 AM 14.43 57.974 0.057 7.13 1.21 9.26
6/7/2022 8:00:00 AM 14.44 57.992 0.057 7.12 2.48 9.21
6/7/2022 8:15:00 AM 14.45 58.01 0.057 7.12 1.07 9.22
6/7/2022 8:30:00 AM 14.46 58.028 0.057 7.13 1.6 9.22
6/7/2022 8:45:00 AM 14.46 58.028 0.057 7.11 1.31 9.27
6/7/2022 9:00:00 AM 14.48 58.064 0.057 7.14 1.16 9.29
6/7/2022 9:15:00 AM 14.5 58.1 0.057 7.13 1.05 9.21
6/7/2022 9:30:00 AM 14.51 58.118 0.057 7.13 1.18 9.22
6/7/2022 9:45:00 AM 14.52 58.136 0.057 7.16 1.32 9.32
6/7/2022 10:00:00 AM 14.54 58.172 0.057 7.16 1.16 9.28
6/7/2022 10:15:00 AM 14.55 58.19 0.057 7.17 1.2 9.29
6/7/2022 10:30:00 AM 14.59 58.262 0.057 7.18 1.16 9.31
6/7/2022 10:45:00 AM 14.64 58.352 0.057 7.19 1.97 9.4
6/7/2022 11:00:00 AM 14.66 58.388 0.057 7.18 1.09 9.37
6/7/2022 11:15:00 AM 14.67 58.406 0.057 7.21 1.22 9.42
6/7/2022 11:30:00 AM 14.69 58.442 0.057 7.22 1.06 9.42
6/7/2022 11:45:00 AM 14.69 58.442 0.057 7.23 1.18 9.49
6/7/2022 12:00:00 PM 14.69 58.442 0.057 7.2 1.25 9.41
6/7/2022 12:15:00 PM 14.69 58.442 0.057 7.19 1.34 9.36
6/7/2022 12:30:00 PM 14.7 58.46 0.057 7.15 1.3 9.26
6/7/2022 12:45:00 PM 14.71 58.478 0.057 7.15 1.46 9.26
6/7/2022 1:00:00 PM 14.73 58.514 0.056 7.13 1.34 9.19
6/7/2022 1:15:00 PM 14.75 58.55 0.057 7.14 2.99 9.22
6/7/2022 1:30:00 PM 14.75 58.55 0.056 7.15 1.69 9.25
6/7/2022 1:45:00 PM 14.77 58.586 0.056 7.16 1.31 9.33
6/7/2022 2:00:00 PM 14.77 58.586 0.056 7.14 1.3 9.26
6/7/2022 2:15:00 PM 14.78 58.604 0.056 7.16 1.34 9.3
6/7/2022 2:30:00 PM 14.79 58.622 0.056 7.17 1.29 9.34
6/7/2022 2:45:00 PM 14.79 58.622 0.056 7.17 1.61 9.29
6/7/2022 3:00:00 PM 14.8 58.64 0.056 7.19 1.36 9.35
6/7/2022 3:15:00 PM 14.82 58.676 0.056 7.18 1.54 9.39
6/7/2022 3:30:00 PM 14.84 58.712 0.056 7.19 1.47 9.39
6/7/2022 3:45:00 PM 14.84 58.712 0.056 7.21 1.61 9.32
6/7/2022 4:00:00 PM 14.81 58.658 0.056 7.18 1.54 9.24
6/7/2022 4:15:00 PM 14.82 58.676 0.055 7.2 1.33 9.26
6/7/2022 4:30:00 PM 14.83 58.694 0.055 7.19 2.08 9.32
6/7/2022 4:45:00 PM 14.84 58.712 0.055 7.2 1.37 9.31
6/7/2022 5:00:00 PM 14.85 58.73 0.056 7.18 1.47 9.29
6/7/2022 5:15:00 PM 14.85 58.73 0.056 7.19 1.56 9.27
6/7/2022 5:30:00 PM 14.85 58.73 0.056 7.18 1.41 9.28
6/7/2022 5:45:00 PM 14.85 58.73 0.056 7.18 1.5 9.23
6/7/2022 6:00:00 PM 14.83 58.694 0.056 7.17 1.83 9.19
6/7/2022 6:15:00 PM 14.82 58.676 0.056 7.17 1.42 9.23
6/7/2022 6:30:00 PM 14.82 58.676 0.056 7.18 1.76 9.21
6/7/2022 6:45:00 PM 14.81 58.658 0.056 7.15 1.46 9.23
6/7/2022 7:00:00 PM 14.8 58.64 0.056 7.15 1.53 9.17
6/7/2022 7:15:00 PM 14.79 58.622 0.056 7.15 1.64 9.19
6/7/2022 7:30:00 PM 14.76 58.568 0.056 7.15 1.47 9.15
6/7/2022 7:45:00 PM 14.74 58.532 0.056 7.12 1.6 9.16
6/7/2022 8:00:00 PM 14.72 58.496 0.056 7.12 1.72 9.14
6/7/2022 8:15:00 PM 14.7 58.46 0.057 7.12 1.54 9.15
6/7/2022 8:30:00 PM 14.67 58.406 0.056 7.12 1.49 9.16
6/7/2022 8:45:00 PM 14.65 58.37 0.056 7.1 1.49 9.13
6/7/2022 9:00:00 PM 14.63 58.334 0.056 7.1 1.56 9.15
6/7/2022 9:15:00 PM 14.61 58.298 0.056 7.08 1.48 9.12
6/7/2022 9:30:00 PM 14.59 58.262 0.056 7.08 1.58 9.1
6/7/2022 9:45:00 PM 14.57 58.226 0.056 7.07 1.82 9.08
6/7/2022 10:00:00 PM 14.55 58.19 0.056 7.07 1.78 9.1
6/7/2022 10:15:00 PM 14.52 58.136 0.056 7.07 1.62 9.11
6/7/2022 10:30:00 PM 14.5 58.1 0.056 7.07 1.77 9.13
6/7/2022 10:45:00 PM 14.49 58.082 0.056 7.05 1.84 9.12
6/7/2022 11:00:00 PM 14.46 58.028 0.056 7.06 1.67 9.13
6/7/2022 11:15:00 PM 14.44 57.992 0.056 7.05 2.14 9.09
6/7/2022 11:30:00 PM 14.41 57.938 0.056 7.05 1.99 9.15
6/7/2022 11:45:00 PM 14.4 57.92 0.056 7.04 1.77 9.11
6/8/2022 12:00:00 AM 14.38 57.884 0.056 7.04 4.23 9.11
6/8/2022 12:15:00 AM 14.36 57.848 0.056 7.05 1.58 9.12
6/8/2022 12:30:00 AM 14.34 57.812 0.056 7.04 1.87 9.12
6/8/2022 12:45:00 AM 14.32 57.776 0.056 7.05 2.06 9.16
6/8/2022 1:00:00 AM 14.3 57.74 0.056 7.07 1.55 9.11
6/8/2022 1:15:00 AM 14.27 57.686 0.056 7.07 1.86 9.13
6/8/2022 1:30:00 AM 14.24 57.632 0.056 7.08 1.75 9.12
6/8/2022 1:45:00 AM 14.2 57.56 0.056 7.08 1.47 9.18
6/8/2022 2:00:00 AM 14.17 57.506 0.056 7.09 1.53 9.14
6/8/2022 2:15:00 AM 14.12 57.416 0.056 7.07 1.78 9.13
6/8/2022 2:30:00 AM 14.07 57.326 0.056 7.1 1.67 9.21
6/8/2022 2:45:00 AM 14 57.2 0.056 7.09 1.93 9.22
6/8/2022 3:00:00 AM 13.94 57.092 0.056 7.09 1.73 9.17
6/8/2022 3:15:00 AM 13.88 56.984 0.056 7.09 1.56 9.2
6/8/2022 3:30:00 AM 13.81 56.858 0.056 7.1 1.43 9.25
6/8/2022 3:45:00 AM 13.74 56.732 0.056 7.09 1.35 9.2
6/8/2022 4:00:00 AM 13.68 56.624 0.056 7.1 1.53 9.27
6/8/2022 4:15:00 AM 13.6 56.48 0.056 7.08 1.43 9.27
6/8/2022 4:30:00 AM 13.54 56.372 0.056 7.1 1.44 9.29
6/8/2022 4:45:00 AM 13.51 56.318 0.056 7.09 1.36 9.3
6/8/2022 5:00:00 AM 13.48 56.264 0.056 7.08 2.39 9.25
6/8/2022 5:15:00 AM 13.45 56.21 0.056 7.08 1.59 9.28
6/8/2022 5:30:00 AM 13.43 56.174 0.056 7.09 1.63 9.27
6/8/2022 5:45:00 AM 13.41 56.138 0.056 7.08 3.39 9.32
6/8/2022 6:00:00 AM 13.38 56.084 0.056 7.09 1.18 9.33
6/8/2022 6:15:00 AM 13.36 56.048 0.056 7.1 1.67 9.32
6/8/2022 6:30:00 AM 13.32 55.976 0.057 7.07 18.98 9.24
6/8/2022 6:45:00 AM 13.3 55.94 0.055 7.11 5.14 9.37
6/8/2022 7:00:00 AM 13.29 55.922 0.055 7.12 2.83 9.45
6/8/2022 7:15:00 AM 13.28 55.904 0.055 7.14 2.4 9.55
6/8/2022 7:30:00 AM 13.29 55.922 0.055 7.13 1.71 9.54
6/8/2022 7:45:00 AM 13.29 55.922 0.055 7.16 1.03 9.62
6/8/2022 8:00:00 AM 13.31 55.958 0.055 7.16 1.49 9.63
6/8/2022 8:15:00 AM 13.33 55.994 0.055 7.2 0.9 9.67
6/8/2022 8:30:00 AM 13.35 56.03 0.055 7.18 1.22 9.7
6/8/2022 8:45:00 AM 13.37 56.066 0.056 7.19 0.97 9.67
6/8/2022 9:00:00 AM 13.39 56.102 0.056 7.21 0.91 9.76
6/8/2022 9:15:00 AM 13.46 56.228 0.056 7.21 0.91 9.76
6/8/2022 9:30:00 AM 13.48 56.264 0.056 7.22 0.87 9.71
6/8/2022 9:45:00 AM 13.59 56.462 0.056 7.22 2.31 9.78
6/8/2022 10:00:00 AM 13.73 56.714 0.055 7.22 3.07 9.75
6/8/2022 10:15:00 AM 13.82 56.876 0.055 7.26 0.81 9.84
6/8/2022 10:30:00 AM 13.93 57.074 0.055 7.25 0.98 9.75
6/8/2022 10:45:00 AM 14.08 57.344 0.055 7.27 0.75 9.79
6/8/2022 11:00:00 AM 14.22 57.596 0.055 7.27 0.77 9.76
6/8/2022 11:15:00 AM 14.42 57.956 0.055 7.26 0.88 9.71
6/8/2022 11:30:00 AM 14.74 58.532 0.055 7.28 0.92 9.72
6/8/2022 11:45:00 AM 14.89 58.802 0.055 7.29 0.85 9.64
6/8/2022 12:00:00 PM 15.09 59.162 0.055 7.31 0.72 9.68
6/8/2022 12:15:00 PM 15.38 59.684 0.055 7.31 0.79 9.66
6/8/2022 12:30:00 PM 15.65 60.17 0.055 7.34 0.75 9.62
6/8/2022 12:45:00 PM 15.85 60.53 0.055 7.33 1.15 9.62
6/8/2022 1:00:00 PM 16.24 61.232 0.055 7.35 0.77 9.64
6/8/2022 1:15:00 PM 16.54 61.772 0.055 7.37 0.7 9.58
6/8/2022 1:30:00 PM 16.75 62.15 0.054 7.36 0.68 9.55
6/8/2022 1:45:00 PM 17.09 62.762 0.055 7.33 0.83 9.5
6/8/2022 2:00:00 PM 17.25 63.05 0.055 7.34 0.74 9.36
6/8/2022 2:15:00 PM 17.51 63.518 0.055 7.34 1.21 9.32
6/8/2022 2:30:00 PM 17.79 64.022 0.055 7.33 0.74 9.27
6/8/2022 2:45:00 PM 18.04 64.472 0.055 7.35 0.74 9.24
6/8/2022 3:00:00 PM 18.21 64.778 0.055 7.34 0.71 9.09
6/8/2022 3:15:00 PM 18.34 65.012 0.056 7.33 0.78 9.09
6/8/2022 3:30:00 PM 18.53 65.354 0.056 7.31 1.06 9.07
6/8/2022 3:45:00 PM 18.66 65.588 0.056 7.36 1.09 9.06
6/8/2022 4:00:00 PM 18.83 65.894 0.056 7.35 0.92 9.02
6/8/2022 4:15:00 PM 18.97 66.146 0.055 7.34 0.96 8.9
6/8/2022 4:30:00 PM 19.08 66.344 0.055 7.33 1.14 8.9
6/8/2022 4:45:00 PM 19.07 66.326 0.055 7.31 2.63 8.85
6/8/2022 5:00:00 PM 19.11 66.398 0.055 7.29 0.86 8.8
6/8/2022 5:15:00 PM 19.05 66.29 0.056 7.34 0.78 8.83
6/8/2022 5:30:00 PM 18.94 66.092 0.056 7.3 1 8.65
6/8/2022 5:45:00 PM 18.82 65.876 0.056 7.28 0.89 8.64
6/8/2022 6:00:00 PM 18.73 65.714 0.056 7.29 0.81 8.69
6/8/2022 6:15:00 PM 18.65 65.57 0.056 7.28 0.79 8.68
6/8/2022 6:30:00 PM 18.54 65.372 0.056 7.26 0.84 8.65
6/8/2022 6:45:00 PM 18.42 65.156 0.056 7.27 1.39 8.64
6/8/2022 7:00:00 PM 18.27 64.886 0.056 7.24 0.81 8.6
6/8/2022 7:15:00 PM 18.11 64.598 0.056 7.25 0.75 8.54
6/8/2022 7:30:00 PM 17.93 64.274 0.056 7.23 0.79 8.59
6/8/2022 7:45:00 PM 17.8 64.04 0.056 7.22 1.01 8.62
6/8/2022 8:00:00 PM 17.67 63.806 0.055 7.2 0.83 8.57
6/8/2022 8:15:00 PM 17.51 63.518 0.056 7.17 0.88 8.54
6/8/2022 8:30:00 PM 17.37 63.266 0.056 7.18 0.89 8.59
6/8/2022 8:45:00 PM 17.25 63.05 0.056 7.17 1.07 8.56
6/8/2022 9:00:00 PM 17.11 62.798 0.056 7.17 0.87 8.6
6/8/2022 9:15:00 PM 17.01 62.618 0.056 7.14 0.88 8.49
6/8/2022 9:30:00 PM 16.88 62.384 0.055 7.12 1.1 8.44
6/8/2022 9:45:00 PM 16.76 62.168 0.055 7.14 1.03 8.57
6/8/2022 10:00:00 PM 16.67 62.006 0.055 7.12 1.15 8.54
6/8/2022 10:15:00 PM 16.57 61.826 0.055 7.1 1.32 8.44
6/8/2022 10:30:00 PM 16.47 61.646 0.055 7.11 1.57 8.52
6/8/2022 10:45:00 PM 16.37 61.466 0.055 7.09 1.22 8.53
6/8/2022 11:00:00 PM 16.27 61.286 0.055 7.11 1.42 8.56
6/8/2022 11:15:00 PM 16.2 61.16 0.055 7.09 1.16 8.58
6/8/2022 11:30:00 PM 16.1 60.98 0.055 7.09 1.23 8.6
6/8/2022 11:45:00 PM 16.02 60.836 0.055 7.11 1.54 8.6
6/9/2022 12:00:00 AM 15.95 60.71 0.055 7.1 1.22 8.67
6/9/2022 12:15:00 AM 15.87 60.566 0.055 7.11 1.51 8.66
6/9/2022 12:30:00 AM 15.79 60.422 0.055 7.11 1.3 8.71
6/9/2022 12:45:00 AM 15.7 60.26 0.055 7.1 1.59 8.74
6/9/2022 1:00:00 AM 15.62 60.116 0.055 7.06 1.79 8.71
6/9/2022 1:15:00 AM 15.55 59.99 0.054 7.07 2.03 8.69
6/9/2022 1:30:00 AM 15.47 59.846 0.054 7.07 2.72 8.67
6/9/2022 1:45:00 AM 15.39 59.702 0.053 7.07 2.21 8.77
6/9/2022 2:00:00 AM 15.32 59.576 0.053 7.04 2.44 8.73
6/9/2022 2:15:00 AM 15.26 59.468 0.053 7.07 2.61 8.78
6/9/2022 2:30:00 AM 15.21 59.378 0.053 7.07 2.68 8.8
6/9/2022 2:45:00 AM 15.15 59.27 0.053 7.07 2.17 8.8
6/9/2022 3:00:00 AM 15.08 59.144 0.053 7.09 2.07 8.84
6/9/2022 3:15:00 AM 15.03 59.054 0.053 7.1 2.13 8.91
6/9/2022 3:30:00 AM 14.99 58.982 0.053 7.08 2.46 8.84
6/9/2022 3:45:00 AM 14.94 58.892 0.053 7.09 2.02 8.88
6/9/2022 4:00:00 AM 14.89 58.802 0.053 7.09 2.76 8.91
6/9/2022 4:15:00 AM 14.84 58.712 0.053 7.1 3.07 8.94
6/9/2022 4:30:00 AM 14.82 58.676 0.054 7.1 3.3 8.96
6/9/2022 4:45:00 AM 14.79 58.622 0.054 7.1 3.83 8.99
6/9/2022 5:00:00 AM 14.77 58.586 0.054 7.11 3.95 8.98
6/9/2022 5:15:00 AM 14.75 58.55 0.054 7.11 2.91 9.02
6/9/2022 5:30:00 AM 14.72 58.496 0.053 7.12 4.75 9.07
6/9/2022 5:45:00 AM 14.69 58.442 0.053 7.12 4.91 9.09
6/9/2022 6:00:00 AM 14.66 58.388 0.053 7.12 4.53 9.08
6/9/2022 6:15:00 AM 14.63 58.334 0.053 7.14 4.88 9.11
6/9/2022 6:30:00 AM 14.59 58.262 0.053 7.15 4.82 9.15
6/9/2022 6:45:00 AM 14.57 58.226 0.053 7.14 5.69 9.16
6/9/2022 7:00:00 AM 14.54 58.172 0.053 7.15 4.06 9.18
6/9/2022 7:15:00 AM 14.51 58.118 0.053 7.14 4.5 9.17
6/9/2022 7:30:00 AM 14.49 58.082 0.053 7.14 4.2 9.21
6/9/2022 7:45:00 AM 14.47 58.046 0.053 7.15 4.2 9.22
6/9/2022 8:00:00 AM 14.46 58.028 0.053 7.17 3.61 9.27
6/9/2022 8:15:00 AM 14.45 58.01 0.053 7.16 3.47 9.28
6/9/2022 8:30:00 AM 14.43 57.974 0.053 7.17 2.93 9.31
6/9/2022 8:45:00 AM 14.42 57.956 0.053 7.17 2.91 9.34
6/9/2022 9:00:00 AM 14.42 57.956 0.053 7.17 2.67 9.33
6/9/2022 9:15:00 AM 14.44 57.992 0.052 7.19 8.81 9.38
6/9/2022 9:30:00 AM 14.46 58.028 0.052 7.21 2.31 9.44
6/9/2022 9:45:00 AM 14.51 58.118 0.052 7.21 2.08 9.45
6/9/2022 10:00:00 AM 14.52 58.136 0.052 7.24 1.87 9.5
6/9/2022 10:15:00 AM 14.57 58.226 0.052 7.22 2.11 9.51
6/9/2022 10:30:00 AM 14.59 58.262 0.052 7.25 1.82 9.5
6/9/2022 10:45:00 AM 14.64 58.352 0.052 7.24 2.01 9.5
6/9/2022 11:00:00 AM 14.78 58.604 0.052 7.25 1.61 9.49
6/9/2022 11:15:00 AM 14.81 58.658 0.053 7.26 1.77 9.49
6/9/2022 11:30:00 AM 14.85 58.73 0.053 7.25 1.67 9.42
6/9/2022 11:45:00 AM 14.96 58.928 0.052 7.26 1.63 9.49
6/9/2022 12:00:00 PM 15.09 59.162 0.052 7.27 1.57 9.51
6/9/2022 12:15:00 PM 15.08 59.144 0.053 7.27 1.46 9.47
6/9/2022 12:30:00 PM 15.1 59.18 0.053 7.29 1.69 9.51
6/9/2022 12:45:00 PM 15.11 59.198 0.053 7.29 2.17 9.5
6/9/2022 1:00:00 PM 15.13 59.234 0.052 7.27 2.22 9.46
6/9/2022 1:15:00 PM 15.23 59.414 0.052 7.29 1.53 9.52
6/9/2022 1:30:00 PM 15.25 59.45 0.052 7.3 1.43 9.48
6/9/2022 1:45:00 PM 15.23 59.414 0.052 7.29 1.58 9.43
6/9/2022 2:00:00 PM 15.19 59.342 0.052 7.29 2.25 9.41
6/9/2022 2:15:00 PM 15.23 59.414 0.052 7.28 1.58 9.41
6/9/2022 2:30:00 PM 15.25 59.45 0.052 7.3 1.47 9.46
6/9/2022 2:45:00 PM 15.36 59.648 0.052 7.29 1.58 9.47
6/9/2022 3:00:00 PM 15.31 59.558 0.052 7.3 1.61 9.46
6/9/2022 3:15:00 PM 15.28 59.504 0.052 7.3 1.37 9.46
6/9/2022 3:30:00 PM 15.28 59.504 0.052 7.31 1.44 9.47
6/9/2022 3:45:00 PM 15.31 59.558 0.052 7.29 1.39 9.43
6/9/2022 4:00:00 PM 15.34 59.612 0.052 7.33 1.38 9.47
6/9/2022 4:15:00 PM 15.32 59.576 0.052 7.29 1.6 9.37
6/9/2022 4:30:00 PM 15.32 59.576 0.052 7.3 1.83 9.35
6/9/2022 4:45:00 PM 15.35 59.63 0.052 7.31 1.66 9.41
6/9/2022 5:00:00 PM 15.35 59.63 0.052 7.29 1.48 9.38
6/9/2022 5:15:00 PM 15.27 59.486 0.052 7.28 1.51 9.39
6/9/2022 5:30:00 PM 15.27 59.486 0.052 7.27 1.44 9.36
6/9/2022 5:45:00 PM 15.24 59.432 0.052 7.28 1.53 9.36
6/9/2022 6:00:00 PM 15.24 59.432 0.052 7.28 1.33 9.36
6/9/2022 6:15:00 PM 15.26 59.468 0.052 7.27 1.88 9.38
6/9/2022 6:30:00 PM 15.23 59.414 0.052 7.26 1.28 9.35
6/9/2022 6:45:00 PM 15.17 59.306 0.052 7.26 1.97 9.29
6/9/2022 7:00:00 PM 15.11 59.198 0.052 7.25 1.26 9.26
6/9/2022 7:15:00 PM 15.06 59.108 0.052 7.23 1.31 9.26
6/9/2022 7:30:00 PM 15.02 59.036 0.053 7.22 1.13 9.2
6/9/2022 7:45:00 PM 14.94 58.892 0.053 7.22 2.09 9.21
6/9/2022 8:00:00 PM 14.87 58.766 0.053 7.2 1.79 9.17
6/9/2022 8:15:00 PM 14.81 58.658 0.053 7.17 1.58 9.14
6/9/2022 8:30:00 PM 14.71 58.478 0.053 7.19 1.19 9.2
6/9/2022 8:45:00 PM 14.64 58.352 0.053 7.17 1.42 9.14
6/9/2022 9:00:00 PM 14.57 58.226 0.053 7.15 1.26 9.14
6/9/2022 9:15:00 PM 14.48 58.064 0.053 7.16 1.25 9.16
6/9/2022 9:30:00 PM 14.41 57.938 0.053 7.16 1.37 9.17
6/9/2022 9:45:00 PM 14.33 57.794 0.053 7.15 1.16 9.19
6/9/2022 10:00:00 PM 14.25 57.65 0.053 7.14 1.71 9.15
6/9/2022 10:15:00 PM 14.15 57.47 0.053 7.14 1.39 9.16
6/9/2022 10:30:00 PM 14.07 57.326 0.054 7.12 2.01 9.2
6/9/2022 10:45:00 PM 13.99 57.182 0.054 7.13 1.41 9.22
6/9/2022 11:00:00 PM 13.92 57.056 0.054 7.14 1.41 9.23
6/9/2022 11:15:00 PM 13.85 56.93 0.054 7.11 1.45 9.23
6/9/2022 11:30:00 PM 13.78 56.804 0.054 7.13 1.67 9.28
6/9/2022 11:45:00 PM 13.7 56.66 0.054 7.13 3.32 9.29
6/10/2022 12:00:00 AM 13.66 56.588 0.054 7.13 1.98 9.32
6/10/2022 12:15:00 AM 13.61 56.498 0.054 7.13 1.33 9.25
6/10/2022 12:30:00 AM 13.56 56.408 0.054 7.13 1.8 9.31
6/10/2022 12:45:00 AM 13.51 56.318 0.054 7.13 1.51 9.34
6/10/2022 1:00:00 AM 13.47 56.246 0.054 7.12 1.28 9.31
6/10/2022 1:15:00 AM 13.42 56.156 0.054 7.12 1.27 9.35
6/10/2022 1:30:00 AM 13.38 56.084 0.055 7.12 1.6 9.36
6/10/2022 1:45:00 AM 13.33 55.994 0.054 7.11 1.42 9.36
6/10/2022 2:00:00 AM 13.27 55.886 0.054 7.12 1.7 9.36
6/10/2022 2:15:00 AM 13.22 55.796 0.054 7.1 1.69 9.4
6/10/2022 2:30:00 AM 13.16 55.688 0.055 7.12 1.69 9.36
6/10/2022 2:45:00 AM 13.1 55.58 0.055 7.12 1.39 9.4
6/10/2022 3:00:00 AM 13.05 55.49 0.054 7.11 1.46 9.42
6/10/2022 3:15:00 AM 13 55.4 0.054 7.13 2.52 9.45
6/10/2022 3:30:00 AM 12.94 55.292 0.055 7.12 2.04 9.48
6/10/2022 3:45:00 AM 12.9 55.22 0.055 7.11 1.72 9.45
6/10/2022 4:00:00 AM 12.85 55.13 0.055 7.12 1.76 9.48
6/10/2022 4:15:00 AM 12.81 55.058 0.055 7.11 2.11 9.51
6/10/2022 4:30:00 AM 12.77 54.986 0.055 7.13 1.6 9.52
6/10/2022 4:45:00 AM 12.72 54.896 0.055 7.11 1.48 9.51
6/10/2022 5:00:00 AM 12.69 54.842 0.055 7.11 1.4 9.45
6/10/2022 5:15:00 AM 12.64 54.752 0.055 7.11 1.53 9.52
6/10/2022 5:30:00 AM 12.6 54.68 0.055 7.12 1.96 9.5
6/10/2022 5:45:00 AM 12.56 54.608 0.055 7.12 1.61 9.48
6/10/2022 6:00:00 AM 12.52 54.536 0.055 7.1 2.31 9.54
6/10/2022 6:15:00 AM 12.48 54.464 0.055 7.12 1.32 9.55
6/10/2022 6:30:00 AM 12.45 54.41 0.055 7.11 1.28 9.61
6/10/2022 6:45:00 AM 12.42 54.356 0.055 7.12 1.49 9.58
6/10/2022 7:00:00 AM 12.4 54.32 0.055 7.12 2.06 9.64
6/10/2022 7:15:00 AM 12.37 54.266 0.055 7.14 6.28 9.75
6/10/2022 7:30:00 AM 12.35 54.23 0.055 7.15 1.31 9.77
6/10/2022 7:45:00 AM 12.35 54.23 0.055 7.15 1.29 9.8
6/10/2022 8:00:00 AM 12.35 54.23 0.055 7.18 1.36 9.84
6/10/2022 8:15:00 AM 12.33 54.194 0.055 7.18 1.31 9.89
6/10/2022 8:30:00 AM 12.32 54.176 0.055 7.18 1.55 9.89
6/10/2022 8:45:00 AM 12.33 54.194 0.055 7.2 1.37 9.91
6/10/2022 9:00:00 AM 12.36 54.248 0.055 7.19 1.4 9.88
6/10/2022 9:15:00 AM 12.41 54.338 0.055 7.19 1.23 9.84
6/10/2022 9:30:00 AM 12.51 54.518 0.055 7.2 1.93 9.87
6/10/2022 9:45:00 AM 12.64 54.752 0.055 7.2 1.47 9.92
6/10/2022 10:00:00 AM 12.84 55.112 0.055 7.21 1.52 9.92
6/10/2022 10:15:00 AM 12.99 55.382 0.055 7.23 1.18 9.93
6/10/2022 10:30:00 AM 13.15 55.67 0.055 7.22 1.31 9.84